<?xml version='1.0' encoding='UTF-8'?>
<gpx version="1.1" creator="https://www.komoot.de" xmlns="http://www.topografix.com/GPX/1/1" xmlns:xsi="http://www.w3.org/2001/XMLSchema-instance" xsi:schemaLocation="http://www.topografix.com/GPX/1/1 http://www.topografix.com/GPX/1/1/gpx.xsd">
  <metadata>
    <name>58_620BuerensteigElfingen</name>
    <author>
      <link href="https://www.komoot.de">
        <text>komoot</text>
        <type>text/html</type>
      </link>
    </author>
  </metadata>
  <trk>
    <name>58_620BuerensteigElfingen</name>
    <trkseg>
      <trkpt lat="47.540894" lon="7.871220">
        <ele>340.116086</ele>
        <time>2021-11-14T20:33:55.513Z</time>
      </trkpt>
      <trkpt lat="47.540933" lon="7.871187">
        <ele>340.116086</ele>
        <time>2021-11-14T20:33:56.048Z</time>
      </trkpt>
      <trkpt lat="47.541158" lon="7.871000">
        <ele>340.116086</ele>
        <time>2021-11-14T20:34:00.103Z</time>
      </trkpt>
      <trkpt lat="47.541410" lon="7.870791">
        <ele>340.116086</ele>
        <time>2021-11-14T20:34:04.768Z</time>
      </trkpt>
      <trkpt lat="47.541576" lon="7.870664">
        <ele>340.116086</ele>
        <time>2021-11-14T20:34:08.732Z</time>
      </trkpt>
      <trkpt lat="47.541796" lon="7.871042">
        <ele>340.726202</ele>
        <time>2021-11-14T20:34:15.752Z</time>
      </trkpt>
      <trkpt lat="47.541953" lon="7.871286">
        <ele>341.368528</ele>
        <time>2021-11-14T20:34:20.448Z</time>
      </trkpt>
      <trkpt lat="47.542039" lon="7.871556">
        <ele>341.937415</ele>
        <time>2021-11-14T20:34:24.771Z</time>
      </trkpt>
      <trkpt lat="47.542067" lon="7.871664">
        <ele>342.157867</ele>
        <time>2021-11-14T20:34:26.331Z</time>
      </trkpt>
      <trkpt lat="47.542091" lon="7.871721">
        <ele>342.285878</ele>
        <time>2021-11-14T20:34:26.925Z</time>
      </trkpt>
      <trkpt lat="47.542218" lon="7.871866">
        <ele>342.738491</ele>
        <time>2021-11-14T20:34:32.125Z</time>
      </trkpt>
      <trkpt lat="47.542394" lon="7.872341">
        <ele>343.770992</ele>
        <time>2021-11-14T20:34:42.200Z</time>
      </trkpt>
      <trkpt lat="47.542436" lon="7.872494">
        <ele>344.085718</ele>
        <time>2021-11-14T20:34:45.531Z</time>
      </trkpt>
      <trkpt lat="47.542537" lon="7.872430">
        <ele>344.395807</ele>
        <time>2021-11-14T20:34:47.567Z</time>
      </trkpt>
      <trkpt lat="47.542714" lon="7.872334">
        <ele>344.927874</ele>
        <time>2021-11-14T20:34:54.679Z</time>
      </trkpt>
      <trkpt lat="47.542814" lon="7.872280">
        <ele>345.265340</ele>
        <time>2021-11-14T20:34:57.557Z</time>
      </trkpt>
      <trkpt lat="47.542919" lon="7.872226">
        <ele>345.910417</ele>
        <time>2021-11-14T20:35:01.397Z</time>
      </trkpt>
      <trkpt lat="47.543013" lon="7.872182">
        <ele>346.482561</ele>
        <time>2021-11-14T20:35:05.027Z</time>
      </trkpt>
      <trkpt lat="47.543233" lon="7.872082">
        <ele>347.818151</ele>
        <time>2021-11-14T20:35:12.125Z</time>
      </trkpt>
      <trkpt lat="47.543251" lon="7.872152">
        <ele>348.111618</ele>
        <time>2021-11-14T20:35:15.539Z</time>
      </trkpt>
      <trkpt lat="47.543332" lon="7.872237">
        <ele>348.687723</ele>
        <time>2021-11-14T20:35:18.949Z</time>
      </trkpt>
      <trkpt lat="47.544390" lon="7.872423">
        <ele>354.871231</ele>
        <time>2021-11-14T20:36:00.581Z</time>
      </trkpt>
      <trkpt lat="47.544883" lon="7.872555">
        <ele>358.171440</ele>
        <time>2021-11-14T20:36:22.924Z</time>
      </trkpt>
      <trkpt lat="47.545131" lon="7.872664">
        <ele>359.947361</ele>
        <time>2021-11-14T20:36:33.928Z</time>
      </trkpt>
      <trkpt lat="47.545375" lon="7.872836">
        <ele>361.802436</ele>
        <time>2021-11-14T20:36:44.868Z</time>
      </trkpt>
      <trkpt lat="47.545478" lon="7.872968">
        <ele>362.737415</ele>
        <time>2021-11-14T20:36:51.676Z</time>
      </trkpt>
      <trkpt lat="47.545515" lon="7.873015">
        <ele>363.072018</ele>
        <time>2021-11-14T20:36:53.632Z</time>
      </trkpt>
      <trkpt lat="47.545746" lon="7.873302">
        <ele>365.141748</ele>
        <time>2021-11-14T20:37:06.832Z</time>
      </trkpt>
      <trkpt lat="47.545934" lon="7.873549">
        <ele>366.866833</ele>
        <time>2021-11-14T20:37:16.932Z</time>
      </trkpt>
      <trkpt lat="47.546077" lon="7.873763">
        <ele>368.179624</ele>
        <time>2021-11-14T20:37:26.129Z</time>
      </trkpt>
      <trkpt lat="47.546135" lon="7.873859">
        <ele>368.601686</ele>
        <time>2021-11-14T20:37:29.368Z</time>
      </trkpt>
      <trkpt lat="47.546309" lon="7.874154">
        <ele>369.885048</ele>
        <time>2021-11-14T20:37:40.482Z</time>
      </trkpt>
      <trkpt lat="47.547126" lon="7.875801">
        <ele>376.580687</ele>
        <time>2021-11-14T20:38:26.244Z</time>
      </trkpt>
      <trkpt lat="47.547574" lon="7.876801">
        <ele>377.215721</ele>
        <time>2021-11-14T20:38:45.239Z</time>
      </trkpt>
      <trkpt lat="47.547992" lon="7.877974">
        <ele>377.794123</ele>
        <time>2021-11-14T20:38:58.040Z</time>
      </trkpt>
      <trkpt lat="47.548234" lon="7.878638">
        <ele>376.290263</ele>
        <time>2021-11-14T20:39:03.304Z</time>
      </trkpt>
      <trkpt lat="47.548422" lon="7.878959">
        <ele>375.126016</ele>
        <time>2021-11-14T20:39:06.074Z</time>
      </trkpt>
      <trkpt lat="47.548718" lon="7.879258">
        <ele>373.672005</ele>
        <time>2021-11-14T20:39:09.489Z</time>
      </trkpt>
      <trkpt lat="47.549140" lon="7.879391">
        <ele>371.920946</ele>
        <time>2021-11-14T20:39:13.558Z</time>
      </trkpt>
      <trkpt lat="47.549318" lon="7.879398">
        <ele>371.198258</ele>
        <time>2021-11-14T20:39:15.171Z</time>
      </trkpt>
      <trkpt lat="47.549426" lon="7.879394">
        <ele>370.759791</ele>
        <time>2021-11-14T20:39:16.215Z</time>
      </trkpt>
      <trkpt lat="47.549694" lon="7.879391">
        <ele>369.743516</ele>
        <time>2021-11-14T20:39:18.740Z</time>
      </trkpt>
      <trkpt lat="47.549920" lon="7.879395">
        <ele>368.899090</ele>
        <time>2021-11-14T20:39:20.934Z</time>
      </trkpt>
      <trkpt lat="47.549993" lon="7.879403">
        <ele>368.625607</ele>
        <time>2021-11-14T20:39:21.609Z</time>
      </trkpt>
      <trkpt lat="47.550458" lon="7.879428">
        <ele>366.887161</ele>
        <time>2021-11-14T20:39:26.109Z</time>
      </trkpt>
      <trkpt lat="47.550948" lon="7.879456">
        <ele>365.055094</ele>
        <time>2021-11-14T20:39:31.017Z</time>
      </trkpt>
      <trkpt lat="47.551453" lon="7.879539">
        <ele>363.471529</ele>
        <time>2021-11-14T20:39:36.639Z</time>
      </trkpt>
      <trkpt lat="47.551499" lon="7.879547">
        <ele>363.376885</ele>
        <time>2021-11-14T20:39:37.158Z</time>
      </trkpt>
      <trkpt lat="47.552616" lon="7.879896">
        <ele>361.044154</ele>
        <time>2021-11-14T20:39:50.177Z</time>
      </trkpt>
      <trkpt lat="47.553292" lon="7.880216">
        <ele>358.981069</ele>
        <time>2021-11-14T20:39:57.848Z</time>
      </trkpt>
      <trkpt lat="47.554555" lon="7.880902">
        <ele>353.337749</ele>
        <time>2021-11-14T20:40:10.761Z</time>
      </trkpt>
      <trkpt lat="47.554711" lon="7.880958">
        <ele>352.664364</ele>
        <time>2021-11-14T20:40:12.264Z</time>
      </trkpt>
      <trkpt lat="47.554840" lon="7.880981">
        <ele>351.861983</ele>
        <time>2021-11-14T20:40:13.438Z</time>
      </trkpt>
      <trkpt lat="47.554892" lon="7.880986">
        <ele>351.533326</ele>
        <time>2021-11-14T20:40:13.920Z</time>
      </trkpt>
      <trkpt lat="47.554892" lon="7.880986">
        <ele>351.533326</ele>
        <time>2021-11-14T20:40:13.924Z</time>
      </trkpt>
      <trkpt lat="47.555165" lon="7.880954">
        <ele>349.806117</ele>
        <time>2021-11-14T20:40:16.444Z</time>
      </trkpt>
      <trkpt lat="47.555219" lon="7.881390">
        <ele>347.919285</ele>
        <time>2021-11-14T20:40:19.154Z</time>
      </trkpt>
      <trkpt lat="47.555161" lon="7.882307">
        <ele>343.998959</ele>
        <time>2021-11-14T20:40:24.769Z</time>
      </trkpt>
      <trkpt lat="47.554972" lon="7.883695">
        <ele>338.352169</ele>
        <time>2021-11-14T20:40:33.405Z</time>
      </trkpt>
      <trkpt lat="47.554519" lon="7.886778">
        <ele>327.711488</ele>
        <time>2021-11-14T20:40:53.448Z</time>
      </trkpt>
      <trkpt lat="47.554151" lon="7.889353">
        <ele>321.453767</ele>
        <time>2021-11-14T20:41:11.424Z</time>
      </trkpt>
      <trkpt lat="47.553816" lon="7.891691">
        <ele>317.355770</ele>
        <time>2021-11-14T20:41:28.488Z</time>
      </trkpt>
      <trkpt lat="47.553711" lon="7.892472">
        <ele>316.231446</ele>
        <time>2021-11-14T20:41:34.258Z</time>
      </trkpt>
      <trkpt lat="47.553422" lon="7.894151">
        <ele>314.499413</ele>
        <time>2021-11-14T20:41:47.563Z</time>
      </trkpt>
      <trkpt lat="47.553308" lon="7.894573">
        <ele>314.251321</ele>
        <time>2021-11-14T20:41:51.406Z</time>
      </trkpt>
      <trkpt lat="47.553260" lon="7.894549">
        <ele>314.210353</ele>
        <time>2021-11-14T20:41:52.061Z</time>
      </trkpt>
      <trkpt lat="47.553130" lon="7.894640">
        <ele>314.094080</ele>
        <time>2021-11-14T20:41:54.049Z</time>
      </trkpt>
      <trkpt lat="47.553112" lon="7.894710">
        <ele>314.053195</ele>
        <time>2021-11-14T20:41:54.683Z</time>
      </trkpt>
      <trkpt lat="47.553110" lon="7.894769">
        <ele>314.020952</ele>
        <time>2021-11-14T20:41:55.212Z</time>
      </trkpt>
      <trkpt lat="47.553174" lon="7.894916">
        <ele>313.925474</ele>
        <time>2021-11-14T20:41:56.743Z</time>
      </trkpt>
      <trkpt lat="47.553211" lon="7.894938">
        <ele>313.893233</ele>
        <time>2021-11-14T20:41:57.294Z</time>
      </trkpt>
      <trkpt lat="47.553164" lon="7.895114">
        <ele>313.789926</ele>
        <time>2021-11-14T20:41:59.174Z</time>
      </trkpt>
      <trkpt lat="47.552719" lon="7.896440">
        <ele>313.304500</ele>
        <time>2021-11-14T20:42:13.494Z</time>
      </trkpt>
      <trkpt lat="47.552358" lon="7.897179">
        <ele>313.119703</ele>
        <time>2021-11-14T20:42:23.102Z</time>
      </trkpt>
      <trkpt lat="47.551673" lon="7.898276">
        <ele>311.914742</ele>
        <time>2021-11-14T20:42:35.709Z</time>
      </trkpt>
      <trkpt lat="47.551366" lon="7.899159">
        <ele>310.400185</ele>
        <time>2021-11-14T20:42:42.993Z</time>
      </trkpt>
      <trkpt lat="47.551253" lon="7.899932">
        <ele>309.194168</ele>
        <time>2021-11-14T20:42:48.467Z</time>
      </trkpt>
      <trkpt lat="47.551142" lon="7.902561">
        <ele>302.491927</ele>
        <time>2021-11-14T20:43:05.817Z</time>
      </trkpt>
      <trkpt lat="47.550965" lon="7.903751">
        <ele>299.762483</ele>
        <time>2021-11-14T20:43:13.848Z</time>
      </trkpt>
      <trkpt lat="47.550802" lon="7.904472">
        <ele>298.127578</ele>
        <time>2021-11-14T20:43:19.049Z</time>
      </trkpt>
      <trkpt lat="47.550730" lon="7.904729">
        <ele>297.529279</ele>
        <time>2021-11-14T20:43:20.960Z</time>
      </trkpt>
      <trkpt lat="47.550497" lon="7.905558">
        <ele>295.900661</ele>
        <time>2021-11-14T20:43:27.421Z</time>
      </trkpt>
      <trkpt lat="47.549539" lon="7.908625">
        <ele>292.758240</ele>
        <time>2021-11-14T20:43:54.481Z</time>
      </trkpt>
      <trkpt lat="47.549520" lon="7.908678">
        <ele>292.711714</ele>
        <time>2021-11-14T20:43:54.982Z</time>
      </trkpt>
      <trkpt lat="47.549385" lon="7.909125">
        <ele>292.332052</ele>
        <time>2021-11-14T20:43:58.979Z</time>
      </trkpt>
      <trkpt lat="47.549272" lon="7.909500">
        <ele>292.013662</ele>
        <time>2021-11-14T20:44:02.336Z</time>
      </trkpt>
      <trkpt lat="47.549195" lon="7.909756">
        <ele>291.796374</ele>
        <time>2021-11-14T20:44:04.621Z</time>
      </trkpt>
      <trkpt lat="47.549102" lon="7.910058">
        <ele>291.539020</ele>
        <time>2021-11-14T20:44:07.324Z</time>
      </trkpt>
      <trkpt lat="47.549012" lon="7.910340">
        <ele>291.300060</ele>
        <time>2021-11-14T20:44:09.839Z</time>
      </trkpt>
      <trkpt lat="47.548412" lon="7.912168">
        <ele>289.754088</ele>
        <time>2021-11-14T20:44:26.174Z</time>
      </trkpt>
      <trkpt lat="47.548027" lon="7.913334">
        <ele>289.148290</ele>
        <time>2021-11-14T20:44:36.935Z</time>
      </trkpt>
      <trkpt lat="47.547994" lon="7.913433">
        <ele>289.113209</ele>
        <time>2021-11-14T20:44:37.856Z</time>
      </trkpt>
      <trkpt lat="47.547423" lon="7.915080">
        <ele>288.618398</ele>
        <time>2021-11-14T20:44:55.345Z</time>
      </trkpt>
      <trkpt lat="47.547113" lon="7.915971">
        <ele>288.890826</ele>
        <time>2021-11-14T20:45:05.982Z</time>
      </trkpt>
      <trkpt lat="47.547091" lon="7.916039">
        <ele>288.911320</ele>
        <time>2021-11-14T20:45:07.032Z</time>
      </trkpt>
      <trkpt lat="47.547032" lon="7.916218">
        <ele>288.965458</ele>
        <time>2021-11-14T20:45:09.303Z</time>
      </trkpt>
      <trkpt lat="47.546821" lon="7.916867">
        <ele>289.161235</ele>
        <time>2021-11-14T20:45:17.718Z</time>
      </trkpt>
      <trkpt lat="47.546262" lon="7.919081">
        <ele>289.804311</ele>
        <time>2021-11-14T20:45:45.380Z</time>
      </trkpt>
      <trkpt lat="47.546128" lon="7.919617">
        <ele>289.959852</ele>
        <time>2021-11-14T20:45:50.808Z</time>
      </trkpt>
      <trkpt lat="47.545973" lon="7.920313">
        <ele>290.302505</ele>
        <time>2021-11-14T20:45:58.227Z</time>
      </trkpt>
      <trkpt lat="47.545913" lon="7.920765">
        <ele>290.561182</ele>
        <time>2021-11-14T20:46:02.985Z</time>
      </trkpt>
      <trkpt lat="47.545881" lon="7.921096">
        <ele>290.748948</ele>
        <time>2021-11-14T20:46:06.951Z</time>
      </trkpt>
      <trkpt lat="47.545810" lon="7.921755">
        <ele>291.123687</ele>
        <time>2021-11-14T20:46:15.561Z</time>
      </trkpt>
      <trkpt lat="47.545778" lon="7.921947">
        <ele>291.234741</ele>
        <time>2021-11-14T20:46:18.515Z</time>
      </trkpt>
      <trkpt lat="47.545714" lon="7.922249">
        <ele>291.412487</ele>
        <time>2021-11-14T20:46:22.369Z</time>
      </trkpt>
      <trkpt lat="47.545699" lon="7.922325">
        <ele>291.456951</ele>
        <time>2021-11-14T20:46:23.566Z</time>
      </trkpt>
      <trkpt lat="47.545690" lon="7.922369">
        <ele>291.482769</ele>
        <time>2021-11-14T20:46:24.638Z</time>
      </trkpt>
      <trkpt lat="47.545641" lon="7.922610">
        <ele>291.923216</ele>
        <time>2021-11-14T20:46:27.993Z</time>
      </trkpt>
      <trkpt lat="47.545587" lon="7.922895">
        <ele>292.571404</ele>
        <time>2021-11-14T20:46:32.825Z</time>
      </trkpt>
      <trkpt lat="47.545553" lon="7.923142">
        <ele>293.123396</ele>
        <time>2021-11-14T20:46:36.435Z</time>
      </trkpt>
      <trkpt lat="47.545536" lon="7.923407">
        <ele>293.706286</ele>
        <time>2021-11-14T20:46:41.311Z</time>
      </trkpt>
      <trkpt lat="47.545521" lon="7.923709">
        <ele>294.369369</ele>
        <time>2021-11-14T20:46:46.478Z</time>
      </trkpt>
      <trkpt lat="47.545481" lon="7.924396">
        <ele>295.879292</ele>
        <time>2021-11-14T20:47:01.081Z</time>
      </trkpt>
      <trkpt lat="47.545466" lon="7.924880">
        <ele>296.940233</ele>
        <time>2021-11-14T20:47:12.388Z</time>
      </trkpt>
      <trkpt lat="47.545446" lon="7.925350">
        <ele>297.909765</ele>
        <time>2021-11-14T20:47:22.763Z</time>
      </trkpt>
      <trkpt lat="47.545417" lon="7.925848">
        <ele>298.894646</ele>
        <time>2021-11-14T20:47:33.242Z</time>
      </trkpt>
      <trkpt lat="47.545409" lon="7.926773">
        <ele>300.717373</ele>
        <time>2021-11-14T20:47:50.443Z</time>
      </trkpt>
      <trkpt lat="47.545407" lon="7.927001">
        <ele>301.166651</ele>
        <time>2021-11-14T20:47:54.252Z</time>
      </trkpt>
      <trkpt lat="47.545406" lon="7.927306">
        <ele>301.767617</ele>
        <time>2021-11-14T20:47:58.856Z</time>
      </trkpt>
      <trkpt lat="47.545421" lon="7.927686">
        <ele>302.517630</ele>
        <time>2021-11-14T20:48:04.392Z</time>
      </trkpt>
      <trkpt lat="47.545475" lon="7.928419">
        <ele>302.208821</ele>
        <time>2021-11-14T20:48:13.709Z</time>
      </trkpt>
      <trkpt lat="47.545563" lon="7.929641">
        <ele>301.503906</ele>
        <time>2021-11-14T20:48:23.589Z</time>
      </trkpt>
      <trkpt lat="47.545661" lon="7.930955">
        <ele>300.450131</ele>
        <time>2021-11-14T20:48:32.985Z</time>
      </trkpt>
      <trkpt lat="47.545696" lon="7.931497">
        <ele>299.859855</ele>
        <time>2021-11-14T20:48:36.953Z</time>
      </trkpt>
      <trkpt lat="47.545721" lon="7.931992">
        <ele>299.321714</ele>
        <time>2021-11-14T20:48:40.746Z</time>
      </trkpt>
      <trkpt lat="47.545724" lon="7.932758">
        <ele>298.491264</ele>
        <time>2021-11-14T20:48:46.955Z</time>
      </trkpt>
      <trkpt lat="47.545702" lon="7.933290">
        <ele>298.291100</ele>
        <time>2021-11-14T20:48:51.598Z</time>
      </trkpt>
      <trkpt lat="47.545674" lon="7.933625">
        <ele>298.427063</ele>
        <time>2021-11-14T20:48:54.799Z</time>
      </trkpt>
      <trkpt lat="47.545457" lon="7.935110">
        <ele>299.039049</ele>
        <time>2021-11-14T20:49:12.934Z</time>
      </trkpt>
      <trkpt lat="47.545074" lon="7.936484">
        <ele>300.321988</ele>
        <time>2021-11-14T20:49:34.461Z</time>
      </trkpt>
      <trkpt lat="47.544903" lon="7.936917">
        <ele>300.891982</ele>
        <time>2021-11-14T20:49:41.777Z</time>
      </trkpt>
      <trkpt lat="47.544705" lon="7.937395">
        <ele>301.529200</ele>
        <time>2021-11-14T20:49:49.961Z</time>
      </trkpt>
      <trkpt lat="47.544472" lon="7.937932">
        <ele>302.254529</ele>
        <time>2021-11-14T20:49:59.368Z</time>
      </trkpt>
      <trkpt lat="47.543826" lon="7.939433">
        <ele>304.369285</ele>
        <time>2021-11-14T20:50:26.250Z</time>
      </trkpt>
      <trkpt lat="47.543435" lon="7.940670">
        <ele>305.724908</ele>
        <time>2021-11-14T20:50:46.211Z</time>
      </trkpt>
      <trkpt lat="47.543161" lon="7.942213">
        <ele>306.671749</ele>
        <time>2021-11-14T20:51:07.060Z</time>
      </trkpt>
      <trkpt lat="47.543007" lon="7.943867">
        <ele>306.107798</ele>
        <time>2021-11-14T20:51:22.603Z</time>
      </trkpt>
      <trkpt lat="47.542913" lon="7.945267">
        <ele>304.861805</ele>
        <time>2021-11-14T20:51:33.364Z</time>
      </trkpt>
      <trkpt lat="47.542872" lon="7.945781">
        <ele>304.139864</ele>
        <time>2021-11-14T20:51:36.960Z</time>
      </trkpt>
      <trkpt lat="47.542875" lon="7.946089">
        <ele>303.606165</ele>
        <time>2021-11-14T20:51:39.051Z</time>
      </trkpt>
      <trkpt lat="47.542902" lon="7.946514">
        <ele>302.866552</ele>
        <time>2021-11-14T20:51:41.930Z</time>
      </trkpt>
      <trkpt lat="47.542943" lon="7.946806">
        <ele>302.349802</ele>
        <time>2021-11-14T20:51:43.977Z</time>
      </trkpt>
      <trkpt lat="47.542974" lon="7.946965">
        <ele>302.063057</ele>
        <time>2021-11-14T20:51:45.187Z</time>
      </trkpt>
      <trkpt lat="47.542979" lon="7.946989">
        <ele>302.019539</ele>
        <time>2021-11-14T20:51:45.343Z</time>
      </trkpt>
      <trkpt lat="47.543007" lon="7.947104">
        <ele>301.807725</ele>
        <time>2021-11-14T20:51:46.191Z</time>
      </trkpt>
      <trkpt lat="47.543087" lon="7.947317">
        <ele>301.385402</ele>
        <time>2021-11-14T20:51:47.934Z</time>
      </trkpt>
      <trkpt lat="47.543191" lon="7.947615">
        <ele>300.804166</ele>
        <time>2021-11-14T20:51:50.375Z</time>
      </trkpt>
      <trkpt lat="47.543242" lon="7.947745">
        <ele>300.543653</ele>
        <time>2021-11-14T20:51:51.505Z</time>
      </trkpt>
      <trkpt lat="47.543273" lon="7.947816">
        <ele>300.397149</ele>
        <time>2021-11-14T20:51:52.132Z</time>
      </trkpt>
      <trkpt lat="47.543358" lon="7.947967">
        <ele>300.061286</ele>
        <time>2021-11-14T20:51:53.575Z</time>
      </trkpt>
      <trkpt lat="47.543455" lon="7.948127">
        <ele>299.987634</ele>
        <time>2021-11-14T20:51:55.242Z</time>
      </trkpt>
      <trkpt lat="47.543532" lon="7.948214">
        <ele>299.938502</ele>
        <time>2021-11-14T20:51:56.323Z</time>
      </trkpt>
      <trkpt lat="47.543579" lon="7.948287">
        <ele>299.903953</ele>
        <time>2021-11-14T20:51:57.086Z</time>
      </trkpt>
      <trkpt lat="47.543760" lon="7.948548">
        <ele>299.775802</ele>
        <time>2021-11-14T20:51:59.975Z</time>
      </trkpt>
      <trkpt lat="47.543864" lon="7.948694">
        <ele>299.703109</ele>
        <time>2021-11-14T20:52:01.647Z</time>
      </trkpt>
      <trkpt lat="47.544239" lon="7.949202">
        <ele>299.445300</ele>
        <time>2021-11-14T20:52:09.009Z</time>
      </trkpt>
      <trkpt lat="47.544521" lon="7.949558">
        <ele>299.257326</ele>
        <time>2021-11-14T20:52:15.182Z</time>
      </trkpt>
      <trkpt lat="47.544901" lon="7.950044">
        <ele>299.257811</ele>
        <time>2021-11-14T20:52:24.341Z</time>
      </trkpt>
      <trkpt lat="47.545166" lon="7.950366">
        <ele>299.385177</ele>
        <time>2021-11-14T20:52:30.670Z</time>
      </trkpt>
      <trkpt lat="47.545434" lon="7.950668">
        <ele>299.510307</ele>
        <time>2021-11-14T20:52:36.455Z</time>
      </trkpt>
      <trkpt lat="47.545542" lon="7.950842">
        <ele>299.569601</ele>
        <time>2021-11-14T20:52:38.938Z</time>
      </trkpt>
      <trkpt lat="47.545667" lon="7.950979">
        <ele>299.627383</ele>
        <time>2021-11-14T20:52:41.475Z</time>
      </trkpt>
      <trkpt lat="47.545737" lon="7.951055">
        <ele>299.659634</ele>
        <time>2021-11-14T20:52:42.747Z</time>
      </trkpt>
      <trkpt lat="47.545876" lon="7.951233">
        <ele>299.727912</ele>
        <time>2021-11-14T20:52:45.491Z</time>
      </trkpt>
      <trkpt lat="47.546112" lon="7.951485">
        <ele>299.800021</ele>
        <time>2021-11-14T20:52:49.624Z</time>
      </trkpt>
      <trkpt lat="47.546164" lon="7.951520">
        <ele>299.778059</ele>
        <time>2021-11-14T20:52:50.463Z</time>
      </trkpt>
      <trkpt lat="47.546212" lon="7.951535">
        <ele>299.759196</ele>
        <time>2021-11-14T20:52:51.177Z</time>
      </trkpt>
      <trkpt lat="47.546231" lon="7.951558">
        <ele>299.749761</ele>
        <time>2021-11-14T20:52:51.495Z</time>
      </trkpt>
      <trkpt lat="47.546421" lon="7.951793">
        <ele>299.654588</ele>
        <time>2021-11-14T20:52:54.798Z</time>
      </trkpt>
      <trkpt lat="47.546634" lon="7.952024">
        <ele>299.553084</ele>
        <time>2021-11-14T20:52:58.228Z</time>
      </trkpt>
      <trkpt lat="47.546695" lon="7.952091">
        <ele>299.523885</ele>
        <time>2021-11-14T20:52:59.191Z</time>
      </trkpt>
      <trkpt lat="47.546776" lon="7.952185">
        <ele>299.484321</ele>
        <time>2021-11-14T20:53:00.541Z</time>
      </trkpt>
      <trkpt lat="47.546935" lon="7.952372">
        <ele>299.406259</ele>
        <time>2021-11-14T20:53:03.190Z</time>
      </trkpt>
      <trkpt lat="47.547090" lon="7.952543">
        <ele>299.331948</ele>
        <time>2021-11-14T20:53:05.800Z</time>
      </trkpt>
      <trkpt lat="47.547400" lon="7.952910">
        <ele>299.179363</ele>
        <time>2021-11-14T20:53:11.226Z</time>
      </trkpt>
      <trkpt lat="47.547458" lon="7.952975">
        <ele>299.151398</ele>
        <time>2021-11-14T20:53:12.224Z</time>
      </trkpt>
      <trkpt lat="47.547550" lon="7.953078">
        <ele>299.112860</ele>
        <time>2021-11-14T20:53:13.844Z</time>
      </trkpt>
      <trkpt lat="47.547624" lon="7.953160">
        <ele>299.087818</ele>
        <time>2021-11-14T20:53:15.105Z</time>
      </trkpt>
      <trkpt lat="47.547797" lon="7.953355">
        <ele>299.028912</ele>
        <time>2021-11-14T20:53:18.093Z</time>
      </trkpt>
      <trkpt lat="47.547871" lon="7.953437">
        <ele>299.003870</ele>
        <time>2021-11-14T20:53:19.348Z</time>
      </trkpt>
      <trkpt lat="47.547994" lon="7.953584">
        <ele>298.961046</ele>
        <time>2021-11-14T20:53:21.476Z</time>
      </trkpt>
      <trkpt lat="47.548115" lon="7.953729">
        <ele>298.918874</ele>
        <time>2021-11-14T20:53:23.599Z</time>
      </trkpt>
      <trkpt lat="47.548251" lon="7.953895">
        <ele>298.871123</ele>
        <time>2021-11-14T20:53:25.979Z</time>
      </trkpt>
      <trkpt lat="47.548342" lon="7.954009">
        <ele>298.838829</ele>
        <time>2021-11-14T20:53:27.619Z</time>
      </trkpt>
      <trkpt lat="47.548542" lon="7.954269">
        <ele>298.766726</ele>
        <time>2021-11-14T20:53:31.349Z</time>
      </trkpt>
      <trkpt lat="47.548833" lon="7.954652">
        <ele>298.661247</ele>
        <time>2021-11-14T20:53:36.891Z</time>
      </trkpt>
      <trkpt lat="47.549042" lon="7.954942">
        <ele>298.611943</ele>
        <time>2021-11-14T20:53:41.033Z</time>
      </trkpt>
      <trkpt lat="47.549157" lon="7.955099">
        <ele>298.591111</ele>
        <time>2021-11-14T20:53:43.319Z</time>
      </trkpt>
      <trkpt lat="47.549444" lon="7.955496">
        <ele>298.538803</ele>
        <time>2021-11-14T20:53:49.165Z</time>
      </trkpt>
      <trkpt lat="47.550205" lon="7.956552">
        <ele>298.399901</ele>
        <time>2021-11-14T20:54:03.798Z</time>
      </trkpt>
      <trkpt lat="47.550380" lon="7.956806">
        <ele>298.391205</ele>
        <time>2021-11-14T20:54:07.359Z</time>
      </trkpt>
      <trkpt lat="47.550445" lon="7.956918">
        <ele>298.387730</ele>
        <time>2021-11-14T20:54:08.843Z</time>
      </trkpt>
      <trkpt lat="47.550549" lon="7.957126">
        <ele>298.381641</ele>
        <time>2021-11-14T20:54:11.364Z</time>
      </trkpt>
      <trkpt lat="47.550613" lon="7.957254">
        <ele>298.377893</ele>
        <time>2021-11-14T20:54:12.992Z</time>
      </trkpt>
      <trkpt lat="47.550735" lon="7.957541">
        <ele>298.369914</ele>
        <time>2021-11-14T20:54:16.448Z</time>
      </trkpt>
      <trkpt lat="47.550745" lon="7.957569">
        <ele>298.369169</ele>
        <time>2021-11-14T20:54:16.696Z</time>
      </trkpt>
      <trkpt lat="47.550869" lon="7.957700">
        <ele>298.363861</ele>
        <time>2021-11-14T20:54:18.969Z</time>
      </trkpt>
      <trkpt lat="47.551300" lon="7.958844">
        <ele>298.375337</ele>
        <time>2021-11-14T20:54:31.825Z</time>
      </trkpt>
      <trkpt lat="47.551677" lon="7.960100">
        <ele>298.688654</ele>
        <time>2021-11-14T20:54:46.562Z</time>
      </trkpt>
      <trkpt lat="47.551865" lon="7.960528">
        <ele>298.805049</ele>
        <time>2021-11-14T20:54:52.413Z</time>
      </trkpt>
      <trkpt lat="47.551882" lon="7.960631">
        <ele>298.829218</ele>
        <time>2021-11-14T20:54:53.626Z</time>
      </trkpt>
      <trkpt lat="47.551894" lon="7.960729">
        <ele>298.851919</ele>
        <time>2021-11-14T20:54:55.030Z</time>
      </trkpt>
      <trkpt lat="47.551882" lon="7.960867">
        <ele>298.883634</ele>
        <time>2021-11-14T20:54:56.556Z</time>
      </trkpt>
      <trkpt lat="47.551859" lon="7.961133">
        <ele>298.944807</ele>
        <time>2021-11-14T20:54:59.505Z</time>
      </trkpt>
      <trkpt lat="47.551906" lon="7.962453">
        <ele>299.289763</ele>
        <time>2021-11-14T20:55:14.911Z</time>
      </trkpt>
      <trkpt lat="47.551918" lon="7.963725">
        <ele>299.621746</ele>
        <time>2021-11-14T20:55:28.560Z</time>
      </trkpt>
      <trkpt lat="47.551902" lon="7.964650">
        <ele>299.481315</ele>
        <time>2021-11-14T20:55:37.673Z</time>
      </trkpt>
      <trkpt lat="47.551767" lon="7.967910">
        <ele>298.951135</ele>
        <time>2021-11-14T20:56:07.335Z</time>
      </trkpt>
      <trkpt lat="47.551839" lon="7.968208">
        <ele>298.908785</ele>
        <time>2021-11-14T20:56:10.427Z</time>
      </trkpt>
      <trkpt lat="47.551847" lon="7.968315">
        <ele>298.894381</ele>
        <time>2021-11-14T20:56:11.403Z</time>
      </trkpt>
      <trkpt lat="47.551825" lon="7.968445">
        <ele>298.876449</ele>
        <time>2021-11-14T20:56:12.634Z</time>
      </trkpt>
      <trkpt lat="47.551750" lon="7.968659">
        <ele>298.844186</ele>
        <time>2021-11-14T20:56:15.237Z</time>
      </trkpt>
      <trkpt lat="47.551734" lon="7.970034">
        <ele>299.099285</ele>
        <time>2021-11-14T20:56:29.633Z</time>
      </trkpt>
      <trkpt lat="47.551725" lon="7.970823">
        <ele>299.352205</ele>
        <time>2021-11-14T20:56:38.752Z</time>
      </trkpt>
      <trkpt lat="47.551755" lon="7.972603">
        <ele>299.756253</ele>
        <time>2021-11-14T20:57:00.227Z</time>
      </trkpt>
      <trkpt lat="47.551793" lon="7.974325">
        <ele>299.978924</ele>
        <time>2021-11-14T20:57:17.399Z</time>
      </trkpt>
      <trkpt lat="47.551829" lon="7.976305">
        <ele>299.915717</ele>
        <time>2021-11-14T20:57:35.357Z</time>
      </trkpt>
      <trkpt lat="47.551901" lon="7.979190">
        <ele>300.629405</ele>
        <time>2021-11-14T20:58:09.471Z</time>
      </trkpt>
      <trkpt lat="47.551923" lon="7.979308">
        <ele>300.672029</ele>
        <time>2021-11-14T20:58:11.161Z</time>
      </trkpt>
      <trkpt lat="47.551933" lon="7.979363">
        <ele>300.691861</ele>
        <time>2021-11-14T20:58:12.375Z</time>
      </trkpt>
      <trkpt lat="47.551873" lon="7.980135">
        <ele>300.335920</ele>
        <time>2021-11-14T20:58:19.655Z</time>
      </trkpt>
      <trkpt lat="47.551865" lon="7.980584">
        <ele>299.827744</ele>
        <time>2021-11-14T20:58:23.903Z</time>
      </trkpt>
      <trkpt lat="47.551861" lon="7.981113">
        <ele>299.229197</ele>
        <time>2021-11-14T20:58:28.302Z</time>
      </trkpt>
      <trkpt lat="47.551892" lon="7.983447">
        <ele>296.011515</ele>
        <time>2021-11-14T20:58:44.309Z</time>
      </trkpt>
      <trkpt lat="47.551911" lon="7.983632">
        <ele>295.699082</ele>
        <time>2021-11-14T20:58:45.607Z</time>
      </trkpt>
      <trkpt lat="47.552005" lon="7.983849">
        <ele>295.268574</ele>
        <time>2021-11-14T20:58:47.466Z</time>
      </trkpt>
      <trkpt lat="47.552007" lon="7.983931">
        <ele>295.131578</ele>
        <time>2021-11-14T20:58:47.978Z</time>
      </trkpt>
      <trkpt lat="47.551993" lon="7.984014">
        <ele>294.988738</ele>
        <time>2021-11-14T20:58:48.568Z</time>
      </trkpt>
      <trkpt lat="47.551968" lon="7.984116">
        <ele>294.807557</ele>
        <time>2021-11-14T20:58:49.409Z</time>
      </trkpt>
      <trkpt lat="47.551934" lon="7.984260">
        <ele>294.552846</ele>
        <time>2021-11-14T20:58:50.619Z</time>
      </trkpt>
      <trkpt lat="47.551939" lon="7.985151">
        <ele>293.483358</ele>
        <time>2021-11-14T20:58:57.254Z</time>
      </trkpt>
      <trkpt lat="47.551898" lon="7.985654">
        <ele>293.877596</ele>
        <time>2021-11-14T20:59:01.564Z</time>
      </trkpt>
      <trkpt lat="47.551915" lon="7.986209">
        <ele>294.309896</ele>
        <time>2021-11-14T20:59:07.180Z</time>
      </trkpt>
      <trkpt lat="47.551917" lon="7.986288">
        <ele>294.371411</ele>
        <time>2021-11-14T20:59:08.501Z</time>
      </trkpt>
      <trkpt lat="47.551971" lon="7.986555">
        <ele>294.588295</ele>
        <time>2021-11-14T20:59:12.764Z</time>
      </trkpt>
      <trkpt lat="47.552152" lon="7.986883">
        <ele>294.917967</ele>
        <time>2021-11-14T20:59:19.985Z</time>
      </trkpt>
      <trkpt lat="47.552224" lon="7.986975">
        <ele>295.027581</ele>
        <time>2021-11-14T20:59:22.560Z</time>
      </trkpt>
      <trkpt lat="47.552436" lon="7.987273">
        <ele>295.364487</ele>
        <time>2021-11-14T20:59:30.449Z</time>
      </trkpt>
      <trkpt lat="47.552504" lon="7.987369">
        <ele>295.583420</ele>
        <time>2021-11-14T20:59:33.096Z</time>
      </trkpt>
      <trkpt lat="47.552713" lon="7.987638">
        <ele>296.627821</ele>
        <time>2021-11-14T20:59:41.553Z</time>
      </trkpt>
      <trkpt lat="47.552867" lon="7.987810">
        <ele>297.355360</ele>
        <time>2021-11-14T20:59:48.046Z</time>
      </trkpt>
      <trkpt lat="47.553232" lon="7.988247">
        <ele>299.125688</ele>
        <time>2021-11-14T21:00:02.670Z</time>
      </trkpt>
      <trkpt lat="47.553343" lon="7.988401">
        <ele>299.699357</ele>
        <time>2021-11-14T21:00:07.515Z</time>
      </trkpt>
      <trkpt lat="47.553410" lon="7.988607">
        <ele>300.281580</ele>
        <time>2021-11-14T21:00:12.106Z</time>
      </trkpt>
      <trkpt lat="47.553424" lon="7.988762">
        <ele>300.679744</ele>
        <time>2021-11-14T21:00:15.289Z</time>
      </trkpt>
      <trkpt lat="47.553352" lon="7.989142">
        <ele>301.684666</ele>
        <time>2021-11-14T21:00:23.145Z</time>
      </trkpt>
      <trkpt lat="47.553253" lon="7.989578">
        <ele>302.526724</ele>
        <time>2021-11-14T21:00:32.098Z</time>
      </trkpt>
      <trkpt lat="47.553214" lon="7.989758">
        <ele>302.762926</ele>
        <time>2021-11-14T21:00:35.681Z</time>
      </trkpt>
      <trkpt lat="47.553163" lon="7.990004">
        <ele>303.084460</ele>
        <time>2021-11-14T21:00:40.380Z</time>
      </trkpt>
      <trkpt lat="47.553146" lon="7.990113">
        <ele>303.224236</ele>
        <time>2021-11-14T21:00:42.308Z</time>
      </trkpt>
      <trkpt lat="47.553126" lon="7.990240">
        <ele>303.387177</ele>
        <time>2021-11-14T21:00:44.465Z</time>
      </trkpt>
      <trkpt lat="47.553050" lon="7.990744">
        <ele>304.032416</ele>
        <time>2021-11-14T21:00:52.116Z</time>
      </trkpt>
      <trkpt lat="47.553091" lon="7.991915">
        <ele>305.497469</ele>
        <time>2021-11-14T21:01:06.968Z</time>
      </trkpt>
      <trkpt lat="47.553107" lon="7.992226">
        <ele>305.686672</ele>
        <time>2021-11-14T21:01:10.055Z</time>
      </trkpt>
      <trkpt lat="47.553130" lon="7.993014">
        <ele>306.104163</ele>
        <time>2021-11-14T21:01:18.746Z</time>
      </trkpt>
      <trkpt lat="47.553137" lon="7.993190">
        <ele>306.197484</ele>
        <time>2021-11-14T21:01:20.708Z</time>
      </trkpt>
      <trkpt lat="47.553156" lon="7.993696">
        <ele>306.465732</ele>
        <time>2021-11-14T21:01:26.594Z</time>
      </trkpt>
      <trkpt lat="47.553164" lon="7.993925">
        <ele>306.587107</ele>
        <time>2021-11-14T21:01:29.300Z</time>
      </trkpt>
      <trkpt lat="47.553246" lon="7.995617">
        <ele>308.001101</ele>
        <time>2021-11-14T21:01:52.647Z</time>
      </trkpt>
      <trkpt lat="47.553268" lon="7.996252">
        <ele>308.662272</ele>
        <time>2021-11-14T21:02:01.899Z</time>
      </trkpt>
      <trkpt lat="47.553279" lon="7.996528">
        <ele>308.949769</ele>
        <time>2021-11-14T21:02:06.052Z</time>
      </trkpt>
      <trkpt lat="47.553287" lon="7.997190">
        <ele>309.638257</ele>
        <time>2021-11-14T21:02:15.802Z</time>
      </trkpt>
      <trkpt lat="47.553287" lon="7.998380">
        <ele>310.307436</ele>
        <time>2021-11-14T21:02:32.385Z</time>
      </trkpt>
      <trkpt lat="47.553278" lon="7.999508">
        <ele>310.903113</ele>
        <time>2021-11-14T21:02:45.735Z</time>
      </trkpt>
      <trkpt lat="47.553275" lon="7.999860">
        <ele>311.089000</ele>
        <time>2021-11-14T21:02:49.234Z</time>
      </trkpt>
      <trkpt lat="47.553273" lon="8.001687">
        <ele>310.201809</ele>
        <time>2021-11-14T21:03:04.778Z</time>
      </trkpt>
      <trkpt lat="47.553271" lon="8.002109">
        <ele>309.978658</ele>
        <time>2021-11-14T21:03:08.145Z</time>
      </trkpt>
      <trkpt lat="47.553270" lon="8.002465">
        <ele>309.790409</ele>
        <time>2021-11-14T21:03:10.922Z</time>
      </trkpt>
      <trkpt lat="47.553266" lon="8.003502">
        <ele>309.702528</ele>
        <time>2021-11-14T21:03:19.697Z</time>
      </trkpt>
      <trkpt lat="47.553256" lon="8.004837">
        <ele>309.677864</ele>
        <time>2021-11-14T21:03:33.927Z</time>
      </trkpt>
      <trkpt lat="47.553251" lon="8.005657">
        <ele>309.864186</ele>
        <time>2021-11-14T21:03:44.017Z</time>
      </trkpt>
      <trkpt lat="47.553220" lon="8.006182">
        <ele>310.125014</ele>
        <time>2021-11-14T21:03:50.964Z</time>
      </trkpt>
      <trkpt lat="47.553211" lon="8.006270">
        <ele>310.169064</ele>
        <time>2021-11-14T21:03:52.766Z</time>
      </trkpt>
      <trkpt lat="47.553173" lon="8.006642">
        <ele>310.355273</ele>
        <time>2021-11-14T21:03:57.316Z</time>
      </trkpt>
      <trkpt lat="47.552935" lon="8.007851">
        <ele>310.978571</ele>
        <time>2021-11-14T21:04:12.423Z</time>
      </trkpt>
      <trkpt lat="47.552640" lon="8.008615">
        <ele>310.440971</ele>
        <time>2021-11-14T21:04:20.567Z</time>
      </trkpt>
      <trkpt lat="47.552604" lon="8.008677">
        <ele>310.388810</ele>
        <time>2021-11-14T21:04:21.117Z</time>
      </trkpt>
      <trkpt lat="47.551902" lon="8.009884">
        <ele>309.372630</ele>
        <time>2021-11-14T21:04:33.477Z</time>
      </trkpt>
      <trkpt lat="47.551275" lon="8.010934">
        <ele>309.209411</ele>
        <time>2021-11-14T21:04:45.432Z</time>
      </trkpt>
      <trkpt lat="47.551187" lon="8.011080">
        <ele>309.197109</ele>
        <time>2021-11-14T21:04:47.566Z</time>
      </trkpt>
      <trkpt lat="47.550764" lon="8.011985">
        <ele>309.127927</ele>
        <time>2021-11-14T21:04:59.655Z</time>
      </trkpt>
      <trkpt lat="47.550565" lon="8.012461">
        <ele>309.555755</ele>
        <time>2021-11-14T21:05:07.074Z</time>
      </trkpt>
      <trkpt lat="47.550001" lon="8.014034">
        <ele>311.225533</ele>
        <time>2021-11-14T21:05:32.914Z</time>
      </trkpt>
      <trkpt lat="47.549871" lon="8.014427">
        <ele>311.634606</ele>
        <time>2021-11-14T21:05:39.100Z</time>
      </trkpt>
      <trkpt lat="47.549795" lon="8.014667">
        <ele>311.863958</ele>
        <time>2021-11-14T21:05:42.601Z</time>
      </trkpt>
      <trkpt lat="47.549589" lon="8.015316">
        <ele>312.484431</ele>
        <time>2021-11-14T21:05:51.979Z</time>
      </trkpt>
      <trkpt lat="47.549431" lon="8.015998">
        <ele>313.108256</ele>
        <time>2021-11-14T21:06:01.893Z</time>
      </trkpt>
      <trkpt lat="47.549281" lon="8.017304">
        <ele>314.290882</ele>
        <time>2021-11-14T21:06:19.116Z</time>
      </trkpt>
      <trkpt lat="47.549274" lon="8.017401">
        <ele>314.384646</ele>
        <time>2021-11-14T21:06:20.409Z</time>
      </trkpt>
      <trkpt lat="47.549236" lon="8.017402">
        <ele>314.438767</ele>
        <time>2021-11-14T21:06:21.232Z</time>
      </trkpt>
      <trkpt lat="47.549145" lon="8.017497">
        <ele>314.597292</ele>
        <time>2021-11-14T21:06:23.490Z</time>
      </trkpt>
      <trkpt lat="47.549133" lon="8.017550">
        <ele>314.651023</ele>
        <time>2021-11-14T21:06:24.479Z</time>
      </trkpt>
      <trkpt lat="47.549131" lon="8.017604">
        <ele>314.703004</ele>
        <time>2021-11-14T21:06:24.995Z</time>
      </trkpt>
      <trkpt lat="47.549220" lon="8.017761">
        <ele>314.900067</ele>
        <time>2021-11-14T21:06:27.573Z</time>
      </trkpt>
      <trkpt lat="47.549256" lon="8.017769">
        <ele>314.951905</ele>
        <time>2021-11-14T21:06:28.377Z</time>
      </trkpt>
      <trkpt lat="47.549261" lon="8.017878">
        <ele>315.056913</ele>
        <time>2021-11-14T21:06:30.017Z</time>
      </trkpt>
      <trkpt lat="47.549208" lon="8.019997">
        <ele>316.966674</ele>
        <time>2021-11-14T21:07:00.571Z</time>
      </trkpt>
      <trkpt lat="47.549186" lon="8.021006">
        <ele>317.732241</ele>
        <time>2021-11-14T21:07:13.634Z</time>
      </trkpt>
      <trkpt lat="47.549191" lon="8.021436">
        <ele>318.058377</ele>
        <time>2021-11-14T21:07:19.016Z</time>
      </trkpt>
      <trkpt lat="47.549201" lon="8.022146">
        <ele>318.525311</ele>
        <time>2021-11-14T21:07:27.817Z</time>
      </trkpt>
      <trkpt lat="47.549268" lon="8.023385">
        <ele>318.711333</ele>
        <time>2021-11-14T21:07:41.769Z</time>
      </trkpt>
      <trkpt lat="47.549322" lon="8.024323">
        <ele>318.852223</ele>
        <time>2021-11-14T21:07:51.153Z</time>
      </trkpt>
      <trkpt lat="47.549436" lon="8.026046">
        <ele>318.463294</ele>
        <time>2021-11-14T21:08:07.373Z</time>
      </trkpt>
      <trkpt lat="47.549454" lon="8.027138">
        <ele>318.109500</ele>
        <time>2021-11-14T21:08:16.661Z</time>
      </trkpt>
      <trkpt lat="47.549445" lon="8.027599">
        <ele>317.947824</ele>
        <time>2021-11-14T21:08:20.620Z</time>
      </trkpt>
      <trkpt lat="47.549431" lon="8.028306">
        <ele>317.684901</ele>
        <time>2021-11-14T21:08:26.852Z</time>
      </trkpt>
      <trkpt lat="47.549418" lon="8.028906">
        <ele>317.461751</ele>
        <time>2021-11-14T21:08:32.268Z</time>
      </trkpt>
      <trkpt lat="47.549380" lon="8.030702">
        <ele>316.983013</ele>
        <time>2021-11-14T21:08:48.156Z</time>
      </trkpt>
      <trkpt lat="47.549378" lon="8.030790">
        <ele>316.974192</ele>
        <time>2021-11-14T21:08:49.084Z</time>
      </trkpt>
      <trkpt lat="47.549372" lon="8.031883">
        <ele>316.864693</ele>
        <time>2021-11-14T21:08:59.664Z</time>
      </trkpt>
      <trkpt lat="47.549368" lon="8.032544">
        <ele>316.798472</ele>
        <time>2021-11-14T21:09:06.553Z</time>
      </trkpt>
      <trkpt lat="47.549363" lon="8.032869">
        <ele>316.766855</ele>
        <time>2021-11-14T21:09:10.146Z</time>
      </trkpt>
      <trkpt lat="47.549374" lon="8.033423">
        <ele>316.713974</ele>
        <time>2021-11-14T21:09:16.029Z</time>
      </trkpt>
      <trkpt lat="47.549386" lon="8.033799">
        <ele>316.678059</ele>
        <time>2021-11-14T21:09:19.924Z</time>
      </trkpt>
      <trkpt lat="47.549394" lon="8.034003">
        <ele>316.658563</ele>
        <time>2021-11-14T21:09:21.867Z</time>
      </trkpt>
      <trkpt lat="47.549395" lon="8.034029">
        <ele>316.656078</ele>
        <time>2021-11-14T21:09:22.091Z</time>
      </trkpt>
      <trkpt lat="47.549442" lon="8.034584">
        <ele>316.602710</ele>
        <time>2021-11-14T21:09:27.296Z</time>
      </trkpt>
      <trkpt lat="47.549494" lon="8.034935">
        <ele>316.568423</ele>
        <time>2021-11-14T21:09:30.662Z</time>
      </trkpt>
      <trkpt lat="47.549554" lon="8.035288">
        <ele>316.533691</ele>
        <time>2021-11-14T21:09:34.015Z</time>
      </trkpt>
      <trkpt lat="47.549632" lon="8.035633">
        <ele>316.341057</ele>
        <time>2021-11-14T21:09:37.168Z</time>
      </trkpt>
      <trkpt lat="47.549699" lon="8.035900">
        <ele>316.182314</ele>
        <time>2021-11-14T21:09:39.577Z</time>
      </trkpt>
      <trkpt lat="47.549753" lon="8.036077">
        <ele>316.074068</ele>
        <time>2021-11-14T21:09:41.197Z</time>
      </trkpt>
      <trkpt lat="47.549832" lon="8.036349">
        <ele>315.909052</ele>
        <time>2021-11-14T21:09:43.772Z</time>
      </trkpt>
      <trkpt lat="47.550111" lon="8.037123">
        <ele>315.420066</ele>
        <time>2021-11-14T21:09:50.962Z</time>
      </trkpt>
      <trkpt lat="47.550424" lon="8.037956">
        <ele>315.099741</ele>
        <time>2021-11-14T21:09:58.731Z</time>
      </trkpt>
      <trkpt lat="47.550515" lon="8.038174">
        <ele>315.147899</ele>
        <time>2021-11-14T21:10:00.979Z</time>
      </trkpt>
      <trkpt lat="47.551001" lon="8.039426">
        <ele>315.419247</ele>
        <time>2021-11-14T21:10:16.278Z</time>
      </trkpt>
      <trkpt lat="47.551167" lon="8.039905">
        <ele>315.520408</ele>
        <time>2021-11-14T21:10:23.323Z</time>
      </trkpt>
      <trkpt lat="47.551627" lon="8.041127">
        <ele>317.208782</ele>
        <time>2021-11-14T21:10:43.869Z</time>
      </trkpt>
      <trkpt lat="47.552844" lon="8.044355">
        <ele>322.118086</ele>
        <time>2021-11-14T21:11:43.821Z</time>
      </trkpt>
      <trkpt lat="47.553619" lon="8.046372">
        <ele>323.013251</ele>
        <time>2021-11-14T21:12:11.658Z</time>
      </trkpt>
      <trkpt lat="47.553996" lon="8.047557">
        <ele>322.482165</ele>
        <time>2021-11-14T21:12:22.567Z</time>
      </trkpt>
      <trkpt lat="47.554309" lon="8.048719">
        <ele>321.046187</ele>
        <time>2021-11-14T21:12:31.846Z</time>
      </trkpt>
      <trkpt lat="47.554412" lon="8.049127">
        <ele>320.546221</ele>
        <time>2021-11-14T21:12:35.012Z</time>
      </trkpt>
      <trkpt lat="47.554715" lon="8.050527">
        <ele>319.004158</ele>
        <time>2021-11-14T21:12:45.918Z</time>
      </trkpt>
      <trkpt lat="47.554988" lon="8.051475">
        <ele>317.959681</ele>
        <time>2021-11-14T21:12:53.843Z</time>
      </trkpt>
      <trkpt lat="47.555259" lon="8.052135">
        <ele>317.362288</ele>
        <time>2021-11-14T21:13:00.617Z</time>
      </trkpt>
      <trkpt lat="47.555603" lon="8.052757">
        <ele>317.225160</ele>
        <time>2021-11-14T21:13:08.107Z</time>
      </trkpt>
      <trkpt lat="47.555773" lon="8.053070">
        <ele>317.156651</ele>
        <time>2021-11-14T21:13:11.955Z</time>
      </trkpt>
      <trkpt lat="47.555890" lon="8.053286">
        <ele>317.109423</ele>
        <time>2021-11-14T21:13:14.563Z</time>
      </trkpt>
      <trkpt lat="47.556032" lon="8.053510">
        <ele>317.057018</ele>
        <time>2021-11-14T21:13:17.228Z</time>
      </trkpt>
      <trkpt lat="47.556239" lon="8.053780">
        <ele>316.987340</ele>
        <time>2021-11-14T21:13:21.178Z</time>
      </trkpt>
      <trkpt lat="47.556494" lon="8.054073">
        <ele>316.950924</ele>
        <time>2021-11-14T21:13:26.421Z</time>
      </trkpt>
      <trkpt lat="47.557019" lon="8.054678">
        <ele>316.974573</ele>
        <time>2021-11-14T21:13:37.542Z</time>
      </trkpt>
      <trkpt lat="47.557097" lon="8.054768">
        <ele>316.978088</ele>
        <time>2021-11-14T21:13:38.779Z</time>
      </trkpt>
      <trkpt lat="47.557273" lon="8.054941">
        <ele>316.985599</ele>
        <time>2021-11-14T21:13:42.103Z</time>
      </trkpt>
      <trkpt lat="47.557500" lon="8.055133">
        <ele>316.994893</ele>
        <time>2021-11-14T21:13:45.669Z</time>
      </trkpt>
      <trkpt lat="47.557710" lon="8.055283">
        <ele>317.003183</ele>
        <time>2021-11-14T21:13:48.822Z</time>
      </trkpt>
      <trkpt lat="47.557918" lon="8.055409">
        <ele>317.013745</ele>
        <time>2021-11-14T21:13:52.101Z</time>
      </trkpt>
      <trkpt lat="47.558012" lon="8.055477">
        <ele>317.022615</ele>
        <time>2021-11-14T21:13:53.476Z</time>
      </trkpt>
      <trkpt lat="47.558239" lon="8.055639">
        <ele>317.043980</ele>
        <time>2021-11-14T21:13:57.308Z</time>
      </trkpt>
      <trkpt lat="47.558447" lon="8.055831">
        <ele>317.064760</ele>
        <time>2021-11-14T21:14:00.891Z</time>
      </trkpt>
      <trkpt lat="47.558662" lon="8.056061">
        <ele>317.087245</ele>
        <time>2021-11-14T21:14:05.318Z</time>
      </trkpt>
      <trkpt lat="47.559116" lon="8.056760">
        <ele>317.142761</ele>
        <time>2021-11-14T21:14:15.427Z</time>
      </trkpt>
      <trkpt lat="47.559294" lon="8.057130">
        <ele>317.182940</ele>
        <time>2021-11-14T21:14:20.096Z</time>
      </trkpt>
      <trkpt lat="47.559447" lon="8.057490">
        <ele>317.257101</ele>
        <time>2021-11-14T21:14:24.460Z</time>
      </trkpt>
      <trkpt lat="47.559548" lon="8.057827">
        <ele>317.321378</ele>
        <time>2021-11-14T21:14:28.451Z</time>
      </trkpt>
      <trkpt lat="47.559579" lon="8.057955">
        <ele>317.345084</ele>
        <time>2021-11-14T21:14:29.894Z</time>
      </trkpt>
      <trkpt lat="47.559654" lon="8.058257">
        <ele>317.401178</ele>
        <time>2021-11-14T21:14:33.498Z</time>
      </trkpt>
      <trkpt lat="47.559725" lon="8.058554">
        <ele>317.456101</ele>
        <time>2021-11-14T21:14:36.893Z</time>
      </trkpt>
      <trkpt lat="47.559859" lon="8.059093">
        <ele>317.556229</ele>
        <time>2021-11-14T21:14:43.011Z</time>
      </trkpt>
      <trkpt lat="47.559979" lon="8.059591">
        <ele>317.675576</ele>
        <time>2021-11-14T21:14:48.599Z</time>
      </trkpt>
      <trkpt lat="47.560019" lon="8.059741">
        <ele>317.738471</ele>
        <time>2021-11-14T21:14:50.407Z</time>
      </trkpt>
      <trkpt lat="47.560040" lon="8.059827">
        <ele>317.774136</ele>
        <time>2021-11-14T21:14:51.350Z</time>
      </trkpt>
      <trkpt lat="47.560069" lon="8.059943">
        <ele>317.822376</ele>
        <time>2021-11-14T21:14:52.595Z</time>
      </trkpt>
      <trkpt lat="47.560130" lon="8.060196">
        <ele>317.927144</ele>
        <time>2021-11-14T21:14:55.640Z</time>
      </trkpt>
      <trkpt lat="47.560262" lon="8.060729">
        <ele>318.148548</ele>
        <time>2021-11-14T21:15:01.897Z</time>
      </trkpt>
      <trkpt lat="47.560293" lon="8.060828">
        <ele>318.191108</ele>
        <time>2021-11-14T21:15:03.178Z</time>
      </trkpt>
      <trkpt lat="47.560335" lon="8.060984">
        <ele>318.256604</ele>
        <time>2021-11-14T21:15:05.211Z</time>
      </trkpt>
      <trkpt lat="47.560570" lon="8.061926">
        <ele>318.648242</ele>
        <time>2021-11-14T21:15:17.882Z</time>
      </trkpt>
      <trkpt lat="47.560765" lon="8.062729">
        <ele>319.116100</ele>
        <time>2021-11-14T21:15:28.053Z</time>
      </trkpt>
      <trkpt lat="47.560673" lon="8.062786">
        <ele>319.198416</ele>
        <time>2021-11-14T21:15:30.424Z</time>
      </trkpt>
      <trkpt lat="47.560580" lon="8.062890">
        <ele>319.294593</ele>
        <time>2021-11-14T21:15:33.163Z</time>
      </trkpt>
      <trkpt lat="47.560545" lon="8.062928">
        <ele>319.330410</ele>
        <time>2021-11-14T21:15:33.952Z</time>
      </trkpt>
      <trkpt lat="47.560443" lon="8.063042">
        <ele>319.435873</ele>
        <time>2021-11-14T21:15:36.375Z</time>
      </trkpt>
      <trkpt lat="47.560335" lon="8.063169">
        <ele>319.549686</ele>
        <time>2021-11-14T21:15:38.970Z</time>
      </trkpt>
      <trkpt lat="47.560392" lon="8.063300">
        <ele>319.636515</ele>
        <time>2021-11-14T21:15:40.817Z</time>
      </trkpt>
      <trkpt lat="47.560719" lon="8.063873">
        <ele>320.054546</ele>
        <time>2021-11-14T21:15:50.130Z</time>
      </trkpt>
      <trkpt lat="47.560806" lon="8.064037">
        <ele>320.153561</ele>
        <time>2021-11-14T21:15:52.632Z</time>
      </trkpt>
      <trkpt lat="47.560887" lon="8.064271">
        <ele>320.175035</ele>
        <time>2021-11-14T21:15:55.763Z</time>
      </trkpt>
      <trkpt lat="47.561017" lon="8.064820">
        <ele>320.222542</ele>
        <time>2021-11-14T21:16:02.376Z</time>
      </trkpt>
      <trkpt lat="47.561108" lon="8.065242">
        <ele>320.258715</ele>
        <time>2021-11-14T21:16:06.620Z</time>
      </trkpt>
      <trkpt lat="47.561253" lon="8.066385">
        <ele>320.353678</ele>
        <time>2021-11-14T21:16:17.612Z</time>
      </trkpt>
      <trkpt lat="47.561276" lon="8.067022">
        <ele>320.642194</ele>
        <time>2021-11-14T21:16:23.864Z</time>
      </trkpt>
      <trkpt lat="47.561265" lon="8.067435">
        <ele>320.888612</ele>
        <time>2021-11-14T21:16:28.246Z</time>
      </trkpt>
      <trkpt lat="47.561229" lon="8.067903">
        <ele>321.169437</ele>
        <time>2021-11-14T21:16:33.990Z</time>
      </trkpt>
      <trkpt lat="47.561187" lon="8.068256">
        <ele>321.383139</ele>
        <time>2021-11-14T21:16:38.396Z</time>
      </trkpt>
      <trkpt lat="47.561130" lon="8.068650">
        <ele>321.623377</ele>
        <time>2021-11-14T21:16:43.640Z</time>
      </trkpt>
      <trkpt lat="47.560998" lon="8.069237">
        <ele>322.047500</ele>
        <time>2021-11-14T21:16:52.787Z</time>
      </trkpt>
      <trkpt lat="47.560904" lon="8.069780">
        <ele>322.910628</ele>
        <time>2021-11-14T21:17:01.746Z</time>
      </trkpt>
      <trkpt lat="47.560864" lon="8.070015">
        <ele>323.283791</ele>
        <time>2021-11-14T21:17:05.779Z</time>
      </trkpt>
      <trkpt lat="47.560739" lon="8.070551">
        <ele>324.156965</ele>
        <time>2021-11-14T21:17:15.393Z</time>
      </trkpt>
      <trkpt lat="47.560584" lon="8.070919">
        <ele>324.824891</ele>
        <time>2021-11-14T21:17:22.706Z</time>
      </trkpt>
      <trkpt lat="47.560553" lon="8.071099">
        <ele>325.110922</ele>
        <time>2021-11-14T21:17:25.897Z</time>
      </trkpt>
      <trkpt lat="47.560524" lon="8.071179">
        <ele>325.250747</ele>
        <time>2021-11-14T21:17:27.657Z</time>
      </trkpt>
      <trkpt lat="47.560318" lon="8.072316">
        <ele>326.802714</ele>
        <time>2021-11-14T21:17:46.558Z</time>
      </trkpt>
      <trkpt lat="47.559811" lon="8.074398">
        <ele>329.303188</ele>
        <time>2021-11-14T21:18:17.398Z</time>
      </trkpt>
      <trkpt lat="47.559426" lon="8.075372">
        <ele>330.469908</ele>
        <time>2021-11-14T21:18:32.848Z</time>
      </trkpt>
      <trkpt lat="47.559046" lon="8.076086">
        <ele>331.409801</ele>
        <time>2021-11-14T21:18:45.873Z</time>
      </trkpt>
      <trkpt lat="47.558613" lon="8.076826">
        <ele>332.343338</ele>
        <time>2021-11-14T21:19:00.456Z</time>
      </trkpt>
      <trkpt lat="47.557793" lon="8.078299">
        <ele>334.043908</ele>
        <time>2021-11-14T21:19:28.214Z</time>
      </trkpt>
      <trkpt lat="47.557256" lon="8.079416">
        <ele>332.752799</ele>
        <time>2021-11-14T21:19:40.062Z</time>
      </trkpt>
      <trkpt lat="47.557099" lon="8.079786">
        <ele>332.200854</ele>
        <time>2021-11-14T21:19:43.300Z</time>
      </trkpt>
      <trkpt lat="47.556853" lon="8.080477">
        <ele>331.214241</ele>
        <time>2021-11-14T21:19:48.685Z</time>
      </trkpt>
      <trkpt lat="47.556470" lon="8.081563">
        <ele>327.754887</ele>
        <time>2021-11-14T21:19:56.700Z</time>
      </trkpt>
      <trkpt lat="47.556083" lon="8.083354">
        <ele>321.587677</ele>
        <time>2021-11-14T21:20:08.504Z</time>
      </trkpt>
      <trkpt lat="47.555956" lon="8.084115">
        <ele>319.069304</ele>
        <time>2021-11-14T21:20:13.507Z</time>
      </trkpt>
      <trkpt lat="47.555899" lon="8.084472">
        <ele>317.890769</ele>
        <time>2021-11-14T21:20:15.827Z</time>
      </trkpt>
      <trkpt lat="47.555764" lon="8.085769">
        <ele>313.674839</ele>
        <time>2021-11-14T21:20:24.292Z</time>
      </trkpt>
      <trkpt lat="47.555733" lon="8.086819">
        <ele>312.159439</ele>
        <time>2021-11-14T21:20:31.220Z</time>
      </trkpt>
      <trkpt lat="47.555737" lon="8.087083">
        <ele>311.797919</ele>
        <time>2021-11-14T21:20:33.018Z</time>
      </trkpt>
      <trkpt lat="47.555780" lon="8.087557">
        <ele>311.143154</ele>
        <time>2021-11-14T21:20:36.509Z</time>
      </trkpt>
      <trkpt lat="47.555809" lon="8.087783">
        <ele>310.828206</ele>
        <time>2021-11-14T21:20:38.943Z</time>
      </trkpt>
      <trkpt lat="47.555829" lon="8.087941">
        <ele>310.608124</ele>
        <time>2021-11-14T21:20:40.540Z</time>
      </trkpt>
      <trkpt lat="47.555887" lon="8.088299">
        <ele>310.104081</ele>
        <time>2021-11-14T21:20:44.105Z</time>
      </trkpt>
      <trkpt lat="47.555939" lon="8.088552">
        <ele>310.157504</ele>
        <time>2021-11-14T21:20:46.900Z</time>
      </trkpt>
      <trkpt lat="47.555991" lon="8.088778">
        <ele>310.731618</ele>
        <time>2021-11-14T21:20:50.335Z</time>
      </trkpt>
      <trkpt lat="47.555997" lon="8.088801">
        <ele>310.790907</ele>
        <time>2021-11-14T21:20:50.928Z</time>
      </trkpt>
      <trkpt lat="47.556065" lon="8.089084">
        <ele>311.513200</ele>
        <time>2021-11-14T21:20:55.221Z</time>
      </trkpt>
      <trkpt lat="47.556111" lon="8.089266">
        <ele>311.980487</ele>
        <time>2021-11-14T21:20:59.029Z</time>
      </trkpt>
      <trkpt lat="47.556151" lon="8.089459">
        <ele>312.465929</ele>
        <time>2021-11-14T21:21:03.671Z</time>
      </trkpt>
      <trkpt lat="47.556137" lon="8.089730">
        <ele>313.119431</ele>
        <time>2021-11-14T21:21:08.889Z</time>
      </trkpt>
      <trkpt lat="47.556110" lon="8.089809">
        <ele>313.332349</ele>
        <time>2021-11-14T21:21:11.161Z</time>
      </trkpt>
      <trkpt lat="47.556193" lon="8.089926">
        <ele>313.740497</ele>
        <time>2021-11-14T21:21:15.139Z</time>
      </trkpt>
      <trkpt lat="47.556259" lon="8.090058">
        <ele>314.135496</ele>
        <time>2021-11-14T21:21:18.182Z</time>
      </trkpt>
      <trkpt lat="47.556527" lon="8.090721">
        <ele>315.993697</ele>
        <time>2021-11-14T21:21:36.437Z</time>
      </trkpt>
      <trkpt lat="47.556692" lon="8.091113">
        <ele>317.345657</ele>
        <time>2021-11-14T21:21:48.220Z</time>
      </trkpt>
      <trkpt lat="47.556850" lon="8.091457">
        <ele>318.646381</ele>
        <time>2021-11-14T21:21:58.729Z</time>
      </trkpt>
      <trkpt lat="47.557677" lon="8.092776">
        <ele>324.274235</ele>
        <time>2021-11-14T21:22:38.782Z</time>
      </trkpt>
      <trkpt lat="47.558531" lon="8.094661">
        <ele>330.192833</ele>
        <time>2021-11-14T21:23:21.965Z</time>
      </trkpt>
      <trkpt lat="47.558776" lon="8.095210">
        <ele>332.052574</ele>
        <time>2021-11-14T21:23:36.304Z</time>
      </trkpt>
      <trkpt lat="47.558857" lon="8.095293">
        <ele>332.587950</ele>
        <time>2021-11-14T21:23:41.126Z</time>
      </trkpt>
      <trkpt lat="47.558983" lon="8.095482">
        <ele>333.562619</ele>
        <time>2021-11-14T21:23:47.862Z</time>
      </trkpt>
      <trkpt lat="47.559606" lon="8.096837">
        <ele>339.577753</ele>
        <time>2021-11-14T21:24:36.806Z</time>
      </trkpt>
      <trkpt lat="47.560171" lon="8.097877">
        <ele>342.990790</ele>
        <time>2021-11-14T21:25:14.601Z</time>
      </trkpt>
      <trkpt lat="47.560787" lon="8.098864">
        <ele>345.627520</ele>
        <time>2021-11-14T21:25:42.848Z</time>
      </trkpt>
      <trkpt lat="47.561466" lon="8.099697">
        <ele>345.139364</ele>
        <time>2021-11-14T21:25:59.138Z</time>
      </trkpt>
      <trkpt lat="47.562207" lon="8.100413">
        <ele>343.034564</ele>
        <time>2021-11-14T21:26:11.731Z</time>
      </trkpt>
      <trkpt lat="47.563031" lon="8.100935">
        <ele>340.631434</ele>
        <time>2021-11-14T21:26:24.633Z</time>
      </trkpt>
      <trkpt lat="47.563202" lon="8.101042">
        <ele>340.099846</ele>
        <time>2021-11-14T21:26:27.220Z</time>
      </trkpt>
      <trkpt lat="47.564165" lon="8.101615">
        <ele>337.127934</ele>
        <time>2021-11-14T21:26:38.183Z</time>
      </trkpt>
      <trkpt lat="47.565727" lon="8.102512">
        <ele>334.030623</ele>
        <time>2021-11-14T21:26:57.370Z</time>
      </trkpt>
      <trkpt lat="47.566684" lon="8.102974">
        <ele>331.608654</ele>
        <time>2021-11-14T21:27:07.971Z</time>
      </trkpt>
      <trkpt lat="47.567683" lon="8.103272">
        <ele>329.080398</ele>
        <time>2021-11-14T21:27:18.591Z</time>
      </trkpt>
      <trkpt lat="47.569557" lon="8.103677">
        <ele>325.184456</ele>
        <time>2021-11-14T21:27:38.823Z</time>
      </trkpt>
      <trkpt lat="47.570159" lon="8.103813">
        <ele>325.333018</ele>
        <time>2021-11-14T21:27:46.269Z</time>
      </trkpt>
      <trkpt lat="47.570286" lon="8.103898">
        <ele>325.367013</ele>
        <time>2021-11-14T21:27:49.018Z</time>
      </trkpt>
      <trkpt lat="47.570517" lon="8.104111">
        <ele>325.433384</ele>
        <time>2021-11-14T21:27:54.487Z</time>
      </trkpt>
      <trkpt lat="47.570786" lon="8.104202">
        <ele>325.500697</ele>
        <time>2021-11-14T21:28:01.292Z</time>
      </trkpt>
      <trkpt lat="47.570863" lon="8.104203">
        <ele>325.519483</ele>
        <time>2021-11-14T21:28:02.505Z</time>
      </trkpt>
      <trkpt lat="47.571140" lon="8.104418">
        <ele>325.579916</ele>
        <time>2021-11-14T21:28:10.433Z</time>
      </trkpt>
      <trkpt lat="47.571149" lon="8.104460">
        <ele>325.580409</ele>
        <time>2021-11-14T21:28:11.012Z</time>
      </trkpt>
      <trkpt lat="47.571165" lon="8.104498">
        <ele>325.580910</ele>
        <time>2021-11-14T21:28:11.683Z</time>
      </trkpt>
      <trkpt lat="47.571182" lon="8.104674">
        <ele>325.582899</ele>
        <time>2021-11-14T21:28:14.578Z</time>
      </trkpt>
      <trkpt lat="47.571214" lon="8.104836">
        <ele>325.584788</ele>
        <time>2021-11-14T21:28:17.269Z</time>
      </trkpt>
      <trkpt lat="47.571234" lon="8.105037">
        <ele>325.587061</ele>
        <time>2021-11-14T21:28:19.009Z</time>
      </trkpt>
      <trkpt lat="47.571251" lon="8.105188">
        <ele>325.588774</ele>
        <time>2021-11-14T21:28:20.298Z</time>
      </trkpt>
      <trkpt lat="47.571298" lon="8.105561">
        <ele>325.593020</ele>
        <time>2021-11-14T21:28:24.662Z</time>
      </trkpt>
      <trkpt lat="47.571440" lon="8.106588">
        <ele>325.604749</ele>
        <time>2021-11-14T21:28:35.272Z</time>
      </trkpt>
      <trkpt lat="47.571461" lon="8.106820">
        <ele>325.607368</ele>
        <time>2021-11-14T21:28:37.065Z</time>
      </trkpt>
      <trkpt lat="47.571460" lon="8.106995">
        <ele>325.496509</ele>
        <time>2021-11-14T21:28:38.922Z</time>
      </trkpt>
      <trkpt lat="47.571458" lon="8.107087">
        <ele>325.340111</ele>
        <time>2021-11-14T21:28:39.569Z</time>
      </trkpt>
      <trkpt lat="47.571440" lon="8.107260">
        <ele>325.042691</ele>
        <time>2021-11-14T21:28:40.680Z</time>
      </trkpt>
      <trkpt lat="47.571253" lon="8.107823">
        <ele>323.976452</ele>
        <time>2021-11-14T21:28:44.839Z</time>
      </trkpt>
      <trkpt lat="47.570830" lon="8.108502">
        <ele>322.406143</ele>
        <time>2021-11-14T21:28:50.919Z</time>
      </trkpt>
      <trkpt lat="47.570582" lon="8.108889">
        <ele>321.499240</ele>
        <time>2021-11-14T21:28:54.515Z</time>
      </trkpt>
      <trkpt lat="47.570283" lon="8.109343">
        <ele>321.826354</ele>
        <time>2021-11-14T21:29:01.880Z</time>
      </trkpt>
      <trkpt lat="47.570263" lon="8.109376">
        <ele>321.912029</ele>
        <time>2021-11-14T21:29:02.710Z</time>
      </trkpt>
      <trkpt lat="47.569974" lon="8.109825">
        <ele>323.110566</ele>
        <time>2021-11-14T21:29:12.336Z</time>
      </trkpt>
      <trkpt lat="47.569787" lon="8.110094">
        <ele>323.856557</ele>
        <time>2021-11-14T21:29:18.998Z</time>
      </trkpt>
      <trkpt lat="47.569664" lon="8.110262">
        <ele>324.335376</ele>
        <time>2021-11-14T21:29:25.864Z</time>
      </trkpt>
      <trkpt lat="47.569574" lon="8.110385">
        <ele>324.685828</ele>
        <time>2021-11-14T21:29:27.806Z</time>
      </trkpt>
      <trkpt lat="47.569495" lon="8.110499">
        <ele>325.001462</ele>
        <time>2021-11-14T21:29:31.745Z</time>
      </trkpt>
      <trkpt lat="47.569423" lon="8.110628">
        <ele>325.324821</ele>
        <time>2021-11-14T21:29:37.658Z</time>
      </trkpt>
      <trkpt lat="47.569107" lon="8.111522">
        <ele>327.437884</ele>
        <time>2021-11-14T21:30:00.323Z</time>
      </trkpt>
      <trkpt lat="47.569083" lon="8.111567">
        <ele>327.566012</ele>
        <time>2021-11-14T21:30:02.920Z</time>
      </trkpt>
      <trkpt lat="47.568835" lon="8.112063">
        <ele>328.944998</ele>
        <time>2021-11-14T21:30:15.490Z</time>
      </trkpt>
      <trkpt lat="47.568167" lon="8.113323">
        <ele>332.196169</ele>
        <time>2021-11-14T21:30:42.876Z</time>
      </trkpt>
      <trkpt lat="47.567881" lon="8.113862">
        <ele>332.257492</ele>
        <time>2021-11-14T21:30:50.007Z</time>
      </trkpt>
      <trkpt lat="47.567654" lon="8.114290">
        <ele>332.306178</ele>
        <time>2021-11-14T21:30:54.634Z</time>
      </trkpt>
      <trkpt lat="47.567411" lon="8.114753">
        <ele>332.358636</ele>
        <time>2021-11-14T21:30:59.685Z</time>
      </trkpt>
      <trkpt lat="47.567157" lon="8.115310">
        <ele>332.418759</ele>
        <time>2021-11-14T21:31:06.001Z</time>
      </trkpt>
      <trkpt lat="47.567009" lon="8.116010">
        <ele>332.707862</ele>
        <time>2021-11-14T21:31:14.060Z</time>
      </trkpt>
      <trkpt lat="47.566983" lon="8.116203">
        <ele>332.787429</ele>
        <time>2021-11-14T21:31:15.623Z</time>
      </trkpt>
      <trkpt lat="47.566944" lon="8.116530">
        <ele>332.921681</ele>
        <time>2021-11-14T21:31:19.446Z</time>
      </trkpt>
      <trkpt lat="47.566811" lon="8.117556">
        <ele>333.344067</ele>
        <time>2021-11-14T21:31:31.811Z</time>
      </trkpt>
      <trkpt lat="47.566733" lon="8.118099">
        <ele>333.641358</ele>
        <time>2021-11-14T21:31:40.116Z</time>
      </trkpt>
      <trkpt lat="47.566644" lon="8.118715">
        <ele>334.161402</ele>
        <time>2021-11-14T21:31:49.855Z</time>
      </trkpt>
      <trkpt lat="47.566580" lon="8.119152">
        <ele>334.530552</ele>
        <time>2021-11-14T21:31:55.720Z</time>
      </trkpt>
      <trkpt lat="47.566566" lon="8.119245">
        <ele>334.609213</ele>
        <time>2021-11-14T21:31:57.359Z</time>
      </trkpt>
      <trkpt lat="47.566474" lon="8.119870">
        <ele>335.137296</ele>
        <time>2021-11-14T21:32:05.400Z</time>
      </trkpt>
      <trkpt lat="47.566431" lon="8.120180">
        <ele>335.398558</ele>
        <time>2021-11-14T21:32:08.923Z</time>
      </trkpt>
      <trkpt lat="47.566398" lon="8.120421">
        <ele>335.601563</ele>
        <time>2021-11-14T21:32:12.122Z</time>
      </trkpt>
      <trkpt lat="47.566366" lon="8.120637">
        <ele>335.773574</ele>
        <time>2021-11-14T21:32:14.465Z</time>
      </trkpt>
      <trkpt lat="47.566318" lon="8.120964">
        <ele>336.015523</ele>
        <time>2021-11-14T21:32:18.581Z</time>
      </trkpt>
      <trkpt lat="47.566151" lon="8.121930">
        <ele>336.736496</ele>
        <time>2021-11-14T21:32:31.298Z</time>
      </trkpt>
      <trkpt lat="47.566119" lon="8.122027">
        <ele>336.814560</ele>
        <time>2021-11-14T21:32:32.364Z</time>
      </trkpt>
      <trkpt lat="47.566102" lon="8.122133">
        <ele>336.893333</ele>
        <time>2021-11-14T21:32:33.905Z</time>
      </trkpt>
      <trkpt lat="47.565954" lon="8.122541">
        <ele>337.228243</ele>
        <time>2021-11-14T21:32:39.691Z</time>
      </trkpt>
      <trkpt lat="47.565629" lon="8.123189">
        <ele>338.045962</ele>
        <time>2021-11-14T21:32:50.791Z</time>
      </trkpt>
      <trkpt lat="47.565434" lon="8.123568">
        <ele>338.825115</ele>
        <time>2021-11-14T21:32:58.293Z</time>
      </trkpt>
      <trkpt lat="47.565326" lon="8.123776">
        <ele>339.254171</ele>
        <time>2021-11-14T21:33:02.478Z</time>
      </trkpt>
      <trkpt lat="47.565268" lon="8.123888">
        <ele>339.484975</ele>
        <time>2021-11-14T21:33:05.619Z</time>
      </trkpt>
      <trkpt lat="47.565098" lon="8.124202">
        <ele>340.143107</ele>
        <time>2021-11-14T21:33:12.919Z</time>
      </trkpt>
      <trkpt lat="47.565033" lon="8.124341">
        <ele>340.419578</ele>
        <time>2021-11-14T21:33:16.358Z</time>
      </trkpt>
      <trkpt lat="47.564862" lon="8.124663">
        <ele>341.089459</ele>
        <time>2021-11-14T21:33:23.153Z</time>
      </trkpt>
      <trkpt lat="47.564445" lon="8.125480">
        <ele>342.625883</ele>
        <time>2021-11-14T21:33:39.891Z</time>
      </trkpt>
      <trkpt lat="47.564404" lon="8.125557">
        <ele>342.757807</ele>
        <time>2021-11-14T21:33:42.031Z</time>
      </trkpt>
      <trkpt lat="47.564281" lon="8.125780">
        <ele>343.145192</ele>
        <time>2021-11-14T21:33:46.167Z</time>
      </trkpt>
      <trkpt lat="47.564204" lon="8.125933">
        <ele>343.401906</ele>
        <time>2021-11-14T21:33:49.247Z</time>
      </trkpt>
      <trkpt lat="47.564142" lon="8.126069">
        <ele>343.622658</ele>
        <time>2021-11-14T21:33:51.831Z</time>
      </trkpt>
      <trkpt lat="47.564078" lon="8.126253">
        <ele>343.901080</ele>
        <time>2021-11-14T21:33:58.048Z</time>
      </trkpt>
      <trkpt lat="47.564050" lon="8.126343">
        <ele>344.034375</ele>
        <time>2021-11-14T21:34:00.934Z</time>
      </trkpt>
      <trkpt lat="47.564016" lon="8.126515">
        <ele>344.275435</ele>
        <time>2021-11-14T21:34:06.637Z</time>
      </trkpt>
      <trkpt lat="47.563988" lon="8.126616">
        <ele>344.422296</ele>
        <time>2021-11-14T21:34:09.780Z</time>
      </trkpt>
      <trkpt lat="47.563935" lon="8.126813">
        <ele>344.707542</ele>
        <time>2021-11-14T21:34:15.819Z</time>
      </trkpt>
      <trkpt lat="47.563932" lon="8.126822">
        <ele>344.721044</ele>
        <time>2021-11-14T21:34:16.121Z</time>
      </trkpt>
      <trkpt lat="47.563898" lon="8.126936">
        <ele>344.888682</ele>
        <time>2021-11-14T21:34:20.283Z</time>
      </trkpt>
      <trkpt lat="47.563829" lon="8.127101">
        <ele>345.149767</ele>
        <time>2021-11-14T21:34:25.915Z</time>
      </trkpt>
      <trkpt lat="47.563751" lon="8.127247">
        <ele>345.400233</ele>
        <time>2021-11-14T21:34:28.444Z</time>
      </trkpt>
      <trkpt lat="47.563627" lon="8.127420">
        <ele>345.692048</ele>
        <time>2021-11-14T21:34:32.339Z</time>
      </trkpt>
      <trkpt lat="47.563589" lon="8.127466">
        <ele>345.762491</ele>
        <time>2021-11-14T21:34:33.455Z</time>
      </trkpt>
      <trkpt lat="47.563398" lon="8.127697">
        <ele>346.116432</ele>
        <time>2021-11-14T21:34:38.229Z</time>
      </trkpt>
      <trkpt lat="47.563232" lon="8.127932">
        <ele>346.446020</ele>
        <time>2021-11-14T21:34:42.671Z</time>
      </trkpt>
      <trkpt lat="47.563096" lon="8.128178">
        <ele>346.754110</ele>
        <time>2021-11-14T21:34:46.790Z</time>
      </trkpt>
      <trkpt lat="47.562984" lon="8.128403">
        <ele>347.024976</ele>
        <time>2021-11-14T21:34:50.660Z</time>
      </trkpt>
      <trkpt lat="47.562839" lon="8.128684">
        <ele>347.367677</ele>
        <time>2021-11-14T21:34:55.637Z</time>
      </trkpt>
      <trkpt lat="47.562419" lon="8.129559">
        <ele>348.502196</ele>
        <time>2021-11-14T21:35:10.928Z</time>
      </trkpt>
      <trkpt lat="47.562200" lon="8.130042">
        <ele>349.273263</ele>
        <time>2021-11-14T21:35:18.846Z</time>
      </trkpt>
      <trkpt lat="47.562169" lon="8.130101">
        <ele>349.372346</ele>
        <time>2021-11-14T21:35:19.769Z</time>
      </trkpt>
      <trkpt lat="47.562119" lon="8.130197">
        <ele>349.533037</ele>
        <time>2021-11-14T21:35:21.299Z</time>
      </trkpt>
      <trkpt lat="47.561796" lon="8.130897">
        <ele>350.656710</ele>
        <time>2021-11-14T21:35:32.921Z</time>
      </trkpt>
      <trkpt lat="47.561185" lon="8.132211">
        <ele>354.282195</ele>
        <time>2021-11-14T21:36:02.341Z</time>
      </trkpt>
      <trkpt lat="47.561157" lon="8.132257">
        <ele>354.478325</ele>
        <time>2021-11-14T21:36:05.106Z</time>
      </trkpt>
      <trkpt lat="47.561056" lon="8.132422">
        <ele>355.183616</ele>
        <time>2021-11-14T21:36:10.300Z</time>
      </trkpt>
      <trkpt lat="47.561161" lon="8.132610">
        <ele>355.956244</ele>
        <time>2021-11-14T21:36:14.764Z</time>
      </trkpt>
      <trkpt lat="47.561195" lon="8.132668">
        <ele>356.199482</ele>
        <time>2021-11-14T21:36:18.086Z</time>
      </trkpt>
      <trkpt lat="47.561623" lon="8.133432">
        <ele>359.343186</ele>
        <time>2021-11-14T21:36:40.496Z</time>
      </trkpt>
      <trkpt lat="47.561664" lon="8.133579">
        <ele>359.846768</ele>
        <time>2021-11-14T21:36:46.209Z</time>
      </trkpt>
      <trkpt lat="47.561698" lon="8.133720">
        <ele>360.301935</ele>
        <time>2021-11-14T21:36:49.786Z</time>
      </trkpt>
      <trkpt lat="47.561725" lon="8.133913">
        <ele>360.866607</ele>
        <time>2021-11-14T21:36:54.280Z</time>
      </trkpt>
      <trkpt lat="47.561724" lon="8.134162">
        <ele>361.579964</ele>
        <time>2021-11-14T21:37:01.916Z</time>
      </trkpt>
      <trkpt lat="47.561720" lon="8.135210">
        <ele>364.582365</ele>
        <time>2021-11-14T21:37:27.720Z</time>
      </trkpt>
      <trkpt lat="47.561711" lon="8.135438">
        <ele>365.236666</ele>
        <time>2021-11-14T21:37:32.668Z</time>
      </trkpt>
      <trkpt lat="47.561699" lon="8.135702">
        <ele>365.994698</ele>
        <time>2021-11-14T21:37:38.433Z</time>
      </trkpt>
      <trkpt lat="47.561695" lon="8.135815">
        <ele>366.318870</ele>
        <time>2021-11-14T21:37:40.388Z</time>
      </trkpt>
      <trkpt lat="47.561673" lon="8.136111">
        <ele>367.171991</ele>
        <time>2021-11-14T21:37:45.401Z</time>
      </trkpt>
      <trkpt lat="47.561651" lon="8.136422">
        <ele>367.727235</ele>
        <time>2021-11-14T21:37:48.938Z</time>
      </trkpt>
      <trkpt lat="47.561604" lon="8.136996">
        <ele>367.560058</ele>
        <time>2021-11-14T21:37:54.963Z</time>
      </trkpt>
      <trkpt lat="47.561574" lon="8.137322">
        <ele>367.464930</ele>
        <time>2021-11-14T21:37:58.194Z</time>
      </trkpt>
      <trkpt lat="47.561548" lon="8.137622">
        <ele>367.377479</ele>
        <time>2021-11-14T21:38:01.138Z</time>
      </trkpt>
      <trkpt lat="47.561531" lon="8.137825">
        <ele>367.318336</ele>
        <time>2021-11-14T21:38:03.113Z</time>
      </trkpt>
      <trkpt lat="47.561520" lon="8.138020">
        <ele>367.261760</ele>
        <time>2021-11-14T21:38:04.610Z</time>
      </trkpt>
      <trkpt lat="47.561504" lon="8.138613">
        <ele>367.090169</ele>
        <time>2021-11-14T21:38:09.114Z</time>
      </trkpt>
      <trkpt lat="47.561507" lon="8.138771">
        <ele>367.044469</ele>
        <time>2021-11-14T21:38:10.353Z</time>
      </trkpt>
      <trkpt lat="47.561660" lon="8.140164">
        <ele>366.421697</ele>
        <time>2021-11-14T21:38:20.950Z</time>
      </trkpt>
      <trkpt lat="47.561574" lon="8.141379">
        <ele>365.852644</ele>
        <time>2021-11-14T21:38:32.927Z</time>
      </trkpt>
      <trkpt lat="47.561563" lon="8.141574">
        <ele>365.761496</ele>
        <time>2021-11-14T21:38:35.011Z</time>
      </trkpt>
      <trkpt lat="47.561548" lon="8.141908">
        <ele>366.056800</ele>
        <time>2021-11-14T21:38:39.167Z</time>
      </trkpt>
      <trkpt lat="47.561542" lon="8.142165">
        <ele>366.321286</ele>
        <time>2021-11-14T21:38:42.168Z</time>
      </trkpt>
      <trkpt lat="47.561548" lon="8.142491">
        <ele>366.656706</ele>
        <time>2021-11-14T21:38:46.899Z</time>
      </trkpt>
      <trkpt lat="47.561569" lon="8.142863">
        <ele>367.040649</ele>
        <time>2021-11-14T21:38:52.197Z</time>
      </trkpt>
      <trkpt lat="47.561629" lon="8.143405">
        <ele>367.605554</ele>
        <time>2021-11-14T21:39:00.654Z</time>
      </trkpt>
      <trkpt lat="47.561693" lon="8.143892">
        <ele>368.115849</ele>
        <time>2021-11-14T21:39:08.280Z</time>
      </trkpt>
      <trkpt lat="47.561737" lon="8.144240">
        <ele>368.479999</ele>
        <time>2021-11-14T21:39:13.747Z</time>
      </trkpt>
      <trkpt lat="47.561764" lon="8.144413">
        <ele>368.659719</ele>
        <time>2021-11-14T21:39:16.740Z</time>
      </trkpt>
      <trkpt lat="47.561830" lon="8.144934">
        <ele>369.195867</ele>
        <time>2021-11-14T21:39:25.206Z</time>
      </trkpt>
      <trkpt lat="47.561843" lon="8.145077">
        <ele>369.341805</ele>
        <time>2021-11-14T21:39:27.467Z</time>
      </trkpt>
      <trkpt lat="47.561847" lon="8.145230">
        <ele>369.496667</ele>
        <time>2021-11-14T21:39:29.821Z</time>
      </trkpt>
      <trkpt lat="47.561842" lon="8.145448">
        <ele>369.717280</ele>
        <time>2021-11-14T21:39:33.163Z</time>
      </trkpt>
      <trkpt lat="47.561827" lon="8.145709">
        <ele>369.982213</ele>
        <time>2021-11-14T21:39:36.875Z</time>
      </trkpt>
      <trkpt lat="47.561811" lon="8.145912">
        <ele>370.188925</ele>
        <time>2021-11-14T21:39:39.516Z</time>
      </trkpt>
      <trkpt lat="47.561789" lon="8.146405">
        <ele>370.688638</ele>
        <time>2021-11-14T21:39:45.756Z</time>
      </trkpt>
      <trkpt lat="47.561783" lon="8.146574">
        <ele>370.859802</ele>
        <time>2021-11-14T21:39:47.955Z</time>
      </trkpt>
      <trkpt lat="47.561759" lon="8.147209">
        <ele>371.321628</ele>
        <time>2021-11-14T21:39:55.517Z</time>
      </trkpt>
      <trkpt lat="47.561778" lon="8.147534">
        <ele>371.464212</ele>
        <time>2021-11-14T21:39:59.328Z</time>
      </trkpt>
      <trkpt lat="47.561781" lon="8.147568">
        <ele>371.479199</ele>
        <time>2021-11-14T21:39:59.743Z</time>
      </trkpt>
      <trkpt lat="47.561822" lon="8.147813">
        <ele>371.589528</ele>
        <time>2021-11-14T21:40:02.377Z</time>
      </trkpt>
      <trkpt lat="47.561833" lon="8.147845">
        <ele>371.605225</ele>
        <time>2021-11-14T21:40:02.693Z</time>
      </trkpt>
      <trkpt lat="47.561913" lon="8.148081">
        <ele>371.720660</ele>
        <time>2021-11-14T21:40:05.623Z</time>
      </trkpt>
      <trkpt lat="47.561978" lon="8.148254">
        <ele>371.807206</ele>
        <time>2021-11-14T21:40:07.656Z</time>
      </trkpt>
      <trkpt lat="47.562009" lon="8.148365">
        <ele>371.859713</ele>
        <time>2021-11-14T21:40:09.018Z</time>
      </trkpt>
      <trkpt lat="47.562009" lon="8.148597">
        <ele>371.961116</ele>
        <time>2021-11-14T21:40:11.844Z</time>
      </trkpt>
      <trkpt lat="47.561998" lon="8.148673">
        <ele>371.995090</ele>
        <time>2021-11-14T21:40:12.576Z</time>
      </trkpt>
      <trkpt lat="47.561980" lon="8.148763">
        <ele>372.036119</ele>
        <time>2021-11-14T21:40:15.029Z</time>
      </trkpt>
      <trkpt lat="47.561943" lon="8.148889">
        <ele>372.096179</ele>
        <time>2021-11-14T21:40:18.644Z</time>
      </trkpt>
      <trkpt lat="47.561915" lon="8.148980">
        <ele>372.139894</ele>
        <time>2021-11-14T21:40:21.487Z</time>
      </trkpt>
      <trkpt lat="47.561767" lon="8.149503">
        <ele>372.434931</ele>
        <time>2021-11-14T21:40:36.927Z</time>
      </trkpt>
      <trkpt lat="47.561555" lon="8.150316">
        <ele>373.274299</ele>
        <time>2021-11-14T21:41:01.466Z</time>
      </trkpt>
      <trkpt lat="47.561512" lon="8.150470">
        <ele>373.434800</ele>
        <time>2021-11-14T21:41:06.812Z</time>
      </trkpt>
      <trkpt lat="47.561471" lon="8.150574">
        <ele>373.550795</ele>
        <time>2021-11-14T21:41:10.201Z</time>
      </trkpt>
      <trkpt lat="47.561352" lon="8.150768">
        <ele>373.803277</ele>
        <time>2021-11-14T21:41:17.657Z</time>
      </trkpt>
      <trkpt lat="47.561257" lon="8.150909">
        <ele>373.995162</ele>
        <time>2021-11-14T21:41:23.811Z</time>
      </trkpt>
      <trkpt lat="47.561109" lon="8.151163">
        <ele>374.318346</ele>
        <time>2021-11-14T21:41:33.116Z</time>
      </trkpt>
      <trkpt lat="47.561003" lon="8.151403">
        <ele>374.594580</ele>
        <time>2021-11-14T21:41:41.851Z</time>
      </trkpt>
      <trkpt lat="47.560916" lon="8.151600">
        <ele>374.821317</ele>
        <time>2021-11-14T21:41:48.337Z</time>
      </trkpt>
      <trkpt lat="47.560859" lon="8.151728">
        <ele>374.982936</ele>
        <time>2021-11-14T21:41:53.522Z</time>
      </trkpt>
      <trkpt lat="47.560747" lon="8.151985">
        <ele>375.354261</ele>
        <time>2021-11-14T21:42:02.285Z</time>
      </trkpt>
      <trkpt lat="47.560710" lon="8.152072">
        <ele>375.479078</ele>
        <time>2021-11-14T21:42:05.286Z</time>
      </trkpt>
      <trkpt lat="47.560668" lon="8.152171">
        <ele>375.621011</ele>
        <time>2021-11-14T21:42:09.468Z</time>
      </trkpt>
      <trkpt lat="47.560622" lon="8.152294">
        <ele>375.791695</ele>
        <time>2021-11-14T21:42:13.665Z</time>
      </trkpt>
      <trkpt lat="47.560547" lon="8.152508">
        <ele>376.084378</ele>
        <time>2021-11-14T21:42:20.598Z</time>
      </trkpt>
      <trkpt lat="47.560456" lon="8.152909">
        <ele>376.597873</ele>
        <time>2021-11-14T21:42:33.713Z</time>
      </trkpt>
      <trkpt lat="47.560422" lon="8.153030">
        <ele>376.756960</ele>
        <time>2021-11-14T21:42:37.495Z</time>
      </trkpt>
      <trkpt lat="47.560379" lon="8.153152">
        <ele>376.924019</ele>
        <time>2021-11-14T21:42:42.186Z</time>
      </trkpt>
      <trkpt lat="47.560330" lon="8.153256">
        <ele>377.077972</ele>
        <time>2021-11-14T21:42:45.880Z</time>
      </trkpt>
      <trkpt lat="47.560212" lon="8.153476">
        <ele>377.419070</ele>
        <time>2021-11-14T21:42:53.684Z</time>
      </trkpt>
      <trkpt lat="47.560153" lon="8.153582">
        <ele>377.585846</ele>
        <time>2021-11-14T21:42:56.312Z</time>
      </trkpt>
      <trkpt lat="47.560053" lon="8.153772">
        <ele>377.878307</ele>
        <time>2021-11-14T21:42:59.303Z</time>
      </trkpt>
      <trkpt lat="47.559990" lon="8.153866">
        <ele>378.039109</ele>
        <time>2021-11-14T21:43:00.836Z</time>
      </trkpt>
      <trkpt lat="47.559938" lon="8.153925">
        <ele>378.158498</ele>
        <time>2021-11-14T21:43:02.566Z</time>
      </trkpt>
      <trkpt lat="47.559905" lon="8.153956">
        <ele>378.246578</ele>
        <time>2021-11-14T21:43:03.598Z</time>
      </trkpt>
      <trkpt lat="47.559841" lon="8.154003">
        <ele>378.407598</ele>
        <time>2021-11-14T21:43:04.995Z</time>
      </trkpt>
      <trkpt lat="47.559698" lon="8.154088">
        <ele>378.754929</ele>
        <time>2021-11-14T21:43:07.577Z</time>
      </trkpt>
      <trkpt lat="47.559651" lon="8.154104">
        <ele>378.863641</ele>
        <time>2021-11-14T21:43:08.606Z</time>
      </trkpt>
      <trkpt lat="47.559591" lon="8.154124">
        <ele>379.002279</ele>
        <time>2021-11-14T21:43:10.249Z</time>
      </trkpt>
      <trkpt lat="47.559455" lon="8.154165">
        <ele>379.315144</ele>
        <time>2021-11-14T21:43:13.113Z</time>
      </trkpt>
      <trkpt lat="47.559284" lon="8.154179">
        <ele>379.701217</ele>
        <time>2021-11-14T21:43:16.869Z</time>
      </trkpt>
      <trkpt lat="47.559156" lon="8.154177">
        <ele>379.989783</ele>
        <time>2021-11-14T21:43:20.205Z</time>
      </trkpt>
      <trkpt lat="47.559032" lon="8.154178">
        <ele>380.269321</ele>
        <time>2021-11-14T21:43:22.821Z</time>
      </trkpt>
      <trkpt lat="47.558979" lon="8.154180">
        <ele>380.388837</ele>
        <time>2021-11-14T21:43:24.201Z</time>
      </trkpt>
      <trkpt lat="47.558924" lon="8.154185">
        <ele>380.513057</ele>
        <time>2021-11-14T21:43:25.655Z</time>
      </trkpt>
      <trkpt lat="47.558848" lon="8.154194">
        <ele>380.684930</ele>
        <time>2021-11-14T21:43:27.755Z</time>
      </trkpt>
      <trkpt lat="47.558498" lon="8.154242">
        <ele>381.477306</ele>
        <time>2021-11-14T21:43:36.228Z</time>
      </trkpt>
      <trkpt lat="47.557974" lon="8.154446">
        <ele>383.034708</ele>
        <time>2021-11-14T21:43:50.957Z</time>
      </trkpt>
      <trkpt lat="47.557909" lon="8.154469">
        <ele>383.287978</ele>
        <time>2021-11-14T21:43:52.712Z</time>
      </trkpt>
      <trkpt lat="47.557607" lon="8.154562">
        <ele>384.456981</ele>
        <time>2021-11-14T21:44:01.309Z</time>
      </trkpt>
      <trkpt lat="47.557234" lon="8.154662">
        <ele>385.893564</ele>
        <time>2021-11-14T21:44:12.446Z</time>
      </trkpt>
      <trkpt lat="47.557020" lon="8.154736">
        <ele>386.726394</ele>
        <time>2021-11-14T21:44:18.614Z</time>
      </trkpt>
      <trkpt lat="47.556982" lon="8.154756">
        <ele>386.879224</ele>
        <time>2021-11-14T21:44:20.833Z</time>
      </trkpt>
      <trkpt lat="47.556702" lon="8.155008">
        <ele>388.120796</ele>
        <time>2021-11-14T21:44:31.158Z</time>
      </trkpt>
      <trkpt lat="47.556361" lon="8.155432">
        <ele>389.769435</ele>
        <time>2021-11-14T21:44:46.695Z</time>
      </trkpt>
      <trkpt lat="47.555852" lon="8.155715">
        <ele>391.729061</ele>
        <time>2021-11-14T21:45:03.433Z</time>
      </trkpt>
      <trkpt lat="47.555483" lon="8.155879">
        <ele>393.117686</ele>
        <time>2021-11-14T21:45:15.107Z</time>
      </trkpt>
      <trkpt lat="47.555146" lon="8.156028">
        <ele>394.385348</ele>
        <time>2021-11-14T21:45:24.394Z</time>
      </trkpt>
      <trkpt lat="47.554024" lon="8.156353">
        <ele>397.149221</ele>
        <time>2021-11-14T21:45:52.508Z</time>
      </trkpt>
      <trkpt lat="47.553415" lon="8.156908">
        <ele>398.561003</ele>
        <time>2021-11-14T21:46:07.420Z</time>
      </trkpt>
      <trkpt lat="47.552966" lon="8.157085">
        <ele>399.621329</ele>
        <time>2021-11-14T21:46:17.052Z</time>
      </trkpt>
      <trkpt lat="47.552741" lon="8.157139">
        <ele>400.223963</ele>
        <time>2021-11-14T21:46:22.032Z</time>
      </trkpt>
      <trkpt lat="47.552683" lon="8.157162">
        <ele>400.382707</ele>
        <time>2021-11-14T21:46:23.537Z</time>
      </trkpt>
      <trkpt lat="47.552319" lon="8.157405">
        <ele>401.438267</ele>
        <time>2021-11-14T21:46:32.902Z</time>
      </trkpt>
      <trkpt lat="47.552174" lon="8.157599">
        <ele>401.954803</ele>
        <time>2021-11-14T21:46:38.073Z</time>
      </trkpt>
      <trkpt lat="47.551779" lon="8.158427">
        <ele>403.764140</ele>
        <time>2021-11-14T21:46:57.783Z</time>
      </trkpt>
      <trkpt lat="47.551653" lon="8.158711">
        <ele>404.554140</ele>
        <time>2021-11-14T21:47:04.798Z</time>
      </trkpt>
      <trkpt lat="47.551526" lon="8.158964">
        <ele>405.301756</ele>
        <time>2021-11-14T21:47:10.938Z</time>
      </trkpt>
      <trkpt lat="47.551447" lon="8.159096">
        <ele>405.720070</ele>
        <time>2021-11-14T21:47:14.334Z</time>
      </trkpt>
      <trkpt lat="47.551332" lon="8.159279">
        <ele>406.312948</ele>
        <time>2021-11-14T21:47:19.208Z</time>
      </trkpt>
      <trkpt lat="47.551164" lon="8.159529">
        <ele>407.149446</ele>
        <time>2021-11-14T21:47:27.114Z</time>
      </trkpt>
      <trkpt lat="47.550666" lon="8.160174">
        <ele>409.473209</ele>
        <time>2021-11-14T21:47:46.796Z</time>
      </trkpt>
      <trkpt lat="47.550099" lon="8.160724">
        <ele>410.736637</ele>
        <time>2021-11-14T21:48:03.566Z</time>
      </trkpt>
      <trkpt lat="47.549984" lon="8.160805">
        <ele>410.893832</ele>
        <time>2021-11-14T21:48:06.820Z</time>
      </trkpt>
      <trkpt lat="47.549905" lon="8.160854">
        <ele>410.999560</ele>
        <time>2021-11-14T21:48:07.901Z</time>
      </trkpt>
      <trkpt lat="47.549732" lon="8.160920">
        <ele>411.220098</ele>
        <time>2021-11-14T21:48:10.892Z</time>
      </trkpt>
      <trkpt lat="47.549617" lon="8.160942">
        <ele>411.363246</ele>
        <time>2021-11-14T21:48:13.287Z</time>
      </trkpt>
      <trkpt lat="47.549490" lon="8.160957">
        <ele>411.520527</ele>
        <time>2021-11-14T21:48:14.841Z</time>
      </trkpt>
      <trkpt lat="47.548672" lon="8.160912">
        <ele>412.670740</ele>
        <time>2021-11-14T21:48:28.637Z</time>
      </trkpt>
      <trkpt lat="47.548497" lon="8.160960">
        <ele>413.061534</ele>
        <time>2021-11-14T21:48:31.822Z</time>
      </trkpt>
      <trkpt lat="47.548340" lon="8.161015">
        <ele>413.415781</ele>
        <time>2021-11-14T21:48:34.147Z</time>
      </trkpt>
      <trkpt lat="47.547978" lon="8.161155">
        <ele>414.237295</ele>
        <time>2021-11-14T21:48:41.149Z</time>
      </trkpt>
      <trkpt lat="47.547763" lon="8.161258">
        <ele>414.733460</ele>
        <time>2021-11-14T21:48:46.428Z</time>
      </trkpt>
      <trkpt lat="47.547713" lon="8.161271">
        <ele>414.844928</ele>
        <time>2021-11-14T21:48:47.583Z</time>
      </trkpt>
      <trkpt lat="47.547597" lon="8.161255">
        <ele>415.100742</ele>
        <time>2021-11-14T21:48:50.124Z</time>
      </trkpt>
      <trkpt lat="47.547553" lon="8.161213">
        <ele>415.215674</ele>
        <time>2021-11-14T21:48:52.120Z</time>
      </trkpt>
      <trkpt lat="47.547463" lon="8.161007">
        <ele>415.579367</ele>
        <time>2021-11-14T21:48:56.036Z</time>
      </trkpt>
      <trkpt lat="47.547400" lon="8.160898">
        <ele>415.792053</ele>
        <time>2021-11-14T21:48:58.692Z</time>
      </trkpt>
      <trkpt lat="47.547324" lon="8.160802">
        <ele>416.011355</ele>
        <time>2021-11-14T21:49:02.593Z</time>
      </trkpt>
      <trkpt lat="47.547271" lon="8.160738">
        <ele>416.161493</ele>
        <time>2021-11-14T21:49:04.306Z</time>
      </trkpt>
      <trkpt lat="47.547119" lon="8.160507">
        <ele>417.338729</ele>
        <time>2021-11-14T21:49:11.393Z</time>
      </trkpt>
      <trkpt lat="47.547062" lon="8.160424">
        <ele>417.876667</ele>
        <time>2021-11-14T21:49:15.580Z</time>
      </trkpt>
      <trkpt lat="47.546793" lon="8.160028">
        <ele>420.429089</ele>
        <time>2021-11-14T21:49:30.596Z</time>
      </trkpt>
      <trkpt lat="47.546464" lon="8.159690">
        <ele>423.123834</ele>
        <time>2021-11-14T21:49:47.783Z</time>
      </trkpt>
      <trkpt lat="47.546205" lon="8.159521">
        <ele>425.028687</ele>
        <time>2021-11-14T21:50:00.682Z</time>
      </trkpt>
      <trkpt lat="47.545798" lon="8.159287">
        <ele>427.967148</ele>
        <time>2021-11-14T21:50:20.664Z</time>
      </trkpt>
      <trkpt lat="47.545206" lon="8.158933">
        <ele>432.841278</ele>
        <time>2021-11-14T21:50:50.257Z</time>
      </trkpt>
      <trkpt lat="47.545006" lon="8.158816">
        <ele>434.505175</ele>
        <time>2021-11-14T21:51:00.973Z</time>
      </trkpt>
      <trkpt lat="47.544401" lon="8.158281">
        <ele>439.957285</ele>
        <time>2021-11-14T21:51:32.645Z</time>
      </trkpt>
      <trkpt lat="47.544125" lon="8.158062">
        <ele>442.382288</ele>
        <time>2021-11-14T21:51:46.106Z</time>
      </trkpt>
      <trkpt lat="47.544028" lon="8.157991">
        <ele>443.253916</ele>
        <time>2021-11-14T21:51:51.656Z</time>
      </trkpt>
      <trkpt lat="47.542966" lon="8.157604">
        <ele>452.064594</ele>
        <time>2021-11-14T21:52:41.373Z</time>
      </trkpt>
      <trkpt lat="47.542634" lon="8.157526">
        <ele>454.772664</ele>
        <time>2021-11-14T21:52:57.378Z</time>
      </trkpt>
      <trkpt lat="47.542080" lon="8.157404">
        <ele>459.826972</ele>
        <time>2021-11-14T21:53:25.779Z</time>
      </trkpt>
      <trkpt lat="47.541274" lon="8.157256">
        <ele>467.806415</ele>
        <time>2021-11-14T21:54:09.934Z</time>
      </trkpt>
      <trkpt lat="47.540927" lon="8.157312">
        <ele>471.235814</ele>
        <time>2021-11-14T21:54:29.741Z</time>
      </trkpt>
      <trkpt lat="47.540810" lon="8.157356">
        <ele>472.421788</ele>
        <time>2021-11-14T21:54:37.893Z</time>
      </trkpt>
      <trkpt lat="47.540306" lon="8.157642">
        <ele>478.069089</ele>
        <time>2021-11-14T21:55:06.642Z</time>
      </trkpt>
      <trkpt lat="47.539939" lon="8.157871">
        <ele>482.398188</ele>
        <time>2021-11-14T21:55:29.029Z</time>
      </trkpt>
      <trkpt lat="47.539262" lon="8.158347">
        <ele>490.544696</ele>
        <time>2021-11-14T21:56:14.723Z</time>
      </trkpt>
      <trkpt lat="47.538652" lon="8.158920">
        <ele>498.163198</ele>
        <time>2021-11-14T21:56:57.935Z</time>
      </trkpt>
      <trkpt lat="47.538402" lon="8.158993">
        <ele>500.784684</ele>
        <time>2021-11-14T21:57:12.149Z</time>
      </trkpt>
      <trkpt lat="47.538129" lon="8.158926">
        <ele>503.631585</ele>
        <time>2021-11-14T21:57:26.464Z</time>
      </trkpt>
      <trkpt lat="47.537993" lon="8.158861">
        <ele>505.101777</ele>
        <time>2021-11-14T21:57:36.469Z</time>
      </trkpt>
      <trkpt lat="47.537777" lon="8.158663">
        <ele>507.715075</ele>
        <time>2021-11-14T21:57:48.951Z</time>
      </trkpt>
      <trkpt lat="47.537308" lon="8.158309">
        <ele>512.932772</ele>
        <time>2021-11-14T21:58:18.294Z</time>
      </trkpt>
      <trkpt lat="47.536680" lon="8.158080">
        <ele>517.343910</ele>
        <time>2021-11-14T21:58:51.964Z</time>
      </trkpt>
      <trkpt lat="47.535911" lon="8.157613">
        <ele>523.012552</ele>
        <time>2021-11-14T21:59:18.263Z</time>
      </trkpt>
      <trkpt lat="47.535831" lon="8.157512">
        <ele>523.729500</ele>
        <time>2021-11-14T21:59:25.449Z</time>
      </trkpt>
      <trkpt lat="47.535755" lon="8.157281">
        <ele>524.927811</ele>
        <time>2021-11-14T21:59:27.409Z</time>
      </trkpt>
      <trkpt lat="47.535755" lon="8.156923">
        <ele>526.821262</ele>
        <time>2021-11-14T21:59:40.237Z</time>
      </trkpt>
      <trkpt lat="47.535886" lon="8.156623">
        <ele>528.710913</ele>
        <time>2021-11-14T21:59:49.840Z</time>
      </trkpt>
      <trkpt lat="47.536227" lon="8.156418">
        <ele>531.593951</ele>
        <time>2021-11-14T22:00:05.970Z</time>
      </trkpt>
      <trkpt lat="47.536375" lon="8.156215">
        <ele>533.174143</ele>
        <time>2021-11-14T22:00:13.025Z</time>
      </trkpt>
      <trkpt lat="47.536379" lon="8.156114">
        <ele>533.709241</ele>
        <time>2021-11-14T22:00:13.768Z</time>
      </trkpt>
      <trkpt lat="47.536365" lon="8.156042">
        <ele>534.105522</ele>
        <time>2021-11-14T22:00:19.253Z</time>
      </trkpt>
      <trkpt lat="47.536275" lon="8.155911">
        <ele>535.094030</ele>
        <time>2021-11-14T22:00:26.826Z</time>
      </trkpt>
      <trkpt lat="47.535929" lon="8.155793">
        <ele>537.875514</ele>
        <time>2021-11-14T22:00:42.583Z</time>
      </trkpt>
      <trkpt lat="47.535638" lon="8.155780">
        <ele>541.019234</ele>
        <time>2021-11-14T22:00:59.715Z</time>
      </trkpt>
      <trkpt lat="47.535382" lon="8.155853">
        <ele>544.466914</ele>
        <time>2021-11-14T22:01:13.657Z</time>
      </trkpt>
      <trkpt lat="47.535038" lon="8.156042">
        <ele>549.319083</ele>
        <time>2021-11-14T22:01:42.259Z</time>
      </trkpt>
      <trkpt lat="47.534225" lon="8.156664">
        <ele>561.420319</ele>
        <time>2021-11-14T22:02:50.425Z</time>
      </trkpt>
      <trkpt lat="47.533688" lon="8.156925">
        <ele>567.810060</ele>
        <time>2021-11-14T22:03:27.348Z</time>
      </trkpt>
      <trkpt lat="47.533018" lon="8.157247">
        <ele>575.497539</ele>
        <time>2021-11-14T22:04:08.813Z</time>
      </trkpt>
      <trkpt lat="47.532785" lon="8.157393">
        <ele>578.258635</ele>
        <time>2021-11-14T22:04:23.352Z</time>
      </trkpt>
      <trkpt lat="47.532610" lon="8.157621">
        <ele>580.802299</ele>
        <time>2021-11-14T22:04:35.857Z</time>
      </trkpt>
      <trkpt lat="47.532528" lon="8.157790">
        <ele>582.323388</ele>
        <time>2021-11-14T22:04:43.948Z</time>
      </trkpt>
      <trkpt lat="47.532498" lon="8.157872">
        <ele>582.521165</ele>
        <time>2021-11-14T22:04:47.612Z</time>
      </trkpt>
      <trkpt lat="47.532429" lon="8.158184">
        <ele>583.217382</ele>
        <time>2021-11-14T22:04:56.183Z</time>
      </trkpt>
      <trkpt lat="47.532429" lon="8.158184">
        <ele>583.217382</ele>
        <time>2021-11-14T22:04:56.226Z</time>
      </trkpt>
      <trkpt lat="47.532432" lon="8.158587">
        <ele>584.072038</ele>
        <time>2021-11-14T22:05:04.990Z</time>
      </trkpt>
      <trkpt lat="47.532460" lon="8.158776">
        <ele>584.482367</ele>
        <time>2021-11-14T22:05:10.758Z</time>
      </trkpt>
      <trkpt lat="47.532477" lon="8.158926">
        <ele>584.804907</ele>
        <time>2021-11-14T22:05:15.209Z</time>
      </trkpt>
      <trkpt lat="47.532485" lon="8.159048">
        <ele>585.064838</ele>
        <time>2021-11-14T22:05:15.919Z</time>
      </trkpt>
      <trkpt lat="47.532482" lon="8.159131">
        <ele>585.241100</ele>
        <time>2021-11-14T22:05:17.675Z</time>
      </trkpt>
      <trkpt lat="47.532470" lon="8.159209">
        <ele>585.410747</ele>
        <time>2021-11-14T22:05:20.261Z</time>
      </trkpt>
      <trkpt lat="47.532302" lon="8.159474">
        <ele>586.181607</ele>
        <time>2021-11-14T22:05:23.952Z</time>
      </trkpt>
      <trkpt lat="47.532123" lon="8.159504">
        <ele>586.747404</ele>
        <time>2021-11-14T22:05:29.593Z</time>
      </trkpt>
      <trkpt lat="47.532070" lon="8.159485">
        <ele>586.918674</ele>
        <time>2021-11-14T22:05:32.156Z</time>
      </trkpt>
      <trkpt lat="47.532025" lon="8.159458">
        <ele>587.071169</ele>
        <time>2021-11-14T22:05:33.106Z</time>
      </trkpt>
      <trkpt lat="47.531737" lon="8.159129">
        <ele>587.513441</ele>
        <time>2021-11-14T22:05:37.669Z</time>
      </trkpt>
      <trkpt lat="47.531683" lon="8.159092">
        <ele>587.168328</ele>
        <time>2021-11-14T22:05:38.166Z</time>
      </trkpt>
      <trkpt lat="47.531625" lon="8.159067">
        <ele>586.817950</ele>
        <time>2021-11-14T22:05:38.768Z</time>
      </trkpt>
      <trkpt lat="47.531550" lon="8.159038">
        <ele>586.368343</ele>
        <time>2021-11-14T22:05:41.402Z</time>
      </trkpt>
      <trkpt lat="47.531478" lon="8.159022">
        <ele>585.946043</ele>
        <time>2021-11-14T22:05:42.909Z</time>
      </trkpt>
      <trkpt lat="47.531400" lon="8.159005">
        <ele>585.488744</ele>
        <time>2021-11-14T22:05:44.085Z</time>
      </trkpt>
      <trkpt lat="47.531366" lon="8.158998">
        <ele>585.289635</ele>
        <time>2021-11-14T22:05:44.411Z</time>
      </trkpt>
      <trkpt lat="47.531310" lon="8.158988">
        <ele>584.962463</ele>
        <time>2021-11-14T22:05:44.873Z</time>
      </trkpt>
      <trkpt lat="47.530516" lon="8.158915">
        <ele>580.348121</ele>
        <time>2021-11-14T22:05:52.077Z</time>
      </trkpt>
      <trkpt lat="47.529919" lon="8.158997">
        <ele>576.629053</ele>
        <time>2021-11-14T22:05:57.321Z</time>
      </trkpt>
      <trkpt lat="47.529891" lon="8.159001">
        <ele>576.406606</ele>
        <time>2021-11-14T22:05:57.551Z</time>
      </trkpt>
      <trkpt lat="47.529736" lon="8.159189">
        <ele>574.822304</ele>
        <time>2021-11-14T22:05:59.358Z</time>
      </trkpt>
      <trkpt lat="47.529654" lon="8.159620">
        <ele>572.431396</ele>
        <time>2021-11-14T22:06:02.052Z</time>
      </trkpt>
      <trkpt lat="47.529635" lon="8.159696">
        <ele>571.998677</ele>
        <time>2021-11-14T22:06:02.540Z</time>
      </trkpt>
      <trkpt lat="47.529614" lon="8.159742">
        <ele>571.702191</ele>
        <time>2021-11-14T22:06:02.870Z</time>
      </trkpt>
      <trkpt lat="47.529587" lon="8.159773">
        <ele>571.432034</ele>
        <time>2021-11-14T22:06:03.156Z</time>
      </trkpt>
      <trkpt lat="47.529554" lon="8.159792">
        <ele>571.152049</ele>
        <time>2021-11-14T22:06:03.460Z</time>
      </trkpt>
      <trkpt lat="47.529513" lon="8.159796">
        <ele>570.827125</ele>
        <time>2021-11-14T22:06:03.802Z</time>
      </trkpt>
      <trkpt lat="47.529427" lon="8.159752">
        <ele>570.107615</ele>
        <time>2021-11-14T22:06:04.640Z</time>
      </trkpt>
      <trkpt lat="47.529173" lon="8.159303">
        <ele>566.979984</ele>
        <time>2021-11-14T22:06:08.149Z</time>
      </trkpt>
      <trkpt lat="47.528995" lon="8.159185">
        <ele>565.437811</ele>
        <time>2021-11-14T22:06:09.859Z</time>
      </trkpt>
      <trkpt lat="47.528775" lon="8.159174">
        <ele>563.697097</ele>
        <time>2021-11-14T22:06:11.892Z</time>
      </trkpt>
      <trkpt lat="47.528479" lon="8.159315">
        <ele>562.483507</ele>
        <time>2021-11-14T22:06:14.725Z</time>
      </trkpt>
      <trkpt lat="47.528376" lon="8.159282">
        <ele>562.150695</ele>
        <time>2021-11-14T22:06:15.797Z</time>
      </trkpt>
      <trkpt lat="47.528358" lon="8.159233">
        <ele>562.031742</ele>
        <time>2021-11-14T22:06:16.113Z</time>
      </trkpt>
      <trkpt lat="47.528287" lon="8.159214">
        <ele>561.803884</ele>
        <time>2021-11-14T22:06:16.739Z</time>
      </trkpt>
      <trkpt lat="47.527983" lon="8.159252">
        <ele>560.840397</ele>
        <time>2021-11-14T22:06:19.905Z</time>
      </trkpt>
      <trkpt lat="47.527958" lon="8.159243">
        <ele>560.759145</ele>
        <time>2021-11-14T22:06:20.120Z</time>
      </trkpt>
      <trkpt lat="47.527947" lon="8.159230">
        <ele>560.714700</ele>
        <time>2021-11-14T22:06:20.258Z</time>
      </trkpt>
      <trkpt lat="47.527937" lon="8.159204">
        <ele>560.650892</ele>
        <time>2021-11-14T22:06:21.223Z</time>
      </trkpt>
      <trkpt lat="47.527886" lon="8.158756">
        <ele>559.682064</ele>
        <time>2021-11-14T22:06:24.532Z</time>
      </trkpt>
      <trkpt lat="47.527831" lon="8.158278">
        <ele>558.648049</ele>
        <time>2021-11-14T22:06:28.403Z</time>
      </trkpt>
      <trkpt lat="47.527755" lon="8.158037">
        <ele>558.080837</ele>
        <time>2021-11-14T22:06:30.481Z</time>
      </trkpt>
      <trkpt lat="47.527713" lon="8.157956">
        <ele>557.863054</ele>
        <time>2021-11-14T22:06:32.145Z</time>
      </trkpt>
      <trkpt lat="47.527439" lon="8.157168">
        <ele>557.303915</ele>
        <time>2021-11-14T22:06:40.202Z</time>
      </trkpt>
      <trkpt lat="47.526984" lon="8.155261">
        <ele>556.292609</ele>
        <time>2021-11-14T22:06:59.117Z</time>
      </trkpt>
      <trkpt lat="47.526626" lon="8.154250">
        <ele>554.471448</ele>
        <time>2021-11-14T22:07:07.226Z</time>
      </trkpt>
      <trkpt lat="47.526555" lon="8.153923">
        <ele>553.923479</ele>
        <time>2021-11-14T22:07:09.726Z</time>
      </trkpt>
      <trkpt lat="47.526521" lon="8.153700">
        <ele>553.558770</ele>
        <time>2021-11-14T22:07:14.236Z</time>
      </trkpt>
      <trkpt lat="47.526505" lon="8.153493">
        <ele>553.226386</ele>
        <time>2021-11-14T22:07:18.733Z</time>
      </trkpt>
      <trkpt lat="47.526455" lon="8.153308">
        <ele>552.908492</ele>
        <time>2021-11-14T22:07:22.837Z</time>
      </trkpt>
      <trkpt lat="47.526376" lon="8.153143">
        <ele>552.585812</ele>
        <time>2021-11-14T22:07:24.155Z</time>
      </trkpt>
      <trkpt lat="47.526233" lon="8.152973">
        <ele>552.077954</ele>
        <time>2021-11-14T22:07:26.157Z</time>
      </trkpt>
      <trkpt lat="47.526015" lon="8.152528">
        <ele>550.596401</ele>
        <time>2021-11-14T22:07:29.880Z</time>
      </trkpt>
      <trkpt lat="47.525986" lon="8.152431">
        <ele>550.310526</ele>
        <time>2021-11-14T22:07:30.545Z</time>
      </trkpt>
      <trkpt lat="47.525781" lon="8.151732">
        <ele>548.256833</ele>
        <time>2021-11-14T22:07:35.505Z</time>
      </trkpt>
      <trkpt lat="47.525712" lon="8.151526">
        <ele>547.637148</ele>
        <time>2021-11-14T22:07:37.037Z</time>
      </trkpt>
      <trkpt lat="47.525631" lon="8.151281">
        <ele>546.902019</ele>
        <time>2021-11-14T22:07:38.759Z</time>
      </trkpt>
      <trkpt lat="47.525477" lon="8.150925">
        <ele>545.762669</ele>
        <time>2021-11-14T22:07:41.560Z</time>
      </trkpt>
      <trkpt lat="47.525250" lon="8.150500">
        <ele>544.354227</ele>
        <time>2021-11-14T22:07:45.046Z</time>
      </trkpt>
      <trkpt lat="47.524838" lon="8.149751">
        <ele>541.923808</ele>
        <time>2021-11-14T22:07:51.505Z</time>
      </trkpt>
      <trkpt lat="47.524547" lon="8.149022">
        <ele>539.793277</ele>
        <time>2021-11-14T22:07:57.250Z</time>
      </trkpt>
      <trkpt lat="47.524468" lon="8.148740">
        <ele>539.025178</ele>
        <time>2021-11-14T22:07:59.230Z</time>
      </trkpt>
      <trkpt lat="47.524426" lon="8.148623">
        <ele>538.691816</ele>
        <time>2021-11-14T22:08:00.205Z</time>
      </trkpt>
      <trkpt lat="47.524342" lon="8.148337">
        <ele>537.850338</ele>
        <time>2021-11-14T22:08:02.265Z</time>
      </trkpt>
      <trkpt lat="47.524236" lon="8.148019">
        <ele>536.851255</ele>
        <time>2021-11-14T22:08:04.766Z</time>
      </trkpt>
      <trkpt lat="47.524184" lon="8.147870">
        <ele>536.378741</ele>
        <time>2021-11-14T22:08:05.884Z</time>
      </trkpt>
      <trkpt lat="47.524101" lon="8.147621">
        <ele>535.596438</ele>
        <time>2021-11-14T22:08:07.807Z</time>
      </trkpt>
      <trkpt lat="47.523983" lon="8.147357">
        <ele>534.704519</ele>
        <time>2021-11-14T22:08:09.958Z</time>
      </trkpt>
      <trkpt lat="47.523819" lon="8.147090">
        <ele>533.687687</ele>
        <time>2021-11-14T22:08:12.368Z</time>
      </trkpt>
      <trkpt lat="47.523253" lon="8.146107">
        <ele>529.519361</ele>
        <time>2021-11-14T22:08:20.605Z</time>
      </trkpt>
      <trkpt lat="47.523143" lon="8.145922">
        <ele>528.382093</ele>
        <time>2021-11-14T22:08:22.074Z</time>
      </trkpt>
      <trkpt lat="47.522931" lon="8.145526">
        <ele>526.050536</ele>
        <time>2021-11-14T22:08:25.139Z</time>
      </trkpt>
      <trkpt lat="47.522791" lon="8.145287">
        <ele>524.590781</ele>
        <time>2021-11-14T22:08:27.090Z</time>
      </trkpt>
      <trkpt lat="47.522731" lon="8.145171">
        <ele>523.916621</ele>
        <time>2021-11-14T22:08:27.943Z</time>
      </trkpt>
      <trkpt lat="47.522611" lon="8.144805">
        <ele>522.039449</ele>
        <time>2021-11-14T22:08:30.432Z</time>
      </trkpt>
      <trkpt lat="47.522534" lon="8.143857">
        <ele>517.683597</ele>
        <time>2021-11-14T22:08:36.139Z</time>
      </trkpt>
      <trkpt lat="47.521571" lon="8.142474">
        <ele>508.994114</ele>
        <time>2021-11-14T22:08:48.311Z</time>
      </trkpt>
      <trkpt lat="47.521505" lon="8.142343">
        <ele>508.279181</ele>
        <time>2021-11-14T22:08:49.346Z</time>
      </trkpt>
      <trkpt lat="47.521323" lon="8.141385">
        <ele>504.273153</ele>
        <time>2021-11-14T22:08:55.577Z</time>
      </trkpt>
      <trkpt lat="47.521217" lon="8.141214">
        <ele>503.374833</ele>
        <time>2021-11-14T22:08:57.051Z</time>
      </trkpt>
      <trkpt lat="47.520979" lon="8.141091">
        <ele>501.930218</ele>
        <time>2021-11-14T22:08:59.395Z</time>
      </trkpt>
      <trkpt lat="47.520809" lon="8.141121">
        <ele>500.949086</ele>
        <time>2021-11-14T22:09:01.001Z</time>
      </trkpt>
      <trkpt lat="47.520728" lon="8.141141">
        <ele>500.478482</ele>
        <time>2021-11-14T22:09:01.748Z</time>
      </trkpt>
      <trkpt lat="47.520656" lon="8.141153">
        <ele>500.063258</ele>
        <time>2021-11-14T22:09:02.433Z</time>
      </trkpt>
      <trkpt lat="47.520494" lon="8.141123">
        <ele>499.127635</ele>
        <time>2021-11-14T22:09:03.904Z</time>
      </trkpt>
      <trkpt lat="47.520353" lon="8.141020">
        <ele>498.226614</ele>
        <time>2021-11-14T22:09:05.365Z</time>
      </trkpt>
      <trkpt lat="47.520231" lon="8.140864">
        <ele>497.302853</ele>
        <time>2021-11-14T22:09:06.848Z</time>
      </trkpt>
      <trkpt lat="47.520122" lon="8.140718">
        <ele>496.460169</ele>
        <time>2021-11-14T22:09:08.205Z</time>
      </trkpt>
      <trkpt lat="47.520010" lon="8.140561">
        <ele>495.574355</ele>
        <time>2021-11-14T22:09:09.651Z</time>
      </trkpt>
      <trkpt lat="47.519799" lon="8.140263">
        <ele>493.899602</ele>
        <time>2021-11-14T22:09:12.284Z</time>
      </trkpt>
      <trkpt lat="47.519606" lon="8.139968">
        <ele>492.306447</ele>
        <time>2021-11-14T22:09:14.763Z</time>
      </trkpt>
      <trkpt lat="47.519509" lon="8.139849">
        <ele>491.582946</ele>
        <time>2021-11-14T22:09:15.951Z</time>
      </trkpt>
      <trkpt lat="47.519420" lon="8.139752">
        <ele>490.948225</ele>
        <time>2021-11-14T22:09:16.939Z</time>
      </trkpt>
      <trkpt lat="47.519094" lon="8.139647">
        <ele>489.032028</ele>
        <time>2021-11-14T22:09:20.017Z</time>
      </trkpt>
      <trkpt lat="47.518769" lon="8.139831">
        <ele>487.033566</ele>
        <time>2021-11-14T22:09:23.243Z</time>
      </trkpt>
      <trkpt lat="47.518669" lon="8.139927">
        <ele>486.349056</ele>
        <time>2021-11-14T22:09:24.327Z</time>
      </trkpt>
      <trkpt lat="47.518621" lon="8.139978">
        <ele>486.250604</ele>
        <time>2021-11-14T22:09:24.940Z</time>
      </trkpt>
      <trkpt lat="47.518520" lon="8.140038">
        <ele>486.144370</ele>
        <time>2021-11-14T22:09:26.094Z</time>
      </trkpt>
      <trkpt lat="47.518444" lon="8.139763">
        <ele>485.948479</ele>
        <time>2021-11-14T22:09:27.991Z</time>
      </trkpt>
      <trkpt lat="47.518154" lon="8.138644">
        <ele>485.158301</ele>
        <time>2021-11-14T22:09:37.618Z</time>
      </trkpt>
      <trkpt lat="47.518104" lon="8.138332">
        <ele>484.946895</ele>
        <time>2021-11-14T22:09:41.079Z</time>
      </trkpt>
      <trkpt lat="47.518054" lon="8.137953">
        <ele>484.692308</ele>
        <time>2021-11-14T22:09:46.635Z</time>
      </trkpt>
      <trkpt lat="47.518030" lon="8.137790">
        <ele>484.582321</ele>
        <time>2021-11-14T22:09:49.358Z</time>
      </trkpt>
      <trkpt lat="47.517976" lon="8.137488">
        <ele>485.164609</ele>
        <time>2021-11-14T22:09:55.184Z</time>
      </trkpt>
      <trkpt lat="47.517845" lon="8.137000">
        <ele>486.445179</ele>
        <time>2021-11-14T22:10:04.982Z</time>
      </trkpt>
      <trkpt lat="47.517686" lon="8.136537">
        <ele>487.711809</ele>
        <time>2021-11-14T22:10:14.988Z</time>
      </trkpt>
      <trkpt lat="47.517541" lon="8.136103">
        <ele>488.892565</ele>
        <time>2021-11-14T22:10:25.099Z</time>
      </trkpt>
      <trkpt lat="47.517476" lon="8.135870">
        <ele>489.507315</ele>
        <time>2021-11-14T22:10:30.586Z</time>
      </trkpt>
      <trkpt lat="47.517380" lon="8.135284">
        <ele>490.977756</ele>
        <time>2021-11-14T22:10:44.372Z</time>
      </trkpt>
      <trkpt lat="47.517374" lon="8.134964">
        <ele>491.966991</ele>
        <time>2021-11-14T22:10:51.419Z</time>
      </trkpt>
      <trkpt lat="47.517506" lon="8.134288">
        <ele>494.180220</ele>
        <time>2021-11-14T22:11:06.755Z</time>
      </trkpt>
      <trkpt lat="47.517600" lon="8.134020">
        <ele>495.130023</ele>
        <time>2021-11-14T22:11:13.507Z</time>
      </trkpt>
      <trkpt lat="47.517646" lon="8.133904">
        <ele>495.553107</ele>
        <time>2021-11-14T22:11:16.375Z</time>
      </trkpt>
      <trkpt lat="47.517932" lon="8.133229">
        <ele>498.059308</ele>
        <time>2021-11-14T22:11:33.951Z</time>
      </trkpt>
      <trkpt lat="47.518221" lon="8.132565">
        <ele>500.902543</ele>
        <time>2021-11-14T22:11:52.611Z</time>
      </trkpt>
      <trkpt lat="47.518527" lon="8.131863">
        <ele>504.365402</ele>
        <time>2021-11-14T22:12:15.490Z</time>
      </trkpt>
      <trkpt lat="47.518696" lon="8.131473">
        <ele>506.285885</ele>
        <time>2021-11-14T22:12:27.809Z</time>
      </trkpt>
      <trkpt lat="47.518837" lon="8.131164">
        <ele>507.831461</ele>
        <time>2021-11-14T22:12:37.509Z</time>
      </trkpt>
      <trkpt lat="47.518939" lon="8.131029">
        <ele>508.671027</ele>
        <time>2021-11-14T22:12:43.383Z</time>
      </trkpt>
      <trkpt lat="47.519016" lon="8.130950">
        <ele>509.245911</ele>
        <time>2021-11-14T22:12:46.774Z</time>
      </trkpt>
      <trkpt lat="47.519115" lon="8.130853">
        <ele>509.974422</ele>
        <time>2021-11-14T22:12:51.807Z</time>
      </trkpt>
      <trkpt lat="47.519537" lon="8.130421">
        <ele>514.355022</ele>
        <time>2021-11-14T22:13:14.084Z</time>
      </trkpt>
      <trkpt lat="47.519957" lon="8.129855">
        <ele>519.448509</ele>
        <time>2021-11-14T22:13:38.867Z</time>
      </trkpt>
      <trkpt lat="47.520822" lon="8.128489">
        <ele>533.071855</ele>
        <time>2021-11-14T22:14:54.330Z</time>
      </trkpt>
      <trkpt lat="47.520851" lon="8.128363">
        <ele>534.315430</ele>
        <time>2021-11-14T22:14:59.905Z</time>
      </trkpt>
      <trkpt lat="47.520824" lon="8.128212">
        <ele>535.774680</ele>
        <time>2021-11-14T22:15:11.070Z</time>
      </trkpt>
      <trkpt lat="47.520650" lon="8.128120">
        <ele>538.330530</ele>
        <time>2021-11-14T22:15:20.913Z</time>
      </trkpt>
      <trkpt lat="47.520505" lon="8.128188">
        <ele>540.434563</ele>
        <time>2021-11-14T22:15:34.609Z</time>
      </trkpt>
      <trkpt lat="47.520467" lon="8.128201">
        <ele>540.974078</ele>
        <time>2021-11-14T22:15:38.670Z</time>
      </trkpt>
      <trkpt lat="47.520344" lon="8.128214">
        <ele>542.679913</ele>
        <time>2021-11-14T22:15:44.883Z</time>
      </trkpt>
      <trkpt lat="47.520230" lon="8.128176">
        <ele>544.296383</ele>
        <time>2021-11-14T22:15:52.447Z</time>
      </trkpt>
      <trkpt lat="47.520129" lon="8.128104">
        <ele>545.847035</ele>
        <time>2021-11-14T22:16:04.291Z</time>
      </trkpt>
      <trkpt lat="47.519948" lon="8.127803">
        <ele>549.612201</ele>
        <time>2021-11-14T22:16:21.515Z</time>
      </trkpt>
      <trkpt lat="47.519773" lon="8.127131">
        <ele>555.637399</ele>
        <time>2021-11-14T22:17:00.404Z</time>
      </trkpt>
      <trkpt lat="47.519714" lon="8.126761">
        <ele>558.676604</ele>
        <time>2021-11-14T22:17:17.868Z</time>
      </trkpt>
      <trkpt lat="47.519704" lon="8.126247">
        <ele>562.787352</ele>
        <time>2021-11-14T22:17:41.956Z</time>
      </trkpt>
      <trkpt lat="47.519641" lon="8.125947">
        <ele>565.298902</ele>
        <time>2021-11-14T22:17:56.779Z</time>
      </trkpt>
      <trkpt lat="47.519073" lon="8.124669">
        <ele>574.469536</ele>
        <time>2021-11-14T22:18:44.611Z</time>
      </trkpt>
      <trkpt lat="47.519000" lon="8.124585">
        <ele>574.862155</ele>
        <time>2021-11-14T22:18:47.838Z</time>
      </trkpt>
      <trkpt lat="47.518640" lon="8.124328">
        <ele>576.559402</ele>
        <time>2021-11-14T22:19:01.122Z</time>
      </trkpt>
      <trkpt lat="47.518224" lon="8.124020">
        <ele>578.534603</ele>
        <time>2021-11-14T22:19:13.700Z</time>
      </trkpt>
      <trkpt lat="47.518119" lon="8.123894">
        <ele>579.108564</ele>
        <time>2021-11-14T22:19:17.867Z</time>
      </trkpt>
      <trkpt lat="47.518043" lon="8.123755">
        <ele>579.621501</ele>
        <time>2021-11-14T22:19:20.142Z</time>
      </trkpt>
      <trkpt lat="47.517865" lon="8.123246">
        <ele>579.955641</ele>
        <time>2021-11-14T22:19:28.206Z</time>
      </trkpt>
      <trkpt lat="47.517595" lon="8.122024">
        <ele>578.088176</ele>
        <time>2021-11-14T22:19:38.756Z</time>
      </trkpt>
      <trkpt lat="47.517430" lon="8.121363">
        <ele>577.064622</ele>
        <time>2021-11-14T22:19:43.315Z</time>
      </trkpt>
      <trkpt lat="47.517380" lon="8.121126">
        <ele>576.703985</ele>
        <time>2021-11-14T22:19:44.937Z</time>
      </trkpt>
      <trkpt lat="47.517360" lon="8.120980">
        <ele>576.394353</ele>
        <time>2021-11-14T22:19:45.822Z</time>
      </trkpt>
      <trkpt lat="47.517437" lon="8.120369">
        <ele>573.394916</ele>
        <time>2021-11-14T22:19:49.707Z</time>
      </trkpt>
      <trkpt lat="47.517519" lon="8.120168">
        <ele>572.261708</ele>
        <time>2021-11-14T22:19:51.178Z</time>
      </trkpt>
      <trkpt lat="47.517621" lon="8.119982">
        <ele>571.105480</ele>
        <time>2021-11-14T22:19:52.587Z</time>
      </trkpt>
      <trkpt lat="47.517857" lon="8.119775">
        <ele>569.145502</ele>
        <time>2021-11-14T22:19:54.986Z</time>
      </trkpt>
      <trkpt lat="47.518596" lon="8.119438">
        <ele>563.644707</ele>
        <time>2021-11-14T22:20:01.768Z</time>
      </trkpt>
      <trkpt lat="47.518824" lon="8.119333">
        <ele>562.689975</ele>
        <time>2021-11-14T22:20:03.974Z</time>
      </trkpt>
      <trkpt lat="47.519064" lon="8.119070">
        <ele>561.496122</ele>
        <time>2021-11-14T22:20:06.711Z</time>
      </trkpt>
      <trkpt lat="47.519180" lon="8.118910">
        <ele>560.862239</ele>
        <time>2021-11-14T22:20:08.207Z</time>
      </trkpt>
      <trkpt lat="47.519221" lon="8.118862">
        <ele>560.653250</ele>
        <time>2021-11-14T22:20:08.738Z</time>
      </trkpt>
      <trkpt lat="47.519187" lon="8.118830">
        <ele>560.492163</ele>
        <time>2021-11-14T22:20:09.294Z</time>
      </trkpt>
      <trkpt lat="47.519020" lon="8.118892">
        <ele>559.803746</ele>
        <time>2021-11-14T22:20:10.963Z</time>
      </trkpt>
      <trkpt lat="47.518865" lon="8.118958">
        <ele>559.158863</ele>
        <time>2021-11-14T22:20:12.601Z</time>
      </trkpt>
      <trkpt lat="47.518684" lon="8.118986">
        <ele>558.431196</ele>
        <time>2021-11-14T22:20:14.427Z</time>
      </trkpt>
      <trkpt lat="47.518662" lon="8.118990">
        <ele>558.342569</ele>
        <time>2021-11-14T22:20:14.803Z</time>
      </trkpt>
      <trkpt lat="47.518372" lon="8.119045">
        <ele>557.173532</ele>
        <time>2021-11-14T22:20:17.905Z</time>
      </trkpt>
      <trkpt lat="47.518291" lon="8.118990">
        <ele>556.817224</ele>
        <time>2021-11-14T22:20:18.793Z</time>
      </trkpt>
      <trkpt lat="47.518226" lon="8.118790">
        <ele>556.539207</ele>
        <time>2021-11-14T22:20:20.643Z</time>
      </trkpt>
      <trkpt lat="47.518234" lon="8.118678">
        <ele>556.602487</ele>
        <time>2021-11-14T22:20:21.566Z</time>
      </trkpt>
      <trkpt lat="47.518325" lon="8.118433">
        <ele>556.759588</ele>
        <time>2021-11-14T22:20:23.782Z</time>
      </trkpt>
      <trkpt lat="47.518622" lon="8.118005">
        <ele>557.104380</ele>
        <time>2021-11-14T22:20:32.913Z</time>
      </trkpt>
      <trkpt lat="47.518740" lon="8.117714">
        <ele>557.295089</ele>
        <time>2021-11-14T22:20:37.958Z</time>
      </trkpt>
      <trkpt lat="47.518885" lon="8.117042">
        <ele>557.691459</ele>
        <time>2021-11-14T22:20:47.940Z</time>
      </trkpt>
      <trkpt lat="47.518892" lon="8.116720">
        <ele>557.872470</ele>
        <time>2021-11-14T22:20:51.949Z</time>
      </trkpt>
      <trkpt lat="47.518474" lon="8.113619">
        <ele>561.376652</ele>
        <time>2021-11-14T22:21:40.275Z</time>
      </trkpt>
      <trkpt lat="47.518295" lon="8.113056">
        <ele>561.416786</ele>
        <time>2021-11-14T22:21:49.887Z</time>
      </trkpt>
      <trkpt lat="47.517983" lon="8.112466">
        <ele>561.465116</ele>
        <time>2021-11-14T22:21:58.417Z</time>
      </trkpt>
      <trkpt lat="47.517585" lon="8.111839">
        <ele>561.520614</ele>
        <time>2021-11-14T22:22:05.581Z</time>
      </trkpt>
      <trkpt lat="47.517402" lon="8.111532">
        <ele>560.586801</ele>
        <time>2021-11-14T22:22:08.503Z</time>
      </trkpt>
      <trkpt lat="47.517126" lon="8.111099">
        <ele>558.621966</ele>
        <time>2021-11-14T22:22:12.383Z</time>
      </trkpt>
      <trkpt lat="47.516960" lon="8.110849">
        <ele>557.464999</ele>
        <time>2021-11-14T22:22:14.618Z</time>
      </trkpt>
      <trkpt lat="47.516730" lon="8.110266">
        <ele>555.236863</ele>
        <time>2021-11-14T22:22:18.869Z</time>
      </trkpt>
      <trkpt lat="47.516517" lon="8.109548">
        <ele>552.608194</ele>
        <time>2021-11-14T22:22:23.651Z</time>
      </trkpt>
      <trkpt lat="47.516180" lon="8.108478">
        <ele>546.969760</ele>
        <time>2021-11-14T22:22:30.836Z</time>
      </trkpt>
      <trkpt lat="47.515524" lon="8.106413">
        <ele>535.007650</ele>
        <time>2021-11-14T22:22:44.607Z</time>
      </trkpt>
      <trkpt lat="47.515271" lon="8.105582">
        <ele>529.482195</ele>
        <time>2021-11-14T22:22:50.014Z</time>
      </trkpt>
      <trkpt lat="47.515233" lon="8.105459">
        <ele>528.662297</ele>
        <time>2021-11-14T22:22:50.799Z</time>
      </trkpt>
      <trkpt lat="47.514931" lon="8.104527">
        <ele>521.781537</ele>
        <time>2021-11-14T22:22:56.765Z</time>
      </trkpt>
      <trkpt lat="47.514756" lon="8.103964">
        <ele>516.466566</ele>
        <time>2021-11-14T22:23:00.307Z</time>
      </trkpt>
      <trkpt lat="47.514667" lon="8.103702">
        <ele>513.951513</ele>
        <time>2021-11-14T22:23:01.980Z</time>
      </trkpt>
      <trkpt lat="47.514173" lon="8.102716">
        <ele>503.423188</ele>
        <time>2021-11-14T22:23:08.925Z</time>
      </trkpt>
      <trkpt lat="47.513402" lon="8.101592">
        <ele>490.345605</ele>
        <time>2021-11-14T22:23:17.958Z</time>
      </trkpt>
      <trkpt lat="47.513274" lon="8.101477">
        <ele>488.555214</ele>
        <time>2021-11-14T22:23:19.273Z</time>
      </trkpt>
      <trkpt lat="47.513213" lon="8.101454">
        <ele>487.802495</ele>
        <time>2021-11-14T22:23:19.791Z</time>
      </trkpt>
      <trkpt lat="47.513097" lon="8.101440">
        <ele>486.410767</ele>
        <time>2021-11-14T22:23:20.797Z</time>
      </trkpt>
      <trkpt lat="47.512294" lon="8.101446">
        <ele>478.185069</ele>
        <time>2021-11-14T22:23:27.758Z</time>
      </trkpt>
      <trkpt lat="47.511784" lon="8.101451">
        <ele>475.169199</ele>
        <time>2021-11-14T22:23:32.242Z</time>
      </trkpt>
      <trkpt lat="47.511350" lon="8.101444">
        <ele>472.602657</ele>
        <time>2021-11-14T22:23:36.506Z</time>
      </trkpt>
      <trkpt lat="47.510731" lon="8.101349">
        <ele>468.922684</ele>
        <time>2021-11-14T22:23:42.646Z</time>
      </trkpt>
      <trkpt lat="47.509944" lon="8.100887">
        <ele>465.877812</ele>
        <time>2021-11-14T22:23:51.042Z</time>
      </trkpt>
      <trkpt lat="47.509638" lon="8.100703">
        <ele>464.694080</ele>
        <time>2021-11-14T22:23:54.335Z</time>
      </trkpt>
      <trkpt lat="47.509622" lon="8.100692">
        <ele>464.630854</ele>
        <time>2021-11-14T22:23:54.513Z</time>
      </trkpt>
      <trkpt lat="47.509412" lon="8.100549">
        <ele>463.802401</ele>
        <time>2021-11-14T22:23:56.839Z</time>
      </trkpt>
      <trkpt lat="47.509343" lon="8.100494">
        <ele>463.521534</ele>
        <time>2021-11-14T22:23:57.637Z</time>
      </trkpt>
      <trkpt lat="47.509176" lon="8.100345">
        <ele>462.822703</ele>
        <time>2021-11-14T22:23:59.604Z</time>
      </trkpt>
      <trkpt lat="47.508688" lon="8.099702">
        <ele>461.002222</ele>
        <time>2021-11-14T22:24:06.073Z</time>
      </trkpt>
      <trkpt lat="47.508596" lon="8.099602">
        <ele>460.701432</ele>
        <time>2021-11-14T22:24:07.149Z</time>
      </trkpt>
      <trkpt lat="47.508511" lon="8.099532">
        <ele>460.445097</ele>
        <time>2021-11-14T22:24:08.069Z</time>
      </trkpt>
      <trkpt lat="47.508401" lon="8.099452">
        <ele>460.122111</ele>
        <time>2021-11-14T22:24:09.379Z</time>
      </trkpt>
      <trkpt lat="47.508341" lon="8.099423">
        <ele>459.955774</ele>
        <time>2021-11-14T22:24:10.023Z</time>
      </trkpt>
      <trkpt lat="47.508035" lon="8.099268">
        <ele>459.103444</ele>
        <time>2021-11-14T22:24:13.501Z</time>
      </trkpt>
      <trkpt lat="47.507728" lon="8.099150">
        <ele>458.267553</ele>
        <time>2021-11-14T22:24:17.299Z</time>
      </trkpt>
      <trkpt lat="47.507666" lon="8.099135">
        <ele>458.101991</ele>
        <time>2021-11-14T22:24:18.015Z</time>
      </trkpt>
      <trkpt lat="47.507495" lon="8.099134">
        <ele>457.674219</ele>
        <time>2021-11-14T22:24:19.885Z</time>
      </trkpt>
      <trkpt lat="47.507198" lon="8.099101">
        <ele>457.199286</ele>
        <time>2021-11-14T22:24:23.936Z</time>
      </trkpt>
      <trkpt lat="47.507131" lon="8.099082">
        <ele>457.090504</ele>
        <time>2021-11-14T22:24:24.637Z</time>
      </trkpt>
      <trkpt lat="47.506976" lon="8.099024">
        <ele>456.835564</ele>
        <time>2021-11-14T22:24:27.259Z</time>
      </trkpt>
      <trkpt lat="47.506874" lon="8.098948">
        <ele>456.653473</ele>
        <time>2021-11-14T22:24:28.655Z</time>
      </trkpt>
      <trkpt lat="47.506767" lon="8.098876">
        <ele>456.466050</ele>
        <time>2021-11-14T22:24:29.907Z</time>
      </trkpt>
      <trkpt lat="47.506485" lon="8.098597">
        <ele>455.925187</ele>
        <time>2021-11-14T22:24:33.705Z</time>
      </trkpt>
      <trkpt lat="47.506383" lon="8.098483">
        <ele>455.721386</ele>
        <time>2021-11-14T22:24:35.467Z</time>
      </trkpt>
      <trkpt lat="47.506023" lon="8.098051">
        <ele>454.982407</ele>
        <time>2021-11-14T22:24:40.486Z</time>
      </trkpt>
      <trkpt lat="47.505855" lon="8.097849">
        <ele>454.389775</ele>
        <time>2021-11-14T22:24:42.740Z</time>
      </trkpt>
      <trkpt lat="47.505811" lon="8.097796">
        <ele>454.189497</ele>
        <time>2021-11-14T22:24:43.365Z</time>
      </trkpt>
      <trkpt lat="47.505520" lon="8.097456">
        <ele>452.880621</ele>
        <time>2021-11-14T22:24:47.342Z</time>
      </trkpt>
      <trkpt lat="47.505224" lon="8.097111">
        <ele>451.550496</ele>
        <time>2021-11-14T22:24:51.172Z</time>
      </trkpt>
      <trkpt lat="47.505090" lon="8.096968">
        <ele>450.967271</ele>
        <time>2021-11-14T22:24:52.770Z</time>
      </trkpt>
      <trkpt lat="47.504977" lon="8.096829">
        <ele>450.448543</ele>
        <time>2021-11-14T22:24:54.219Z</time>
      </trkpt>
      <trkpt lat="47.504815" lon="8.096672">
        <ele>449.764907</ele>
        <time>2021-11-14T22:24:56.037Z</time>
      </trkpt>
      <trkpt lat="47.504630" lon="8.096527">
        <ele>449.025832</ele>
        <time>2021-11-14T22:24:58.030Z</time>
      </trkpt>
      <trkpt lat="47.503767" lon="8.095971">
        <ele>445.783687</ele>
        <time>2021-11-14T22:25:06.991Z</time>
      </trkpt>
      <trkpt lat="47.503482" lon="8.095792">
        <ele>444.722334</ele>
        <time>2021-11-14T22:25:10.011Z</time>
      </trkpt>
      <trkpt lat="47.502910" lon="8.095439">
        <ele>442.597796</ele>
        <time>2021-11-14T22:25:16.739Z</time>
      </trkpt>
      <trkpt lat="47.502574" lon="8.095231">
        <ele>442.102622</ele>
        <time>2021-11-14T22:25:21.167Z</time>
      </trkpt>
      <trkpt lat="47.502282" lon="8.095019">
        <ele>441.848876</ele>
        <time>2021-11-14T22:25:25.163Z</time>
      </trkpt>
      <trkpt lat="47.502217" lon="8.094977">
        <ele>441.793542</ele>
        <time>2021-11-14T22:25:25.937Z</time>
      </trkpt>
      <trkpt lat="47.502110" lon="8.094873">
        <ele>441.693672</ele>
        <time>2021-11-14T22:25:27.348Z</time>
      </trkpt>
      <trkpt lat="47.502026" lon="8.094768">
        <ele>441.607894</ele>
        <time>2021-11-14T22:25:29.485Z</time>
      </trkpt>
      <trkpt lat="47.501590" lon="8.094043">
        <ele>441.096290</ele>
        <time>2021-11-14T22:25:38.228Z</time>
      </trkpt>
      <trkpt lat="47.501513" lon="8.093894">
        <ele>440.997412</ele>
        <time>2021-11-14T22:25:40.775Z</time>
      </trkpt>
      <trkpt lat="47.501149" lon="8.093186">
        <ele>440.259827</ele>
        <time>2021-11-14T22:25:48.654Z</time>
      </trkpt>
      <trkpt lat="47.500685" lon="8.092227">
        <ele>439.212905</ele>
        <time>2021-11-14T22:25:58.543Z</time>
      </trkpt>
      <trkpt lat="47.500507" lon="8.091877">
        <ele>438.824082</ele>
        <time>2021-11-14T22:26:01.774Z</time>
      </trkpt>
      <trkpt lat="47.500332" lon="8.091539">
        <ele>438.238303</ele>
        <time>2021-11-14T22:26:04.842Z</time>
      </trkpt>
      <trkpt lat="47.498994" lon="8.089359">
        <ele>430.532645</ele>
        <time>2021-11-14T22:26:24.322Z</time>
      </trkpt>
      <trkpt lat="47.498851" lon="8.089152">
        <ele>429.602698</ele>
        <time>2021-11-14T22:26:26.212Z</time>
      </trkpt>
      <trkpt lat="47.498666" lon="8.088885">
        <ele>428.401367</ele>
        <time>2021-11-14T22:26:28.573Z</time>
      </trkpt>
      <trkpt lat="47.498481" lon="8.088558">
        <ele>427.061648</ele>
        <time>2021-11-14T22:26:31.298Z</time>
      </trkpt>
      <trkpt lat="47.498188" lon="8.087851">
        <ele>424.456341</ele>
        <time>2021-11-14T22:26:36.615Z</time>
      </trkpt>
      <trkpt lat="47.497928" lon="8.087452">
        <ele>422.898267</ele>
        <time>2021-11-14T22:26:40.237Z</time>
      </trkpt>
      <trkpt lat="47.497737" lon="8.087270">
        <ele>422.103257</ele>
        <time>2021-11-14T22:26:42.421Z</time>
      </trkpt>
      <trkpt lat="47.497376" lon="8.086991">
        <ele>420.677959</ele>
        <time>2021-11-14T22:26:46.636Z</time>
      </trkpt>
      <trkpt lat="47.496950" lon="8.086653">
        <ele>418.986334</ele>
        <time>2021-11-14T22:26:51.630Z</time>
      </trkpt>
      <trkpt lat="47.496752" lon="8.086468">
        <ele>418.166849</ele>
        <time>2021-11-14T22:26:53.960Z</time>
      </trkpt>
      <trkpt lat="47.496576" lon="8.086291">
        <ele>417.422145</ele>
        <time>2021-11-14T22:26:56.261Z</time>
      </trkpt>
      <trkpt lat="47.496519" lon="8.086234">
        <ele>417.181392</ele>
        <time>2021-11-14T22:26:56.869Z</time>
      </trkpt>
      <trkpt lat="47.496422" lon="8.086009">
        <ele>416.406171</ele>
        <time>2021-11-14T22:26:58.630Z</time>
      </trkpt>
      <trkpt lat="47.496373" lon="8.085787">
        <ele>415.723657</ele>
        <time>2021-11-14T22:27:00.319Z</time>
      </trkpt>
      <trkpt lat="47.496274" lon="8.085642">
        <ele>415.121220</ele>
        <time>2021-11-14T22:27:01.608Z</time>
      </trkpt>
      <trkpt lat="47.496002" lon="8.085400">
        <ele>413.748508</ele>
        <time>2021-11-14T22:27:04.693Z</time>
      </trkpt>
      <trkpt lat="47.495636" lon="8.084745">
        <ele>411.264496</ele>
        <time>2021-11-14T22:27:10.281Z</time>
      </trkpt>
      <trkpt lat="47.495549" lon="8.084639">
        <ele>410.777082</ele>
        <time>2021-11-14T22:27:11.282Z</time>
      </trkpt>
      <trkpt lat="47.495445" lon="8.084551">
        <ele>410.258916</ele>
        <time>2021-11-14T22:27:12.412Z</time>
      </trkpt>
      <trkpt lat="47.495171" lon="8.084232">
        <ele>408.867540</ele>
        <time>2021-11-14T22:27:15.678Z</time>
      </trkpt>
      <trkpt lat="47.495106" lon="8.084168">
        <ele>408.592279</ele>
        <time>2021-11-14T22:27:16.435Z</time>
      </trkpt>
      <trkpt lat="47.495055" lon="8.084135">
        <ele>408.396028</ele>
        <time>2021-11-14T22:27:17.010Z</time>
      </trkpt>
      <trkpt lat="47.494924" lon="8.084065">
        <ele>407.904963</ele>
        <time>2021-11-14T22:27:18.324Z</time>
      </trkpt>
      <trkpt lat="47.494822" lon="8.084015">
        <ele>407.526115</ele>
        <time>2021-11-14T22:27:19.378Z</time>
      </trkpt>
      <trkpt lat="47.494898" lon="8.083514">
        <ele>406.302895</ele>
        <time>2021-11-14T22:27:22.746Z</time>
      </trkpt>
      <trkpt lat="47.494933" lon="8.083243">
        <ele>405.645617</ele>
        <time>2021-11-14T22:27:24.593Z</time>
      </trkpt>
      <trkpt lat="47.494963" lon="8.083009">
        <ele>405.078224</ele>
        <time>2021-11-14T22:27:26.151Z</time>
      </trkpt>
      <trkpt lat="47.494982" lon="8.082826">
        <ele>404.637155</ele>
        <time>2021-11-14T22:27:27.422Z</time>
      </trkpt>
      <trkpt lat="47.495018" lon="8.082502">
        <ele>403.854940</ele>
        <time>2021-11-14T22:27:29.959Z</time>
      </trkpt>
      <trkpt lat="47.495034" lon="8.082354">
        <ele>403.497883</ele>
        <time>2021-11-14T22:27:30.987Z</time>
      </trkpt>
      <trkpt lat="47.495088" lon="8.082021">
        <ele>402.950432</ele>
        <time>2021-11-14T22:27:33.653Z</time>
      </trkpt>
      <trkpt lat="47.495132" lon="8.081754">
        <ele>402.787162</ele>
        <time>2021-11-14T22:27:35.871Z</time>
      </trkpt>
      <trkpt lat="47.495162" lon="8.081632">
        <ele>402.710033</ele>
        <time>2021-11-14T22:27:36.924Z</time>
      </trkpt>
      <trkpt lat="47.495207" lon="8.081445">
        <ele>402.592104</ele>
        <time>2021-11-14T22:27:38.514Z</time>
      </trkpt>
      <trkpt lat="47.495281" lon="8.081177">
        <ele>402.420109</ele>
        <time>2021-11-14T22:27:41.009Z</time>
      </trkpt>
      <trkpt lat="47.495292" lon="8.081144">
        <ele>402.398248</ele>
        <time>2021-11-14T22:27:41.296Z</time>
      </trkpt>
      <trkpt lat="47.495384" lon="8.080873">
        <ele>402.218073</ele>
        <time>2021-11-14T22:27:43.845Z</time>
      </trkpt>
      <trkpt lat="47.495515" lon="8.080558">
        <ele>401.998330</ele>
        <time>2021-11-14T22:27:47.300Z</time>
      </trkpt>
      <trkpt lat="47.495515" lon="8.080558">
        <ele>401.998330</ele>
        <time>2021-11-14T22:27:47.343Z</time>
      </trkpt>
      <trkpt lat="47.495562" lon="8.080466">
        <ele>401.929811</ele>
        <time>2021-11-14T22:27:48.339Z</time>
      </trkpt>
      <trkpt lat="47.495681" lon="8.080229">
        <ele>401.754392</ele>
        <time>2021-11-14T22:27:51.051Z</time>
      </trkpt>
      <trkpt lat="47.495859" lon="8.079943">
        <ele>401.523388</ele>
        <time>2021-11-14T22:27:54.609Z</time>
      </trkpt>
      <trkpt lat="47.496040" lon="8.079701">
        <ele>401.337253</ele>
        <time>2021-11-14T22:27:57.957Z</time>
      </trkpt>
      <trkpt lat="47.496380" lon="8.079285">
        <ele>401.023048</ele>
        <time>2021-11-14T22:28:03.844Z</time>
      </trkpt>
      <trkpt lat="47.496536" lon="8.079094">
        <ele>400.878843</ele>
        <time>2021-11-14T22:28:06.563Z</time>
      </trkpt>
      <trkpt lat="47.496846" lon="8.078728">
        <ele>400.596396</ele>
        <time>2021-11-14T22:28:11.672Z</time>
      </trkpt>
      <trkpt lat="47.497084" lon="8.078448">
        <ele>400.379847</ele>
        <time>2021-11-14T22:28:15.398Z</time>
      </trkpt>
      <trkpt lat="47.497208" lon="8.078293">
        <ele>400.264243</ele>
        <time>2021-11-14T22:28:17.333Z</time>
      </trkpt>
      <trkpt lat="47.497325" lon="8.078131">
        <ele>400.137721</ele>
        <time>2021-11-14T22:28:19.235Z</time>
      </trkpt>
      <trkpt lat="47.497745" lon="8.077494">
        <ele>399.511495</ele>
        <time>2021-11-14T22:28:26.252Z</time>
      </trkpt>
      <trkpt lat="47.497866" lon="8.077251">
        <ele>399.299110</ele>
        <time>2021-11-14T22:28:28.531Z</time>
      </trkpt>
      <trkpt lat="47.498061" lon="8.076857">
        <ele>398.955484</ele>
        <time>2021-11-14T22:28:32.261Z</time>
      </trkpt>
      <trkpt lat="47.498775" lon="8.075058">
        <ele>398.707104</ele>
        <time>2021-11-14T22:28:52.038Z</time>
      </trkpt>
      <trkpt lat="47.498880" lon="8.074711">
        <ele>398.839212</ele>
        <time>2021-11-14T22:28:56.615Z</time>
      </trkpt>
      <trkpt lat="47.498960" lon="8.074378">
        <ele>398.962013</ele>
        <time>2021-11-14T22:29:01.523Z</time>
      </trkpt>
      <trkpt lat="47.499013" lon="8.074135">
        <ele>399.050735</ele>
        <time>2021-11-14T22:29:04.498Z</time>
      </trkpt>
      <trkpt lat="47.499051" lon="8.073942">
        <ele>399.120584</ele>
        <time>2021-11-14T22:29:07.639Z</time>
      </trkpt>
      <trkpt lat="47.499138" lon="8.073263">
        <ele>399.122333</ele>
        <time>2021-11-14T22:29:16.477Z</time>
      </trkpt>
      <trkpt lat="47.499170" lon="8.072504">
        <ele>398.908529</ele>
        <time>2021-11-14T22:29:26.781Z</time>
      </trkpt>
      <trkpt lat="47.499016" lon="8.069840">
        <ele>395.904467</ele>
        <time>2021-11-14T22:29:47.192Z</time>
      </trkpt>
      <trkpt lat="47.499026" lon="8.069468">
        <ele>395.071360</ele>
        <time>2021-11-14T22:29:49.643Z</time>
      </trkpt>
      <trkpt lat="47.499075" lon="8.068991">
        <ele>393.991679</ele>
        <time>2021-11-14T22:29:52.776Z</time>
      </trkpt>
      <trkpt lat="47.499104" lon="8.068766">
        <ele>393.479102</ele>
        <time>2021-11-14T22:29:54.215Z</time>
      </trkpt>
      <trkpt lat="47.499148" lon="8.068524">
        <ele>392.918297</ele>
        <time>2021-11-14T22:29:55.847Z</time>
      </trkpt>
      <trkpt lat="47.499201" lon="8.068229">
        <ele>392.190314</ele>
        <time>2021-11-14T22:29:57.767Z</time>
      </trkpt>
      <trkpt lat="47.499519" lon="8.066520">
        <ele>387.604513</ele>
        <time>2021-11-14T22:30:09.287Z</time>
      </trkpt>
      <trkpt lat="47.499531" lon="8.066460">
        <ele>387.442635</ele>
        <time>2021-11-14T22:30:09.721Z</time>
      </trkpt>
      <trkpt lat="47.499591" lon="8.066154">
        <ele>386.618350</ele>
        <time>2021-11-14T22:30:11.902Z</time>
      </trkpt>
      <trkpt lat="47.499610" lon="8.066051">
        <ele>386.342137</ele>
        <time>2021-11-14T22:30:12.692Z</time>
      </trkpt>
      <trkpt lat="47.499668" lon="8.065730">
        <ele>385.584782</ele>
        <time>2021-11-14T22:30:15.107Z</time>
      </trkpt>
      <trkpt lat="47.499682" lon="8.065635">
        <ele>385.501321</ele>
        <time>2021-11-14T22:30:15.837Z</time>
      </trkpt>
      <trkpt lat="47.499770" lon="8.065082">
        <ele>385.013665</ele>
        <time>2021-11-14T22:30:20.228Z</time>
      </trkpt>
      <trkpt lat="47.499809" lon="8.064788">
        <ele>384.756493</ele>
        <time>2021-11-14T22:30:22.619Z</time>
      </trkpt>
      <trkpt lat="47.499832" lon="8.064625">
        <ele>384.613563</ele>
        <time>2021-11-14T22:30:23.962Z</time>
      </trkpt>
      <trkpt lat="47.499921" lon="8.063941">
        <ele>384.015665</ele>
        <time>2021-11-14T22:30:30.030Z</time>
      </trkpt>
      <trkpt lat="47.499972" lon="8.063575">
        <ele>383.694898</ele>
        <time>2021-11-14T22:30:33.197Z</time>
      </trkpt>
      <trkpt lat="47.500065" lon="8.063116">
        <ele>383.298312</ele>
        <time>2021-11-14T22:30:37.195Z</time>
      </trkpt>
      <trkpt lat="47.500111" lon="8.062899">
        <ele>383.146158</ele>
        <time>2021-11-14T22:30:39.084Z</time>
      </trkpt>
      <trkpt lat="47.500321" lon="8.061955">
        <ele>382.481256</ele>
        <time>2021-11-14T22:30:47.426Z</time>
      </trkpt>
      <trkpt lat="47.500357" lon="8.061762">
        <ele>382.347307</ele>
        <time>2021-11-14T22:30:49.069Z</time>
      </trkpt>
      <trkpt lat="47.500421" lon="8.061418">
        <ele>382.108601</ele>
        <time>2021-11-14T22:30:52.063Z</time>
      </trkpt>
      <trkpt lat="47.500438" lon="8.061324">
        <ele>382.043500</ele>
        <time>2021-11-14T22:30:52.817Z</time>
      </trkpt>
      <trkpt lat="47.500538" lon="8.060723">
        <ele>381.629412</ele>
        <time>2021-11-14T22:30:57.854Z</time>
      </trkpt>
      <trkpt lat="47.500573" lon="8.060533">
        <ele>381.560737</ele>
        <time>2021-11-14T22:30:59.491Z</time>
      </trkpt>
      <trkpt lat="47.500588" lon="8.060437">
        <ele>381.552913</ele>
        <time>2021-11-14T22:31:00.242Z</time>
      </trkpt>
      <trkpt lat="47.500604" lon="8.060344">
        <ele>381.545292</ele>
        <time>2021-11-14T22:31:00.984Z</time>
      </trkpt>
      <trkpt lat="47.500708" lon="8.059752">
        <ele>381.496720</ele>
        <time>2021-11-14T22:31:05.934Z</time>
      </trkpt>
      <trkpt lat="47.500919" lon="8.058927">
        <ele>381.426672</ele>
        <time>2021-11-14T22:31:14.329Z</time>
      </trkpt>
      <trkpt lat="47.501139" lon="8.058076">
        <ele>381.401600</ele>
        <time>2021-11-14T22:31:25.478Z</time>
      </trkpt>
      <trkpt lat="47.501265" lon="8.057592">
        <ele>381.916254</ele>
        <time>2021-11-14T22:31:32.605Z</time>
      </trkpt>
      <trkpt lat="47.501287" lon="8.057595">
        <ele>381.948702</ele>
        <time>2021-11-14T22:31:33.064Z</time>
      </trkpt>
      <trkpt lat="47.501352" lon="8.057560">
        <ele>382.050288</ele>
        <time>2021-11-14T22:31:34.425Z</time>
      </trkpt>
      <trkpt lat="47.501377" lon="8.057505">
        <ele>382.116062</ele>
        <time>2021-11-14T22:31:35.334Z</time>
      </trkpt>
      <trkpt lat="47.501386" lon="8.057452">
        <ele>382.170285</ele>
        <time>2021-11-14T22:31:36.316Z</time>
      </trkpt>
      <trkpt lat="47.501371" lon="8.057371">
        <ele>382.253619</ele>
        <time>2021-11-14T22:31:37.416Z</time>
      </trkpt>
      <trkpt lat="47.501356" lon="8.057344">
        <ele>382.288303</ele>
        <time>2021-11-14T22:31:38.150Z</time>
      </trkpt>
      <trkpt lat="47.501459" lon="8.056906">
        <ele>382.748468</ele>
        <time>2021-11-14T22:31:45.050Z</time>
      </trkpt>
      <trkpt lat="47.501717" lon="8.055892">
        <ele>383.823558</ele>
        <time>2021-11-14T22:32:01.307Z</time>
      </trkpt>
      <trkpt lat="47.501751" lon="8.055654">
        <ele>383.956330</ele>
        <time>2021-11-14T22:32:04.937Z</time>
      </trkpt>
      <trkpt lat="47.501784" lon="8.055340">
        <ele>383.748395</ele>
        <time>2021-11-14T22:32:08.782Z</time>
      </trkpt>
      <trkpt lat="47.501806" lon="8.054996">
        <ele>383.522295</ele>
        <time>2021-11-14T22:32:12.845Z</time>
      </trkpt>
      <trkpt lat="47.501851" lon="8.054393">
        <ele>383.125327</ele>
        <time>2021-11-14T22:32:18.144Z</time>
      </trkpt>
      <trkpt lat="47.501857" lon="8.054265">
        <ele>383.041370</ele>
        <time>2021-11-14T22:32:19.085Z</time>
      </trkpt>
      <trkpt lat="47.501923" lon="8.053252">
        <ele>382.375447</ele>
        <time>2021-11-14T22:32:26.741Z</time>
      </trkpt>
      <trkpt lat="47.502020" lon="8.051188">
        <ele>377.918749</ele>
        <time>2021-11-14T22:32:40.667Z</time>
      </trkpt>
      <trkpt lat="47.502094" lon="8.049547">
        <ele>374.475042</ele>
        <time>2021-11-14T22:32:51.698Z</time>
      </trkpt>
      <trkpt lat="47.502090" lon="8.048236">
        <ele>371.967046</ele>
        <time>2021-11-14T22:33:00.940Z</time>
      </trkpt>
      <trkpt lat="47.502044" lon="8.047705">
        <ele>370.993005</ele>
        <time>2021-11-14T22:33:04.877Z</time>
      </trkpt>
      <trkpt lat="47.502029" lon="8.047540">
        <ele>370.827086</ele>
        <time>2021-11-14T22:33:06.076Z</time>
      </trkpt>
      <trkpt lat="47.501759" lon="8.046002">
        <ele>369.243424</ele>
        <time>2021-11-14T22:33:18.384Z</time>
      </trkpt>
      <trkpt lat="47.501515" lon="8.044851">
        <ele>368.047522</ele>
        <time>2021-11-14T22:33:28.412Z</time>
      </trkpt>
      <trkpt lat="47.501358" lon="8.044092">
        <ele>367.270624</ele>
        <time>2021-11-14T22:33:34.965Z</time>
      </trkpt>
      <trkpt lat="47.501234" lon="8.043345">
        <ele>366.517763</ele>
        <time>2021-11-14T22:33:41.000Z</time>
      </trkpt>
      <trkpt lat="47.501123" lon="8.042252">
        <ele>365.248373</ele>
        <time>2021-11-14T22:33:49.214Z</time>
      </trkpt>
      <trkpt lat="47.501065" lon="8.041677">
        <ele>364.376402</ele>
        <time>2021-11-14T22:33:53.367Z</time>
      </trkpt>
      <trkpt lat="47.501063" lon="8.041655">
        <ele>364.343108</ele>
        <time>2021-11-14T22:33:53.509Z</time>
      </trkpt>
      <trkpt lat="47.501009" lon="8.040934">
        <ele>363.255092</ele>
        <time>2021-11-14T22:33:58.647Z</time>
      </trkpt>
      <trkpt lat="47.501026" lon="8.040085">
        <ele>361.981162</ele>
        <time>2021-11-14T22:34:04.771Z</time>
      </trkpt>
      <trkpt lat="47.501083" lon="8.039040">
        <ele>361.390172</ele>
        <time>2021-11-14T22:34:13.036Z</time>
      </trkpt>
      <trkpt lat="47.501120" lon="8.039033">
        <ele>361.365981</ele>
        <time>2021-11-14T22:34:13.534Z</time>
      </trkpt>
      <trkpt lat="47.501198" lon="8.038918">
        <ele>361.294583</ele>
        <time>2021-11-14T22:34:15.027Z</time>
      </trkpt>
      <trkpt lat="47.501143" lon="8.038725">
        <ele>361.202807</ele>
        <time>2021-11-14T22:34:16.801Z</time>
      </trkpt>
      <trkpt lat="47.501107" lon="8.038707">
        <ele>361.178164</ele>
        <time>2021-11-14T22:34:17.249Z</time>
      </trkpt>
      <trkpt lat="47.501117" lon="8.038538">
        <ele>361.103835</ele>
        <time>2021-11-14T22:34:18.797Z</time>
      </trkpt>
      <trkpt lat="47.501141" lon="8.038290">
        <ele>360.994068</ele>
        <time>2021-11-14T22:34:21.136Z</time>
      </trkpt>
      <trkpt lat="47.501181" lon="8.037704">
        <ele>360.736012</ele>
        <time>2021-11-14T22:34:27.138Z</time>
      </trkpt>
      <trkpt lat="47.501269" lon="8.036713">
        <ele>360.692630</ele>
        <time>2021-11-14T22:34:38.877Z</time>
      </trkpt>
      <trkpt lat="47.501430" lon="8.035235">
        <ele>360.819465</ele>
        <time>2021-11-14T22:34:55.246Z</time>
      </trkpt>
      <trkpt lat="47.501445" lon="8.035157">
        <ele>360.826336</ele>
        <time>2021-11-14T22:34:55.980Z</time>
      </trkpt>
      <trkpt lat="47.501641" lon="8.034168">
        <ele>360.339368</ele>
        <time>2021-11-14T22:35:04.733Z</time>
      </trkpt>
      <trkpt lat="47.501669" lon="8.033986">
        <ele>360.202277</ele>
        <time>2021-11-14T22:35:06.238Z</time>
      </trkpt>
      <trkpt lat="47.501698" lon="8.034000">
        <ele>360.169115</ele>
        <time>2021-11-14T22:35:06.569Z</time>
      </trkpt>
      <trkpt lat="47.501807" lon="8.033950">
        <ele>360.045056</ele>
        <time>2021-11-14T22:35:08.028Z</time>
      </trkpt>
      <trkpt lat="47.501827" lon="8.033911">
        <ele>360.009095</ele>
        <time>2021-11-14T22:35:08.398Z</time>
      </trkpt>
      <trkpt lat="47.501840" lon="8.033865">
        <ele>359.972473</ele>
        <time>2021-11-14T22:35:08.851Z</time>
      </trkpt>
      <trkpt lat="47.501821" lon="8.033715">
        <ele>359.860387</ele>
        <time>2021-11-14T22:35:10.053Z</time>
      </trkpt>
      <trkpt lat="47.501785" lon="8.033665">
        <ele>359.806719</ele>
        <time>2021-11-14T22:35:10.658Z</time>
      </trkpt>
      <trkpt lat="47.501831" lon="8.033540">
        <ele>359.702177</ele>
        <time>2021-11-14T22:35:11.805Z</time>
      </trkpt>
      <trkpt lat="47.501972" lon="8.033162">
        <ele>359.385049</ele>
        <time>2021-11-14T22:35:15.216Z</time>
      </trkpt>
      <trkpt lat="47.502050" lon="8.032952">
        <ele>359.209042</ele>
        <time>2021-11-14T22:35:17.143Z</time>
      </trkpt>
      <trkpt lat="47.502156" lon="8.032685">
        <ele>358.981593</ele>
        <time>2021-11-14T22:35:19.522Z</time>
      </trkpt>
      <trkpt lat="47.502278" lon="8.032378">
        <ele>358.684266</ele>
        <time>2021-11-14T22:35:22.293Z</time>
      </trkpt>
      <trkpt lat="47.502589" lon="8.031477">
        <ele>357.792691</ele>
        <time>2021-11-14T22:35:30.174Z</time>
      </trkpt>
      <trkpt lat="47.503055" lon="8.030264">
        <ele>356.563083</ele>
        <time>2021-11-14T22:35:41.390Z</time>
      </trkpt>
      <trkpt lat="47.503408" lon="8.029412">
        <ele>356.027132</ele>
        <time>2021-11-14T22:35:49.756Z</time>
      </trkpt>
      <trkpt lat="47.503617" lon="8.028907">
        <ele>355.711981</ele>
        <time>2021-11-14T22:35:54.754Z</time>
      </trkpt>
      <trkpt lat="47.503672" lon="8.028775">
        <ele>355.629453</ele>
        <time>2021-11-14T22:35:56.096Z</time>
      </trkpt>
      <trkpt lat="47.504063" lon="8.027828">
        <ele>355.074593</ele>
        <time>2021-11-14T22:36:05.892Z</time>
      </trkpt>
      <trkpt lat="47.504221" lon="8.027444">
        <ele>354.923416</ele>
        <time>2021-11-14T22:36:10.012Z</time>
      </trkpt>
      <trkpt lat="47.504606" lon="8.026545">
        <ele>354.565525</ele>
        <time>2021-11-14T22:36:19.918Z</time>
      </trkpt>
      <trkpt lat="47.504614" lon="8.026525">
        <ele>354.557710</ele>
        <time>2021-11-14T22:36:20.080Z</time>
      </trkpt>
      <trkpt lat="47.504641" lon="8.026538">
        <ele>354.543578</ele>
        <time>2021-11-14T22:36:20.507Z</time>
      </trkpt>
      <trkpt lat="47.504663" lon="8.026539">
        <ele>354.532623</ele>
        <time>2021-11-14T22:36:20.826Z</time>
      </trkpt>
      <trkpt lat="47.504689" lon="8.026530">
        <ele>354.519333</ele>
        <time>2021-11-14T22:36:21.213Z</time>
      </trkpt>
      <trkpt lat="47.504716" lon="8.026506">
        <ele>354.503658</ele>
        <time>2021-11-14T22:36:21.622Z</time>
      </trkpt>
      <trkpt lat="47.504737" lon="8.026462">
        <ele>354.485544</ele>
        <time>2021-11-14T22:36:22.107Z</time>
      </trkpt>
      <trkpt lat="47.504744" lon="8.026435">
        <ele>354.475821</ele>
        <time>2021-11-14T22:36:22.361Z</time>
      </trkpt>
      <trkpt lat="47.504745" lon="8.026393">
        <ele>354.461690</ele>
        <time>2021-11-14T22:36:22.732Z</time>
      </trkpt>
      <trkpt lat="47.504733" lon="8.026338">
        <ele>354.442257</ele>
        <time>2021-11-14T22:36:23.236Z</time>
      </trkpt>
      <trkpt lat="47.504704" lon="8.026294">
        <ele>354.421588</ele>
        <time>2021-11-14T22:36:23.765Z</time>
      </trkpt>
      <trkpt lat="47.504725" lon="8.026244">
        <ele>354.401793</ele>
        <time>2021-11-14T22:36:24.315Z</time>
      </trkpt>
      <trkpt lat="47.504760" lon="8.026163">
        <ele>354.369464</ele>
        <time>2021-11-14T22:36:25.100Z</time>
      </trkpt>
      <trkpt lat="47.504823" lon="8.026024">
        <ele>354.313184</ele>
        <time>2021-11-14T22:36:26.605Z</time>
      </trkpt>
      <trkpt lat="47.505192" lon="8.025207">
        <ele>353.559223</ele>
        <time>2021-11-14T22:36:34.956Z</time>
      </trkpt>
      <trkpt lat="47.505559" lon="8.024486">
        <ele>352.757355</ele>
        <time>2021-11-14T22:36:42.220Z</time>
      </trkpt>
      <trkpt lat="47.505612" lon="8.024383">
        <ele>352.642349</ele>
        <time>2021-11-14T22:36:43.247Z</time>
      </trkpt>
      <trkpt lat="47.505697" lon="8.024216">
        <ele>352.456623</ele>
        <time>2021-11-14T22:36:44.818Z</time>
      </trkpt>
      <trkpt lat="47.505883" lon="8.023827">
        <ele>352.033308</ele>
        <time>2021-11-14T22:36:48.426Z</time>
      </trkpt>
      <trkpt lat="47.506199" lon="8.023103">
        <ele>350.758705</ele>
        <time>2021-11-14T22:36:54.798Z</time>
      </trkpt>
      <trkpt lat="47.506232" lon="8.023038">
        <ele>350.626027</ele>
        <time>2021-11-14T22:36:55.390Z</time>
      </trkpt>
      <trkpt lat="47.506258" lon="8.022985">
        <ele>350.519146</ele>
        <time>2021-11-14T22:36:55.865Z</time>
      </trkpt>
      <trkpt lat="47.506468" lon="8.022553">
        <ele>349.650691</ele>
        <time>2021-11-14T22:36:59.712Z</time>
      </trkpt>
      <trkpt lat="47.506535" lon="8.022414">
        <ele>349.372059</ele>
        <time>2021-11-14T22:37:00.915Z</time>
      </trkpt>
      <trkpt lat="47.506621" lon="8.022234">
        <ele>349.012308</ele>
        <time>2021-11-14T22:37:02.506Z</time>
      </trkpt>
      <trkpt lat="47.506655" lon="8.022123">
        <ele>348.813437</ele>
        <time>2021-11-14T22:37:03.369Z</time>
      </trkpt>
      <trkpt lat="47.506678" lon="8.022015">
        <ele>348.628660</ele>
        <time>2021-11-14T22:37:04.151Z</time>
      </trkpt>
      <trkpt lat="47.506735" lon="8.021861">
        <ele>348.342127</ele>
        <time>2021-11-14T22:37:05.392Z</time>
      </trkpt>
      <trkpt lat="47.506867" lon="8.021604">
        <ele>347.815322</ele>
        <time>2021-11-14T22:37:07.621Z</time>
      </trkpt>
      <trkpt lat="47.506910" lon="8.021529">
        <ele>347.654806</ele>
        <time>2021-11-14T22:37:08.292Z</time>
      </trkpt>
      <trkpt lat="47.506949" lon="8.021459">
        <ele>347.510853</ele>
        <time>2021-11-14T22:37:08.947Z</time>
      </trkpt>
      <trkpt lat="47.507007" lon="8.021362">
        <ele>347.335270</ele>
        <time>2021-11-14T22:37:09.848Z</time>
      </trkpt>
      <trkpt lat="47.507213" lon="8.021061">
        <ele>346.754497</ele>
        <time>2021-11-14T22:37:12.850Z</time>
      </trkpt>
      <trkpt lat="47.507466" lon="8.020697">
        <ele>346.046601</ele>
        <time>2021-11-14T22:37:16.568Z</time>
      </trkpt>
      <trkpt lat="47.507609" lon="8.020484">
        <ele>345.639567</ele>
        <time>2021-11-14T22:37:18.764Z</time>
      </trkpt>
      <trkpt lat="47.507666" lon="8.020400">
        <ele>345.478187</ele>
        <time>2021-11-14T22:37:19.653Z</time>
      </trkpt>
      <trkpt lat="47.507863" lon="8.020075">
        <ele>344.886334</ele>
        <time>2021-11-14T22:37:22.993Z</time>
      </trkpt>
      <trkpt lat="47.507951" lon="8.019911">
        <ele>344.602454</ele>
        <time>2021-11-14T22:37:24.658Z</time>
      </trkpt>
      <trkpt lat="47.508029" lon="8.019761">
        <ele>344.345883</ele>
        <time>2021-11-14T22:37:26.093Z</time>
      </trkpt>
      <trkpt lat="47.508075" lon="8.019669">
        <ele>344.190744</ele>
        <time>2021-11-14T22:37:27.022Z</time>
      </trkpt>
      <trkpt lat="47.508117" lon="8.019584">
        <ele>344.048004</ele>
        <time>2021-11-14T22:37:27.854Z</time>
      </trkpt>
      <trkpt lat="47.508273" lon="8.019268">
        <ele>343.889798</ele>
        <time>2021-11-14T22:37:31.058Z</time>
      </trkpt>
      <trkpt lat="47.508403" lon="8.018982">
        <ele>343.852632</ele>
        <time>2021-11-14T22:37:34.006Z</time>
      </trkpt>
      <trkpt lat="47.508436" lon="8.018909">
        <ele>343.843161</ele>
        <time>2021-11-14T22:37:34.752Z</time>
      </trkpt>
      <trkpt lat="47.508505" lon="8.018716">
        <ele>343.819618</ele>
        <time>2021-11-14T22:37:36.703Z</time>
      </trkpt>
      <trkpt lat="47.508517" lon="8.018677">
        <ele>343.814998</ele>
        <time>2021-11-14T22:37:37.115Z</time>
      </trkpt>
      <trkpt lat="47.508544" lon="8.018690">
        <ele>343.810466</ele>
        <time>2021-11-14T22:37:37.570Z</time>
      </trkpt>
      <trkpt lat="47.508639" lon="8.018617">
        <ele>343.793382</ele>
        <time>2021-11-14T22:37:39.017Z</time>
      </trkpt>
      <trkpt lat="47.508635" lon="8.018495">
        <ele>343.780213</ele>
        <time>2021-11-14T22:37:40.109Z</time>
      </trkpt>
      <trkpt lat="47.508617" lon="8.018463">
        <ele>343.775723</ele>
        <time>2021-11-14T22:37:40.546Z</time>
      </trkpt>
      <trkpt lat="47.508636" lon="8.018423">
        <ele>343.770451</ele>
        <time>2021-11-14T22:37:41.044Z</time>
      </trkpt>
      <trkpt lat="47.508699" lon="8.018304">
        <ele>343.754150</ele>
        <time>2021-11-14T22:37:42.709Z</time>
      </trkpt>
      <trkpt lat="47.508805" lon="8.018141">
        <ele>343.729755</ele>
        <time>2021-11-14T22:37:45.088Z</time>
      </trkpt>
      <trkpt lat="47.508896" lon="8.018035">
        <ele>343.711273</ele>
        <time>2021-11-14T22:37:46.966Z</time>
      </trkpt>
      <trkpt lat="47.508988" lon="8.017959">
        <ele>343.694458</ele>
        <time>2021-11-14T22:37:48.866Z</time>
      </trkpt>
      <trkpt lat="47.509105" lon="8.017861">
        <ele>343.673001</ele>
        <time>2021-11-14T22:37:51.069Z</time>
      </trkpt>
      <trkpt lat="47.509253" lon="8.017765">
        <ele>343.647210</ele>
        <time>2021-11-14T22:37:53.852Z</time>
      </trkpt>
      <trkpt lat="47.509437" lon="8.017668">
        <ele>343.705385</ele>
        <time>2021-11-14T22:37:57.272Z</time>
      </trkpt>
      <trkpt lat="47.509596" lon="8.017609">
        <ele>343.803239</ele>
        <time>2021-11-14T22:38:00.122Z</time>
      </trkpt>
      <trkpt lat="47.509728" lon="8.017576">
        <ele>343.883154</ele>
        <time>2021-11-14T22:38:02.547Z</time>
      </trkpt>
      <trkpt lat="47.509872" lon="8.017541">
        <ele>343.970268</ele>
        <time>2021-11-14T22:38:05.104Z</time>
      </trkpt>
      <trkpt lat="47.510117" lon="8.017458">
        <ele>344.120305</ele>
        <time>2021-11-14T22:38:09.642Z</time>
      </trkpt>
      <trkpt lat="47.510624" lon="8.017217">
        <ele>344.438185</ele>
        <time>2021-11-14T22:38:19.135Z</time>
      </trkpt>
      <trkpt lat="47.511079" lon="8.016999">
        <ele>344.704818</ele>
        <time>2021-11-14T22:38:27.156Z</time>
      </trkpt>
      <trkpt lat="47.511835" lon="8.016624">
        <ele>344.584834</ele>
        <time>2021-11-14T22:38:39.213Z</time>
      </trkpt>
      <trkpt lat="47.511937" lon="8.016578">
        <ele>344.568788</ele>
        <time>2021-11-14T22:38:40.885Z</time>
      </trkpt>
      <trkpt lat="47.512292" lon="8.016407">
        <ele>344.512609</ele>
        <time>2021-11-14T22:38:46.047Z</time>
      </trkpt>
      <trkpt lat="47.512572" lon="8.016270">
        <ele>344.468231</ele>
        <time>2021-11-14T22:38:49.951Z</time>
      </trkpt>
      <trkpt lat="47.512748" lon="8.016153">
        <ele>344.439198</ele>
        <time>2021-11-14T22:38:52.563Z</time>
      </trkpt>
      <trkpt lat="47.512943" lon="8.015998">
        <ele>344.182290</ele>
        <time>2021-11-14T22:38:55.421Z</time>
      </trkpt>
      <trkpt lat="47.513615" lon="8.015346">
        <ele>343.217867</ele>
        <time>2021-11-14T22:39:04.980Z</time>
      </trkpt>
      <trkpt lat="47.513872" lon="8.015092">
        <ele>342.846955</ele>
        <time>2021-11-14T22:39:08.487Z</time>
      </trkpt>
      <trkpt lat="47.513919" lon="8.015052">
        <ele>342.781881</ele>
        <time>2021-11-14T22:39:09.132Z</time>
      </trkpt>
      <trkpt lat="47.514036" lon="8.014936">
        <ele>342.612857</ele>
        <time>2021-11-14T22:39:10.758Z</time>
      </trkpt>
      <trkpt lat="47.514162" lon="8.014813">
        <ele>342.431695</ele>
        <time>2021-11-14T22:39:12.461Z</time>
      </trkpt>
      <trkpt lat="47.514464" lon="8.014550">
        <ele>342.006975</ele>
        <time>2021-11-14T22:39:16.540Z</time>
      </trkpt>
      <trkpt lat="47.514628" lon="8.014407">
        <ele>341.774973</ele>
        <time>2021-11-14T22:39:18.754Z</time>
      </trkpt>
      <trkpt lat="47.514746" lon="8.014292">
        <ele>341.602771</ele>
        <time>2021-11-14T22:39:20.398Z</time>
      </trkpt>
      <trkpt lat="47.515054" lon="8.014017">
        <ele>341.164346</ele>
        <time>2021-11-14T22:39:24.626Z</time>
      </trkpt>
      <trkpt lat="47.515263" lon="8.013836">
        <ele>340.869201</ele>
        <time>2021-11-14T22:39:27.515Z</time>
      </trkpt>
      <trkpt lat="47.515468" lon="8.013643">
        <ele>340.573073</ele>
        <time>2021-11-14T22:39:30.415Z</time>
      </trkpt>
      <trkpt lat="47.515487" lon="8.013682">
        <ele>340.533484</ele>
        <time>2021-11-14T22:39:30.784Z</time>
      </trkpt>
      <trkpt lat="47.515592" lon="8.013719">
        <ele>340.401917</ele>
        <time>2021-11-14T22:39:32.112Z</time>
      </trkpt>
      <trkpt lat="47.515625" lon="8.013694">
        <ele>340.356731</ele>
        <time>2021-11-14T22:39:32.537Z</time>
      </trkpt>
      <trkpt lat="47.515640" lon="8.013674">
        <ele>340.332126</ele>
        <time>2021-11-14T22:39:32.794Z</time>
      </trkpt>
      <trkpt lat="47.515666" lon="8.013522">
        <ele>340.203036</ele>
        <time>2021-11-14T22:39:34.103Z</time>
      </trkpt>
      <trkpt lat="47.515654" lon="8.013483">
        <ele>340.167754</ele>
        <time>2021-11-14T22:39:34.483Z</time>
      </trkpt>
      <trkpt lat="47.515686" lon="8.013458">
        <ele>340.123649</ele>
        <time>2021-11-14T22:39:34.882Z</time>
      </trkpt>
      <trkpt lat="47.516968" lon="8.012240">
        <ele>339.093504</ele>
        <time>2021-11-14T22:39:54.604Z</time>
      </trkpt>
      <trkpt lat="47.517220" lon="8.011958">
        <ele>338.882840</ele>
        <time>2021-11-14T22:39:58.846Z</time>
      </trkpt>
      <trkpt lat="47.517559" lon="8.011519">
        <ele>338.558368</ele>
        <time>2021-11-14T22:40:04.775Z</time>
      </trkpt>
      <trkpt lat="47.517842" lon="8.011140">
        <ele>338.283448</ele>
        <time>2021-11-14T22:40:09.668Z</time>
      </trkpt>
      <trkpt lat="47.518886" lon="8.009691">
        <ele>337.173033</ele>
        <time>2021-11-14T22:40:27.498Z</time>
      </trkpt>
      <trkpt lat="47.520570" lon="8.007346">
        <ele>335.305884</ele>
        <time>2021-11-14T22:40:56.144Z</time>
      </trkpt>
      <trkpt lat="47.524655" lon="8.001699">
        <ele>332.359230</ele>
        <time>2021-11-14T22:42:10.920Z</time>
      </trkpt>
      <trkpt lat="47.524855" lon="8.001439">
        <ele>332.185854</ele>
        <time>2021-11-14T22:42:14.241Z</time>
      </trkpt>
      <trkpt lat="47.525162" lon="8.001004">
        <ele>331.921762</ele>
        <time>2021-11-14T22:42:19.294Z</time>
      </trkpt>
      <trkpt lat="47.526084" lon="8.000015">
        <ele>331.381264</ele>
        <time>2021-11-14T22:42:33.867Z</time>
      </trkpt>
      <trkpt lat="47.526401" lon="7.999417">
        <ele>331.137536</ele>
        <time>2021-11-14T22:42:41.195Z</time>
      </trkpt>
      <trkpt lat="47.526473" lon="7.999201">
        <ele>331.133956</ele>
        <time>2021-11-14T22:42:44.218Z</time>
      </trkpt>
      <trkpt lat="47.526730" lon="7.998233">
        <ele>331.389715</ele>
        <time>2021-11-14T22:42:55.327Z</time>
      </trkpt>
      <trkpt lat="47.526915" lon="7.997856">
        <ele>331.504309</ele>
        <time>2021-11-14T22:43:00.457Z</time>
      </trkpt>
      <trkpt lat="47.527213" lon="7.997459">
        <ele>331.650271</ele>
        <time>2021-11-14T22:43:07.660Z</time>
      </trkpt>
      <trkpt lat="47.527614" lon="7.997121">
        <ele>331.726990</ele>
        <time>2021-11-14T22:43:15.382Z</time>
      </trkpt>
      <trkpt lat="47.528128" lon="7.996500">
        <ele>331.608937</ele>
        <time>2021-11-14T22:43:25.486Z</time>
      </trkpt>
      <trkpt lat="47.528456" lon="7.995886">
        <ele>331.514855</ele>
        <time>2021-11-14T22:43:32.475Z</time>
      </trkpt>
      <trkpt lat="47.528880" lon="7.995091">
        <ele>331.266349</ele>
        <time>2021-11-14T22:43:41.428Z</time>
      </trkpt>
      <trkpt lat="47.529180" lon="7.994531">
        <ele>330.931532</ele>
        <time>2021-11-14T22:43:47.687Z</time>
      </trkpt>
      <trkpt lat="47.529261" lon="7.994394">
        <ele>330.846242</ele>
        <time>2021-11-14T22:43:49.210Z</time>
      </trkpt>
      <trkpt lat="47.529350" lon="7.994228">
        <ele>330.746962</ele>
        <time>2021-11-14T22:43:50.992Z</time>
      </trkpt>
      <trkpt lat="47.530141" lon="7.992757">
        <ele>330.131005</ele>
        <time>2021-11-14T22:44:06.935Z</time>
      </trkpt>
      <trkpt lat="47.530495" lon="7.992103">
        <ele>330.060272</ele>
        <time>2021-11-14T22:44:14.837Z</time>
      </trkpt>
      <trkpt lat="47.530776" lon="7.991586">
        <ele>330.004265</ele>
        <time>2021-11-14T22:44:22.163Z</time>
      </trkpt>
      <trkpt lat="47.530933" lon="7.991310">
        <ele>329.973811</ele>
        <time>2021-11-14T22:44:25.822Z</time>
      </trkpt>
      <trkpt lat="47.530979" lon="7.991211">
        <ele>329.970053</ele>
        <time>2021-11-14T22:44:27.352Z</time>
      </trkpt>
      <trkpt lat="47.531363" lon="7.990436">
        <ele>330.591192</ele>
        <time>2021-11-14T22:44:38.701Z</time>
      </trkpt>
      <trkpt lat="47.531667" lon="7.989873">
        <ele>331.056998</ele>
        <time>2021-11-14T22:44:48.521Z</time>
      </trkpt>
      <trkpt lat="47.531823" lon="7.989607">
        <ele>331.284657</ele>
        <time>2021-11-14T22:44:53.214Z</time>
      </trkpt>
      <trkpt lat="47.531897" lon="7.989450">
        <ele>331.408375</ele>
        <time>2021-11-14T22:44:55.740Z</time>
      </trkpt>
      <trkpt lat="47.532014" lon="7.989225">
        <ele>331.591876</ele>
        <time>2021-11-14T22:44:59.507Z</time>
      </trkpt>
      <trkpt lat="47.532299" lon="7.988577">
        <ele>332.049714</ele>
        <time>2021-11-14T22:45:09.300Z</time>
      </trkpt>
      <trkpt lat="47.532373" lon="7.988399">
        <ele>332.170851</ele>
        <time>2021-11-14T22:45:11.970Z</time>
      </trkpt>
      <trkpt lat="47.532401" lon="7.988331">
        <ele>332.217007</ele>
        <time>2021-11-14T22:45:12.965Z</time>
      </trkpt>
      <trkpt lat="47.532464" lon="7.988171">
        <ele>332.324342</ele>
        <time>2021-11-14T22:45:15.307Z</time>
      </trkpt>
      <trkpt lat="47.532544" lon="7.987973">
        <ele>332.458059</ele>
        <time>2021-11-14T22:45:18.102Z</time>
      </trkpt>
      <trkpt lat="47.532621" lon="7.987826">
        <ele>332.565875</ele>
        <time>2021-11-14T22:45:20.400Z</time>
      </trkpt>
      <trkpt lat="47.532716" lon="7.987667">
        <ele>332.688913</ele>
        <time>2021-11-14T22:45:22.969Z</time>
      </trkpt>
      <trkpt lat="47.532879" lon="7.987447">
        <ele>332.878190</ele>
        <time>2021-11-14T22:45:27.035Z</time>
      </trkpt>
      <trkpt lat="47.533114" lon="7.987128">
        <ele>333.151787</ele>
        <time>2021-11-14T22:45:32.642Z</time>
      </trkpt>
      <trkpt lat="47.533208" lon="7.986980">
        <ele>333.255399</ele>
        <time>2021-11-14T22:45:35.144Z</time>
      </trkpt>
      <trkpt lat="47.533546" lon="7.986336">
        <ele>333.561314</ele>
        <time>2021-11-14T22:45:44.229Z</time>
      </trkpt>
      <trkpt lat="47.533975" lon="7.985526">
        <ele>333.947407</ele>
        <time>2021-11-14T22:45:55.658Z</time>
      </trkpt>
      <trkpt lat="47.534197" lon="7.985105">
        <ele>334.147745</ele>
        <time>2021-11-14T22:46:01.831Z</time>
      </trkpt>
      <trkpt lat="47.534320" lon="7.984882">
        <ele>334.301607</ele>
        <time>2021-11-14T22:46:05.048Z</time>
      </trkpt>
      <trkpt lat="47.534722" lon="7.984096">
        <ele>335.295828</ele>
        <time>2021-11-14T22:46:17.415Z</time>
      </trkpt>
      <trkpt lat="47.534817" lon="7.983835">
        <ele>335.594792</ele>
        <time>2021-11-14T22:46:21.177Z</time>
      </trkpt>
      <trkpt lat="47.535231" lon="7.982582">
        <ele>337.018342</ele>
        <time>2021-11-14T22:46:43.117Z</time>
      </trkpt>
      <trkpt lat="47.535300" lon="7.982379">
        <ele>337.292529</ele>
        <time>2021-11-14T22:46:46.612Z</time>
      </trkpt>
      <trkpt lat="47.535328" lon="7.982298">
        <ele>337.402313</ele>
        <time>2021-11-14T22:46:48.019Z</time>
      </trkpt>
      <trkpt lat="47.535345" lon="7.982248">
        <ele>337.469850</ele>
        <time>2021-11-14T22:46:49.487Z</time>
      </trkpt>
      <trkpt lat="47.535452" lon="7.981933">
        <ele>337.895257</ele>
        <time>2021-11-14T22:46:55.078Z</time>
      </trkpt>
      <trkpt lat="47.535599" lon="7.981498">
        <ele>338.482112</ele>
        <time>2021-11-14T22:47:03.382Z</time>
      </trkpt>
      <trkpt lat="47.536061" lon="7.980200">
        <ele>340.055089</ele>
        <time>2021-11-14T22:47:24.711Z</time>
      </trkpt>
      <trkpt lat="47.536340" lon="7.979418">
        <ele>339.419660</ele>
        <time>2021-11-14T22:47:33.036Z</time>
      </trkpt>
      <trkpt lat="47.536403" lon="7.979241">
        <ele>339.275910</ele>
        <time>2021-11-14T22:47:34.660Z</time>
      </trkpt>
      <trkpt lat="47.536460" lon="7.979083">
        <ele>339.147211</ele>
        <time>2021-11-14T22:47:36.103Z</time>
      </trkpt>
      <trkpt lat="47.536866" lon="7.977996">
        <ele>338.254750</ele>
        <time>2021-11-14T22:47:45.330Z</time>
      </trkpt>
      <trkpt lat="47.537896" lon="7.975317">
        <ele>332.694721</ele>
        <time>2021-11-14T22:48:06.785Z</time>
      </trkpt>
      <trkpt lat="47.538106" lon="7.974772">
        <ele>331.698435</ele>
        <time>2021-11-14T22:48:11.307Z</time>
      </trkpt>
      <trkpt lat="47.538490" lon="7.973699">
        <ele>329.770343</ele>
        <time>2021-11-14T22:48:20.135Z</time>
      </trkpt>
      <trkpt lat="47.538687" lon="7.972850">
        <ele>328.371163</ele>
        <time>2021-11-14T22:48:26.701Z</time>
      </trkpt>
      <trkpt lat="47.538858" lon="7.971696">
        <ele>326.565795</ele>
        <time>2021-11-14T22:48:35.370Z</time>
      </trkpt>
      <trkpt lat="47.538935" lon="7.971210">
        <ele>325.802978</ele>
        <time>2021-11-14T22:48:39.001Z</time>
      </trkpt>
      <trkpt lat="47.539052" lon="7.970439">
        <ele>324.598031</ele>
        <time>2021-11-14T22:48:44.631Z</time>
      </trkpt>
      <trkpt lat="47.539144" lon="7.969781">
        <ele>323.578319</ele>
        <time>2021-11-14T22:48:49.429Z</time>
      </trkpt>
      <trkpt lat="47.539248" lon="7.969246">
        <ele>322.733465</ele>
        <time>2021-11-14T22:48:53.441Z</time>
      </trkpt>
      <trkpt lat="47.539403" lon="7.968640">
        <ele>321.750067</ele>
        <time>2021-11-14T22:48:58.174Z</time>
      </trkpt>
      <trkpt lat="47.539560" lon="7.968062">
        <ele>320.838733</ele>
        <time>2021-11-14T22:49:02.820Z</time>
      </trkpt>
      <trkpt lat="47.539680" lon="7.967625">
        <ele>320.322689</ele>
        <time>2021-11-14T22:49:06.392Z</time>
      </trkpt>
      <trkpt lat="47.539909" lon="7.966784">
        <ele>319.330751</ele>
        <time>2021-11-14T22:49:13.247Z</time>
      </trkpt>
      <trkpt lat="47.540100" lon="7.966046">
        <ele>318.466205</ele>
        <time>2021-11-14T22:49:19.522Z</time>
      </trkpt>
      <trkpt lat="47.540200" lon="7.965632">
        <ele>317.987257</ele>
        <time>2021-11-14T22:49:23.025Z</time>
      </trkpt>
      <trkpt lat="47.540257" lon="7.965417">
        <ele>317.753322</ele>
        <time>2021-11-14T22:49:24.764Z</time>
      </trkpt>
      <trkpt lat="47.540467" lon="7.964759">
        <ele>317.016202</ele>
        <time>2021-11-14T22:49:30.505Z</time>
      </trkpt>
      <trkpt lat="47.540959" lon="7.963916">
        <ele>315.887611</ele>
        <time>2021-11-14T22:49:39.160Z</time>
      </trkpt>
      <trkpt lat="47.541019" lon="7.963815">
        <ele>315.751356</ele>
        <time>2021-11-14T22:49:40.112Z</time>
      </trkpt>
      <trkpt lat="47.541123" lon="7.963520">
        <ele>315.414306</ele>
        <time>2021-11-14T22:49:42.709Z</time>
      </trkpt>
      <trkpt lat="47.541217" lon="7.963187">
        <ele>314.944385</ele>
        <time>2021-11-14T22:49:45.467Z</time>
      </trkpt>
      <trkpt lat="47.541258" lon="7.962975">
        <ele>314.633170</ele>
        <time>2021-11-14T22:49:47.301Z</time>
      </trkpt>
      <trkpt lat="47.541293" lon="7.962730">
        <ele>314.279764</ele>
        <time>2021-11-14T22:49:49.145Z</time>
      </trkpt>
      <trkpt lat="47.541308" lon="7.962513">
        <ele>313.971928</ele>
        <time>2021-11-14T22:49:50.905Z</time>
      </trkpt>
      <trkpt lat="47.541314" lon="7.962377">
        <ele>313.779592</ele>
        <time>2021-11-14T22:49:51.972Z</time>
      </trkpt>
      <trkpt lat="47.541316" lon="7.962197">
        <ele>313.525538</ele>
        <time>2021-11-14T22:49:53.276Z</time>
      </trkpt>
      <trkpt lat="47.541242" lon="7.961294">
        <ele>312.241849</ele>
        <time>2021-11-14T22:49:59.923Z</time>
      </trkpt>
      <trkpt lat="47.541153" lon="7.960814">
        <ele>311.529470</ele>
        <time>2021-11-14T22:50:03.453Z</time>
      </trkpt>
      <trkpt lat="47.541060" lon="7.960321">
        <ele>310.316271</ele>
        <time>2021-11-14T22:50:07.043Z</time>
      </trkpt>
      <trkpt lat="47.541027" lon="7.959944">
        <ele>309.415280</ele>
        <time>2021-11-14T22:50:09.545Z</time>
      </trkpt>
      <trkpt lat="47.541019" lon="7.959792">
        <ele>309.053938</ele>
        <time>2021-11-14T22:50:10.590Z</time>
      </trkpt>
      <trkpt lat="47.541012" lon="7.959578">
        <ele>308.546150</ele>
        <time>2021-11-14T22:50:12.065Z</time>
      </trkpt>
      <trkpt lat="47.541016" lon="7.959388">
        <ele>308.095621</ele>
        <time>2021-11-14T22:50:13.267Z</time>
      </trkpt>
      <trkpt lat="47.541081" lon="7.958828">
        <ele>306.748913</ele>
        <time>2021-11-14T22:50:17.036Z</time>
      </trkpt>
      <trkpt lat="47.541226" lon="7.958150">
        <ele>305.112029</ele>
        <time>2021-11-14T22:50:21.797Z</time>
      </trkpt>
      <trkpt lat="47.541305" lon="7.957787">
        <ele>304.458563</ele>
        <time>2021-11-14T22:50:24.281Z</time>
      </trkpt>
      <trkpt lat="47.541355" lon="7.957559">
        <ele>304.047824</ele>
        <time>2021-11-14T22:50:25.982Z</time>
      </trkpt>
      <trkpt lat="47.541450" lon="7.956897">
        <ele>302.888247</ele>
        <time>2021-11-14T22:50:30.616Z</time>
      </trkpt>
      <trkpt lat="47.541464" lon="7.956698">
        <ele>302.545446</ele>
        <time>2021-11-14T22:50:32.022Z</time>
      </trkpt>
      <trkpt lat="47.541533" lon="7.955526">
        <ele>300.663275</ele>
        <time>2021-11-14T22:50:40.856Z</time>
      </trkpt>
      <trkpt lat="47.541554" lon="7.955311">
        <ele>300.635435</ele>
        <time>2021-11-14T22:50:42.893Z</time>
      </trkpt>
      <trkpt lat="47.541735" lon="7.953892">
        <ele>300.450366</ele>
        <time>2021-11-14T22:50:57.103Z</time>
      </trkpt>
      <trkpt lat="47.541773" lon="7.953695">
        <ele>300.424110</ele>
        <time>2021-11-14T22:50:59.350Z</time>
      </trkpt>
      <trkpt lat="47.541791" lon="7.953601">
        <ele>300.411588</ele>
        <time>2021-11-14T22:51:00.384Z</time>
      </trkpt>
      <trkpt lat="47.541991" lon="7.952667">
        <ele>300.396166</ele>
        <time>2021-11-14T22:51:11.240Z</time>
      </trkpt>
      <trkpt lat="47.542169" lon="7.951815">
        <ele>300.552083</ele>
        <time>2021-11-14T22:51:20.979Z</time>
      </trkpt>
      <trkpt lat="47.542192" lon="7.951713">
        <ele>300.570883</ele>
        <time>2021-11-14T22:51:22.240Z</time>
      </trkpt>
      <trkpt lat="47.542357" lon="7.951037">
        <ele>300.696549</ele>
        <time>2021-11-14T22:51:29.705Z</time>
      </trkpt>
      <trkpt lat="47.542444" lon="7.950687">
        <ele>300.761751</ele>
        <time>2021-11-14T22:51:33.536Z</time>
      </trkpt>
      <trkpt lat="47.542546" lon="7.950274">
        <ele>300.880968</ele>
        <time>2021-11-14T22:51:37.883Z</time>
      </trkpt>
      <trkpt lat="47.542554" lon="7.950231">
        <ele>300.896973</ele>
        <time>2021-11-14T22:51:38.370Z</time>
      </trkpt>
      <trkpt lat="47.542560" lon="7.950202">
        <ele>300.907856</ele>
        <time>2021-11-14T22:51:38.704Z</time>
      </trkpt>
      <trkpt lat="47.542609" lon="7.949914">
        <ele>301.014428</ele>
        <time>2021-11-14T22:51:41.703Z</time>
      </trkpt>
      <trkpt lat="47.542719" lon="7.949175">
        <ele>301.285964</ele>
        <time>2021-11-14T22:51:49.606Z</time>
      </trkpt>
      <trkpt lat="47.542826" lon="7.948298">
        <ele>301.605745</ele>
        <time>2021-11-14T22:52:00.549Z</time>
      </trkpt>
      <trkpt lat="47.542838" lon="7.948225">
        <ele>301.632704</ele>
        <time>2021-11-14T22:52:01.375Z</time>
      </trkpt>
      <trkpt lat="47.542875" lon="7.948001">
        <ele>301.715450</ele>
        <time>2021-11-14T22:52:04.259Z</time>
      </trkpt>
      <trkpt lat="47.542928" lon="7.947798">
        <ele>301.886456</ele>
        <time>2021-11-14T22:52:07.183Z</time>
      </trkpt>
      <trkpt lat="47.542957" lon="7.947651">
        <ele>302.072075</ele>
        <time>2021-11-14T22:52:08.890Z</time>
      </trkpt>
      <trkpt lat="47.543050" lon="7.947411">
        <ele>302.407479</ele>
        <time>2021-11-14T22:52:13.255Z</time>
      </trkpt>
      <trkpt lat="47.543087" lon="7.947317">
        <ele>302.539363</ele>
        <time>2021-11-14T22:52:14.534Z</time>
      </trkpt>
      <trkpt lat="47.543092" lon="7.947257">
        <ele>302.612636</ele>
        <time>2021-11-14T22:52:15.322Z</time>
      </trkpt>
      <trkpt lat="47.543097" lon="7.947186">
        <ele>302.699156</ele>
        <time>2021-11-14T22:52:16.173Z</time>
      </trkpt>
      <trkpt lat="47.543086" lon="7.947052">
        <ele>302.862762</ele>
        <time>2021-11-14T22:52:18.003Z</time>
      </trkpt>
      <trkpt lat="47.543056" lon="7.946935">
        <ele>303.014453</ele>
        <time>2021-11-14T22:52:20.369Z</time>
      </trkpt>
      <trkpt lat="47.543045" lon="7.946881">
        <ele>303.082817</ele>
        <time>2021-11-14T22:52:21.481Z</time>
      </trkpt>
      <trkpt lat="47.542982" lon="7.946547">
        <ele>303.503137</ele>
        <time>2021-11-14T22:52:26.080Z</time>
      </trkpt>
      <trkpt lat="47.542974" lon="7.946495">
        <ele>303.567778</ele>
        <time>2021-11-14T22:52:27.294Z</time>
      </trkpt>
      <trkpt lat="47.542960" lon="7.946400">
        <ele>303.685632</ele>
        <time>2021-11-14T22:52:29.131Z</time>
      </trkpt>
      <trkpt lat="47.542916" lon="7.945730">
        <ele>304.501518</ele>
        <time>2021-11-14T22:52:39.706Z</time>
      </trkpt>
      <trkpt lat="47.542913" lon="7.945267">
        <ele>305.033130</ele>
        <time>2021-11-14T22:52:47.193Z</time>
      </trkpt>
      <trkpt lat="47.543007" lon="7.943867">
        <ele>306.098266</ele>
        <time>2021-11-14T22:53:07.933Z</time>
      </trkpt>
      <trkpt lat="47.543161" lon="7.942213">
        <ele>306.698249</ele>
        <time>2021-11-14T22:53:26.338Z</time>
      </trkpt>
      <trkpt lat="47.543435" lon="7.940670">
        <ele>305.685265</ele>
        <time>2021-11-14T22:53:39.286Z</time>
      </trkpt>
      <trkpt lat="47.543826" lon="7.939433">
        <ele>304.381802</ele>
        <time>2021-11-14T22:53:49.688Z</time>
      </trkpt>
      <trkpt lat="47.544472" lon="7.937932">
        <ele>302.248195</ele>
        <time>2021-11-14T22:54:03.012Z</time>
      </trkpt>
      <trkpt lat="47.544705" lon="7.937395">
        <ele>301.524770</ele>
        <time>2021-11-14T22:54:07.852Z</time>
      </trkpt>
      <trkpt lat="47.544903" lon="7.936917">
        <ele>300.896892</ele>
        <time>2021-11-14T22:54:12.112Z</time>
      </trkpt>
      <trkpt lat="47.545074" lon="7.936484">
        <ele>300.335253</ele>
        <time>2021-11-14T22:54:15.943Z</time>
      </trkpt>
      <trkpt lat="47.545457" lon="7.935110">
        <ele>298.994589</ele>
        <time>2021-11-14T22:54:27.312Z</time>
      </trkpt>
      <trkpt lat="47.545674" lon="7.933625">
        <ele>298.486088</ele>
        <time>2021-11-14T22:54:40.392Z</time>
      </trkpt>
      <trkpt lat="47.545702" lon="7.933290">
        <ele>298.373117</ele>
        <time>2021-11-14T22:54:43.972Z</time>
      </trkpt>
      <trkpt lat="47.545724" lon="7.932758">
        <ele>298.397715</ele>
        <time>2021-11-14T22:54:50.238Z</time>
      </trkpt>
      <trkpt lat="47.545721" lon="7.931992">
        <ele>299.271245</ele>
        <time>2021-11-14T22:55:00.278Z</time>
      </trkpt>
      <trkpt lat="47.545696" lon="7.931497">
        <ele>299.837302</ele>
        <time>2021-11-14T22:55:07.483Z</time>
      </trkpt>
      <trkpt lat="47.545661" lon="7.930955">
        <ele>300.458199</ele>
        <time>2021-11-14T22:55:16.178Z</time>
      </trkpt>
      <trkpt lat="47.545563" lon="7.929641">
        <ele>301.552730</ele>
        <time>2021-11-14T22:55:38.518Z</time>
      </trkpt>
      <trkpt lat="47.545475" lon="7.928419">
        <ele>302.110764</ele>
        <time>2021-11-14T22:55:54.821Z</time>
      </trkpt>
      <trkpt lat="47.545421" lon="7.927686">
        <ele>302.445581</ele>
        <time>2021-11-14T22:56:00.924Z</time>
      </trkpt>
      <trkpt lat="47.545406" lon="7.927306">
        <ele>301.900071</ele>
        <time>2021-11-14T22:56:03.828Z</time>
      </trkpt>
      <trkpt lat="47.545407" lon="7.927001">
        <ele>301.267425</ele>
        <time>2021-11-14T22:56:06.115Z</time>
      </trkpt>
      <trkpt lat="47.545409" lon="7.926773">
        <ele>300.794462</ele>
        <time>2021-11-14T22:56:07.744Z</time>
      </trkpt>
      <trkpt lat="47.545417" lon="7.925848">
        <ele>298.875647</ele>
        <time>2021-11-14T22:56:14.079Z</time>
      </trkpt>
      <trkpt lat="47.545446" lon="7.925350">
        <ele>297.838846</ele>
        <time>2021-11-14T22:56:17.371Z</time>
      </trkpt>
      <trkpt lat="47.545466" lon="7.924880">
        <ele>296.860555</ele>
        <time>2021-11-14T22:56:20.424Z</time>
      </trkpt>
      <trkpt lat="47.545481" lon="7.924396">
        <ele>295.840841</ele>
        <time>2021-11-14T22:56:23.508Z</time>
      </trkpt>
      <trkpt lat="47.545521" lon="7.923709">
        <ele>294.389591</ele>
        <time>2021-11-14T22:56:28.033Z</time>
      </trkpt>
      <trkpt lat="47.545536" lon="7.923407">
        <ele>293.752274</ele>
        <time>2021-11-14T22:56:30.181Z</time>
      </trkpt>
      <trkpt lat="47.545553" lon="7.923142">
        <ele>293.192035</ele>
        <time>2021-11-14T22:56:32.012Z</time>
      </trkpt>
      <trkpt lat="47.545587" lon="7.922895">
        <ele>292.661493</ele>
        <time>2021-11-14T22:56:33.945Z</time>
      </trkpt>
      <trkpt lat="47.545641" lon="7.922610">
        <ele>292.038492</ele>
        <time>2021-11-14T22:56:36.091Z</time>
      </trkpt>
      <trkpt lat="47.545690" lon="7.922369">
        <ele>291.508767</ele>
        <time>2021-11-14T22:56:38.098Z</time>
      </trkpt>
      <trkpt lat="47.545699" lon="7.922325">
        <ele>291.412006</ele>
        <time>2021-11-14T22:56:38.392Z</time>
      </trkpt>
      <trkpt lat="47.545714" lon="7.922249">
        <ele>291.328110</ele>
        <time>2021-11-14T22:56:38.982Z</time>
      </trkpt>
      <trkpt lat="47.545778" lon="7.921947">
        <ele>291.168049</ele>
        <time>2021-11-14T22:56:41.684Z</time>
      </trkpt>
      <trkpt lat="47.545810" lon="7.921755">
        <ele>291.068046</ele>
        <time>2021-11-14T22:56:43.165Z</time>
      </trkpt>
      <trkpt lat="47.545881" lon="7.921096">
        <ele>290.730594</ele>
        <time>2021-11-14T22:56:48.627Z</time>
      </trkpt>
      <trkpt lat="47.545913" lon="7.920765">
        <ele>290.561511</ele>
        <time>2021-11-14T22:56:51.520Z</time>
      </trkpt>
      <trkpt lat="47.545973" lon="7.920313">
        <ele>290.328573</ele>
        <time>2021-11-14T22:56:55.990Z</time>
      </trkpt>
      <trkpt lat="47.546128" lon="7.919617">
        <ele>289.978962</ele>
        <time>2021-11-14T22:57:03.231Z</time>
      </trkpt>
      <trkpt lat="47.546262" lon="7.919081">
        <ele>289.814047</ele>
        <time>2021-11-14T22:57:09.279Z</time>
      </trkpt>
      <trkpt lat="47.546821" lon="7.916867">
        <ele>289.146502</ele>
        <time>2021-11-14T22:57:29.947Z</time>
      </trkpt>
      <trkpt lat="47.547032" lon="7.916218">
        <ele>288.967034</ele>
        <time>2021-11-14T22:57:36.254Z</time>
      </trkpt>
      <trkpt lat="47.547091" lon="7.916039">
        <ele>288.917406</ele>
        <time>2021-11-14T22:57:38.028Z</time>
      </trkpt>
      <trkpt lat="47.547113" lon="7.915971">
        <ele>288.898619</ele>
        <time>2021-11-14T22:57:38.619Z</time>
      </trkpt>
      <trkpt lat="47.547423" lon="7.915080">
        <ele>288.648886</ele>
        <time>2021-11-14T22:57:48.106Z</time>
      </trkpt>
      <trkpt lat="47.547994" lon="7.913433">
        <ele>289.123170</ele>
        <time>2021-11-14T22:58:07.810Z</time>
      </trkpt>
      <trkpt lat="47.548027" lon="7.913334">
        <ele>289.162239</ele>
        <time>2021-11-14T22:58:09.169Z</time>
      </trkpt>
      <trkpt lat="47.548412" lon="7.912168">
        <ele>289.743178</ele>
        <time>2021-11-14T22:58:25.572Z</time>
      </trkpt>
      <trkpt lat="47.549012" lon="7.910340">
        <ele>291.299783</ele>
        <time>2021-11-14T22:58:52.513Z</time>
      </trkpt>
      <trkpt lat="47.549102" lon="7.910058">
        <ele>291.538658</ele>
        <time>2021-11-14T22:58:56.633Z</time>
      </trkpt>
      <trkpt lat="47.549195" lon="7.909756">
        <ele>291.892354</ele>
        <time>2021-11-14T22:59:00.933Z</time>
      </trkpt>
      <trkpt lat="47.549272" lon="7.909500">
        <ele>292.197797</ele>
        <time>2021-11-14T22:59:04.583Z</time>
      </trkpt>
      <trkpt lat="47.549385" lon="7.909125">
        <ele>292.645358</ele>
        <time>2021-11-14T22:59:09.882Z</time>
      </trkpt>
      <trkpt lat="47.549520" lon="7.908678">
        <ele>293.179050</ele>
        <time>2021-11-14T22:59:16.222Z</time>
      </trkpt>
      <trkpt lat="47.549539" lon="7.908625">
        <ele>293.244452</ele>
        <time>2021-11-14T22:59:16.961Z</time>
      </trkpt>
      <trkpt lat="47.550497" lon="7.905558">
        <ele>298.475676</ele>
        <time>2021-11-14T23:00:11.869Z</time>
      </trkpt>
      <trkpt lat="47.550283" lon="7.905413">
        <ele>299.094219</ele>
        <time>2021-11-14T23:00:20.036Z</time>
      </trkpt>
      <trkpt lat="47.550067" lon="7.905245">
        <ele>299.982521</ele>
        <time>2021-11-14T23:00:28.722Z</time>
      </trkpt>
      <trkpt lat="47.549867" lon="7.905155">
        <ele>300.780679</ele>
        <time>2021-11-14T23:00:36.350Z</time>
      </trkpt>
      <trkpt lat="47.549868" lon="7.905010">
        <ele>301.154409</ele>
        <time>2021-11-14T23:00:39.756Z</time>
      </trkpt>
      <trkpt lat="47.550025" lon="7.904774">
        <ele>302.008445</ele>
        <time>2021-11-14T23:00:47.907Z</time>
      </trkpt>
      <trkpt lat="47.550302" lon="7.904164">
        <ele>303.903301</ele>
        <time>2021-11-14T23:01:06.206Z</time>
      </trkpt>
      <trkpt lat="47.550498" lon="7.903445">
        <ele>305.901810</ele>
        <time>2021-11-14T23:01:25.778Z</time>
      </trkpt>
      <trkpt lat="47.550688" lon="7.902451">
        <ele>308.515052</ele>
        <time>2021-11-14T23:01:48.326Z</time>
      </trkpt>
      <trkpt lat="47.550757" lon="7.901591">
        <ele>310.703184</ele>
        <time>2021-11-14T23:02:08.122Z</time>
      </trkpt>
      <trkpt lat="47.550769" lon="7.901362">
        <ele>311.283505</ele>
        <time>2021-11-14T23:02:14.030Z</time>
      </trkpt>
      <trkpt lat="47.550801" lon="7.900244">
        <ele>314.259885</ele>
        <time>2021-11-14T23:02:38.428Z</time>
      </trkpt>
      <trkpt lat="47.550819" lon="7.898109">
        <ele>320.264183</ele>
        <time>2021-11-14T23:03:25.468Z</time>
      </trkpt>
      <trkpt lat="47.550648" lon="7.896481">
        <ele>322.669153</ele>
        <time>2021-11-14T23:03:53.123Z</time>
      </trkpt>
      <trkpt lat="47.550639" lon="7.896345">
        <ele>322.867791</ele>
        <time>2021-11-14T23:03:55.498Z</time>
      </trkpt>
      <trkpt lat="47.550660" lon="7.896255">
        <ele>323.006212</ele>
        <time>2021-11-14T23:03:56.299Z</time>
      </trkpt>
      <trkpt lat="47.550838" lon="7.895509">
        <ele>324.156364</ele>
        <time>2021-11-14T23:04:06.467Z</time>
      </trkpt>
      <trkpt lat="47.550878" lon="7.895158">
        <ele>324.527161</ele>
        <time>2021-11-14T23:04:10.529Z</time>
      </trkpt>
      <trkpt lat="47.550908" lon="7.894308">
        <ele>325.412230</ele>
        <time>2021-11-14T23:04:21.001Z</time>
      </trkpt>
      <trkpt lat="47.550892" lon="7.893176">
        <ele>326.589584</ele>
        <time>2021-11-14T23:04:35.719Z</time>
      </trkpt>
      <trkpt lat="47.550904" lon="7.891725">
        <ele>330.680273</ele>
        <time>2021-11-14T23:05:05.481Z</time>
      </trkpt>
      <trkpt lat="47.550915" lon="7.890600">
        <ele>334.434535</ele>
        <time>2021-11-14T23:05:34.321Z</time>
      </trkpt>
      <trkpt lat="47.550833" lon="7.889069">
        <ele>340.540154</ele>
        <time>2021-11-14T23:06:16.955Z</time>
      </trkpt>
      <trkpt lat="47.550831" lon="7.888611">
        <ele>342.469571</ele>
        <time>2021-11-14T23:06:29.525Z</time>
      </trkpt>
      <trkpt lat="47.550789" lon="7.887816">
        <ele>345.828843</ele>
        <time>2021-11-14T23:06:50.137Z</time>
      </trkpt>
      <trkpt lat="47.550758" lon="7.887295">
        <ele>347.903176</ele>
        <time>2021-11-14T23:07:03.958Z</time>
      </trkpt>
      <trkpt lat="47.550677" lon="7.886476">
        <ele>350.933175</ele>
        <time>2021-11-14T23:07:25.447Z</time>
      </trkpt>
      <trkpt lat="47.550548" lon="7.885799">
        <ele>353.508233</ele>
        <time>2021-11-14T23:07:42.650Z</time>
      </trkpt>
      <trkpt lat="47.550391" lon="7.885109">
        <ele>356.173685</ele>
        <time>2021-11-14T23:08:00.287Z</time>
      </trkpt>
      <trkpt lat="47.550332" lon="7.884727">
        <ele>357.390900</ele>
        <time>2021-11-14T23:08:08.978Z</time>
      </trkpt>
      <trkpt lat="47.550234" lon="7.883221">
        <ele>361.434523</ele>
        <time>2021-11-14T23:08:41.809Z</time>
      </trkpt>
      <trkpt lat="47.549927" lon="7.881490">
        <ele>366.141898</ele>
        <time>2021-11-14T23:09:14.073Z</time>
      </trkpt>
      <trkpt lat="47.549726" lon="7.880786">
        <ele>368.117134</ele>
        <time>2021-11-14T23:09:30.049Z</time>
      </trkpt>
      <trkpt lat="47.549327" lon="7.879547">
        <ele>371.654892</ele>
        <time>2021-11-14T23:09:59.833Z</time>
      </trkpt>
      <trkpt lat="47.549318" lon="7.879398">
        <ele>372.037086</ele>
        <time>2021-11-14T23:10:03.022Z</time>
      </trkpt>
      <trkpt lat="47.549140" lon="7.879391">
        <ele>372.711093</ele>
        <time>2021-11-14T23:10:09.892Z</time>
      </trkpt>
      <trkpt lat="47.548718" lon="7.879258">
        <ele>374.344197</ele>
        <time>2021-11-14T23:10:23.563Z</time>
      </trkpt>
      <trkpt lat="47.548422" lon="7.878959">
        <ele>375.700263</ele>
        <time>2021-11-14T23:10:34.210Z</time>
      </trkpt>
      <trkpt lat="47.548234" lon="7.878638">
        <ele>376.786084</ele>
        <time>2021-11-14T23:10:42.642Z</time>
      </trkpt>
      <trkpt lat="47.547992" lon="7.877974">
        <ele>377.554154</ele>
        <time>2021-11-14T23:10:55.739Z</time>
      </trkpt>
      <trkpt lat="47.547574" lon="7.876801">
        <ele>377.351041</ele>
        <time>2021-11-14T23:11:09.502Z</time>
      </trkpt>
      <trkpt lat="47.547126" lon="7.875801">
        <ele>376.320117</ele>
        <time>2021-11-14T23:11:18.285Z</time>
      </trkpt>
      <trkpt lat="47.546309" lon="7.874154">
        <ele>370.041086</ele>
        <time>2021-11-14T23:11:31.473Z</time>
      </trkpt>
      <trkpt lat="47.546135" lon="7.873859">
        <ele>368.744146</ele>
        <time>2021-11-14T23:11:33.855Z</time>
      </trkpt>
      <trkpt lat="47.546077" lon="7.873763">
        <ele>368.151709</ele>
        <time>2021-11-14T23:11:34.666Z</time>
      </trkpt>
      <trkpt lat="47.545934" lon="7.873549">
        <ele>366.767034</ele>
        <time>2021-11-14T23:11:36.471Z</time>
      </trkpt>
      <trkpt lat="47.545746" lon="7.873302">
        <ele>365.055239</ele>
        <time>2021-11-14T23:11:38.759Z</time>
      </trkpt>
      <trkpt lat="47.545515" lon="7.873015">
        <ele>363.001453</ele>
        <time>2021-11-14T23:11:41.458Z</time>
      </trkpt>
      <trkpt lat="47.545478" lon="7.872968">
        <ele>362.669427</ele>
        <time>2021-11-14T23:11:41.900Z</time>
      </trkpt>
      <trkpt lat="47.545375" lon="7.872836">
        <ele>361.741651</ele>
        <time>2021-11-14T23:11:43.093Z</time>
      </trkpt>
      <trkpt lat="47.545131" lon="7.872664">
        <ele>359.900866</ele>
        <time>2021-11-14T23:11:45.552Z</time>
      </trkpt>
      <trkpt lat="47.544883" lon="7.872555">
        <ele>358.138626</ele>
        <time>2021-11-14T23:11:47.875Z</time>
      </trkpt>
      <trkpt lat="47.544390" lon="7.872423">
        <ele>354.967018</ele>
        <time>2021-11-14T23:11:52.339Z</time>
      </trkpt>
      <trkpt lat="47.543332" lon="7.872237">
        <ele>348.564526</ele>
        <time>2021-11-14T23:12:02.106Z</time>
      </trkpt>
      <trkpt lat="47.543251" lon="7.872152">
        <ele>347.968019</ele>
        <time>2021-11-14T23:12:03.047Z</time>
      </trkpt>
      <trkpt lat="47.543233" lon="7.872082">
        <ele>347.664159</ele>
        <time>2021-11-14T23:12:03.468Z</time>
      </trkpt>
      <trkpt lat="47.543013" lon="7.872182">
        <ele>346.281270</ele>
        <time>2021-11-14T23:12:05.708Z</time>
      </trkpt>
      <trkpt lat="47.542919" lon="7.872226">
        <ele>345.964039</ele>
        <time>2021-11-14T23:12:06.629Z</time>
      </trkpt>
      <trkpt lat="47.542814" lon="7.872280">
        <ele>345.964039</ele>
        <time>2021-11-14T23:12:07.682Z</time>
      </trkpt>
      <trkpt lat="47.542714" lon="7.872334">
        <ele>345.964039</ele>
        <time>2021-11-14T23:12:08.770Z</time>
      </trkpt>
      <trkpt lat="47.542537" lon="7.872430">
        <ele>345.964039</ele>
        <time>2021-11-14T23:12:10.504Z</time>
      </trkpt>
      <trkpt lat="47.542436" lon="7.872494">
        <ele>345.964039</ele>
        <time>2021-11-14T23:12:11.838Z</time>
      </trkpt>
      <trkpt lat="47.542394" lon="7.872341">
        <ele>345.964039</ele>
        <time>2021-11-14T23:12:12.924Z</time>
      </trkpt>
      <trkpt lat="47.542218" lon="7.871866">
        <ele>345.964039</ele>
        <time>2021-11-14T23:12:16.594Z</time>
      </trkpt>
      <trkpt lat="47.542091" lon="7.871721">
        <ele>345.964039</ele>
        <time>2021-11-14T23:12:18.112Z</time>
      </trkpt>
      <trkpt lat="47.542067" lon="7.871664">
        <ele>345.964039</ele>
        <time>2021-11-14T23:12:18.840Z</time>
      </trkpt>
      <trkpt lat="47.542039" lon="7.871556">
        <ele>345.964039</ele>
        <time>2021-11-14T23:12:19.738Z</time>
      </trkpt>
      <trkpt lat="47.541953" lon="7.871286">
        <ele>345.964039</ele>
        <time>2021-11-14T23:12:21.923Z</time>
      </trkpt>
      <trkpt lat="47.541796" lon="7.871042">
        <ele>345.964039</ele>
        <time>2021-11-14T23:12:24.470Z</time>
      </trkpt>
      <trkpt lat="47.541760" lon="7.870980">
        <ele>345.964039</ele>
        <time>2021-11-14T23:12:25.096Z</time>
      </trkpt>
    </trkseg>
  </trk>
</gpx>